Wetterdaten: aktuell Mittwoch, 27.09.2023 18:07
Datum Zeit Temp. 2m Feuchte 2m Luftdruck Regen Wind Richtung Richtung Taupunkt Windchill Windben
27.09.2023 18:07 21,9 C 77 % 1021,1 hPa 0,0 l/m 3,2 km/h (1 Bft) S-SO 159 17,7 C 21,9 C 4,8 km/h (1 Bft)
27.09.2023 18:06 22,0 C 77 % 1021,1 hPa 0,0 l/m 1,6 km/h (1 Bft) S-SO 161 17,8 C 22,0 C 4,8 km/h (1 Bft)
27.09.2023 18:05 22,0 C 77 % 1021,2 hPa 0,0 l/m 1,6 km/h (1 Bft) S-SO 160 17,8 C 22,0 C 4,8 km/h (1 Bft)
27.09.2023 18:04 22,1 C 77 % 1021,1 hPa 0,0 l/m 4,8 km/h (1 Bft) S-SO 155 17,9 C 22,1 C 4,8 km/h (1 Bft)
27.09.2023 18:03 22,1 C 76 % 1021,1 hPa 0,0 l/m 3,2 km/h (1 Bft) O-SO 107 17,7 C 22,1 C 4,8 km/h (1 Bft)
27.09.2023 18:02 22,2 C 76 % 1021,2 hPa 0,0 l/m 1,6 km/h (1 Bft) SO 131 17,8 C 22,2 C 6,4 km/h (2 Bft)
27.09.2023 18:01 22,3 C 76 % 1021,2 hPa 0,0 l/m 3,2 km/h (1 Bft) SO 131 17,9 C 22,3 C 6,4 km/h (2 Bft)
27.09.2023 18:00 22,4 C 76 % 1021,1 hPa 0,0 l/m 3,2 km/h (1 Bft) SO 146 18,0 C 22,4 C 6,4 km/h (2 Bft)
27.09.2023 17:59 22,4 C 76 % 1021,1 hPa 0,0 l/m 1,6 km/h (1 Bft) SO 139 18,0 C 22,4 C 6,4 km/h (2 Bft)
27.09.2023 17:58 22,5 C 75 % 1021,2 hPa 0,0 l/m 3,2 km/h (1 Bft) SO 125 17,8 C 22,5 C 6,4 km/h (2 Bft)
27.09.2023 17:57 22,5 C 75 % 1021,2 hPa 0,0 l/m 1,6 km/h (1 Bft) S-SO 156 17,8 C 22,5 C 6,4 km/h (2 Bft)
27.09.2023 17:56 22,6 C 75 % 1021,2 hPa 0,0 l/m 1,6 km/h (1 Bft) SO 124 17,9 C 22,6 C 6,4 km/h (2 Bft)
27.09.2023 17:55 22,7 C 74 % 1021,1 hPa 0,0 l/m 1,6 km/h (1 Bft) SO 130 17,8 C 22,7 C 6,4 km/h (2 Bft)
27.09.2023 17:54 22,8 C 74 % 1021,2 hPa 0,0 l/m 1,6 km/h (1 Bft) O-SO 116 17,9 C 22,8 C 6,4 km/h (2 Bft)
27.09.2023 17:53 22,9 C 74 % 1021,3 hPa 0,0 l/m 3,2 km/h (1 Bft) O-SO 118 18,0 C 22,9 C 4,8 km/h (1 Bft)
27.09.2023 17:52 22,9 C 74 % 1021,2 hPa 0,0 l/m 0,0 km/h (0 Bft) O-SO 107 18,0 C 22,9 C 4,8 km/h (1 Bft)
27.09.2023 17:51 23,0 C 74 % 1021,3 hPa 0,0 l/m 1,6 km/h (1 Bft) SO 133 18,1 C 23,0 C 4,8 km/h (1 Bft)
27.09.2023 17:50 23,0 C 74 % 1021,3 hPa 0,0 l/m 0,0 km/h (0 Bft) O 91 18,1 C 23,0 C 4,8 km/h (1 Bft)
27.09.2023 17:49 23,1 C 73 % 1021,3 hPa 0,0 l/m 1,6 km/h (1 Bft) SO 129 18,0 C 23,1 C 4,8 km/h (1 Bft)
27.09.2023 17:48 23,2 C 73 % 1021,3 hPa 0,0 l/m 0,0 km/h (0 Bft) O-SO 110 18,1 C 23,2 C 4,8 km/h (1 Bft)
27.09.2023 17:47 23,2 C 73 % 1021,3 hPa 0,0 l/m 1,6 km/h (1 Bft) SO 127 18,1 C 23,2 C 3,2 km/h (1 Bft)
27.09.2023 17:46 23,2 C 74 % 1021,4 hPa 0,0 l/m 0,0 km/h (0 Bft) SO 141 18,3 C 23,2 C 3,2 km/h (1 Bft)
27.09.2023 17:44 23,2 C 74 % 1021,3 hPa 0,0 l/m 3,2 km/h (1 Bft) SO 129 18,3 C 23,2 C 3,2 km/h (1 Bft)
27.09.2023 17:43 23,1 C 73 % 1021,4 hPa 0,0 l/m 0,0 km/h (0 Bft) SO 128 18,0 C 23,1 C 3,2 km/h (1 Bft)
27.09.2023 17:42 23,2 C 73 % 1021,4 hPa 0,0 l/m 3,2 km/h (1 Bft) O-SO 123 18,1 C 23,2 C 3,2 km/h (1 Bft)
27.09.2023 17:41 23,3 C 73 % 1021,4 hPa 0,0 l/m 3,2 km/h (1 Bft) SO 140 18,2 C 23,3 C 3,2 km/h (1 Bft)
27.09.2023 17:40 23,5 C 73 % 1021,4 hPa 0,0 l/m 1,6 km/h (1 Bft) SO 140 18,4 C 23,5 C 3,2 km/h (1 Bft)
27.09.2023 17:39 23,6 C 73 % 1021,4 hPa 0,0 l/m 3,2 km/h (1 Bft) SO 138 18,5 C 23,6 C 3,2 km/h (1 Bft)
27.09.2023 17:38 23,7 C 73 % 1021,4 hPa 0,0 l/m 1,6 km/h (1 Bft) S-SO 150 18,6 C 23,7 C 3,2 km/h (1 Bft)
27.09.2023 17:37 23,8 C 74 % 1021,4 hPa 0,0 l/m 1,6 km/h (1 Bft) SO 143 18,9 C 23,8 C 1,6 km/h (1 Bft)
27.09.2023 17:36 23,9 C 74 % 1021,4 hPa 0,0 l/m 1,6 km/h (1 Bft) S-SO 155 19,0 C 23,9 C 3,2 km/h (1 Bft)
27.09.2023 17:35 23,8 C 74 % 1021,5 hPa 0,0 l/m 1,6 km/h (1 Bft) S 175 18,9 C 23,8 C 3,2 km/h (1 Bft)
27.09.2023 17:34 23,8 C 74 % 1021,5 hPa 0,0 l/m 0,0 km/h (0 Bft) SW 216 18,9 C 23,8 C 4,8 km/h (1 Bft)
27.09.2023 17:33 23,8 C 74 % 1021,5 hPa 0,0 l/m 1,6 km/h (1 Bft) SW 217 18,9 C 23,8 C 4,8 km/h (1 Bft)
27.09.2023 17:32 23,6 C 74 % 1021,4 hPa 0,0 l/m 1,6 km/h (1 Bft) SW 215 18,7 C 23,6 C 4,8 km/h (1 Bft)
27.09.2023 17:31 23,6 C 74 % 1021,5 hPa 0,0 l/m 1,6 km/h (1 Bft) SW 215 18,7 C 23,6 C 4,8 km/h (1 Bft)
27.09.2023 17:30 23,5 C 75 % 1021,5 hPa 0,0 l/m 0,0 km/h (0 Bft) S-SO 148 18,8 C 23,5 C 4,8 km/h (1 Bft)
27.09.2023 17:29 23,5 C 75 % 1021,6 hPa 0,0 l/m 1,6 km/h (1 Bft) S-SO 150 18,8 C 23,5 C 4,8 km/h (1 Bft)
27.09.2023 17:28 23,4 C 75 % 1021,5 hPa 0,0 l/m 0,0 km/h (0 Bft) S-SO 166 18,7 C 23,4 C 4,8 km/h (1 Bft)
27.09.2023 17:27 23,3 C 75 % 1021,5 hPa 0,0 l/m 1,6 km/h (1 Bft) S-SW 203 18,6 C 23,3 C 4,8 km/h (1 Bft)
27.09.2023 17:26 23,3 C 75 % 1021,5 hPa 0,0 l/m 3,2 km/h (1 Bft) SW 221 18,6 C 23,3 C 4,8 km/h (1 Bft)
27.09.2023 17:25 23,3 C 72 % 1021,6 hPa 0,0 l/m 1,6 km/h (1 Bft) SW 230 18,0 C 23,3 C 4,8 km/h (1 Bft)
27.09.2023 17:24 23,3 C 72 % 1021,6 hPa 0,0 l/m 1,6 km/h (1 Bft) W 273 18,0 C 23,3 C 4,8 km/h (1 Bft)
27.09.2023 17:23 23,3 C 72 % 1021,6 hPa 0,0 l/m 3,2 km/h (1 Bft) W 269 18,0 C 23,3 C 4,8 km/h (1 Bft)
27.09.2023 17:22 23,3 C 70 % 1021,6 hPa 0,0 l/m 3,2 km/h (1 Bft) W 275 17,5 C 23,3 C 4,8 km/h (1 Bft)
27.09.2023 17:21 23,4 C 70 % 1021,6 hPa 0,0 l/m 3,2 km/h (1 Bft) W 281 17,6 C 23,4 C 4,8 km/h (1 Bft)
27.09.2023 17:20 23,5 C 71 % 1021,6 hPa 0,0 l/m 4,8 km/h (1 Bft) W 281 17,9 C 23,5 C 4,8 km/h (1 Bft)
27.09.2023 17:19 23,6 C 70 % 1021,7 hPa 0,0 l/m 4,8 km/h (1 Bft) W 277 17,8 C 23,6 C 4,8 km/h (1 Bft)
27.09.2023 17:18 23,6 C 70 % 1021,6 hPa 0,0 l/m 3,2 km/h (1 Bft) W 274 17,8 C 23,6 C 4,8 km/h (1 Bft)
27.09.2023 17:17 23,6 C 72 % 1021,7 hPa 0,0 l/m 4,8 km/h (1 Bft) W 273 18,2 C 23,6 C 4,8 km/h (1 Bft)
27.09.2023 17:16 23,6 C 71 % 1021,7 hPa 0,0 l/m 0,0 km/h (0 Bft) W 271 18,0 C 23,6 C 4,8 km/h (1 Bft)
27.09.2023 17:14 23,5 C 72 % 1021,7 hPa 0,0 l/m 3,2 km/h (1 Bft) W 271 18,2 C 23,5 C 4,8 km/h (1 Bft)
27.09.2023 17:13 23,4 C 71 % 1021,7 hPa 0,0 l/m 3,2 km/h (1 Bft) W 268 17,8 C 23,4 C 6,4 km/h (2 Bft)
27.09.2023 17:12 23,4 C 72 % 1021,7 hPa 0,0 l/m 3,2 km/h (1 Bft) SW 236 18,1 C 23,4 C 6,4 km/h (2 Bft)
27.09.2023 17:11 23,3 C 73 % 1021,7 hPa 0,0 l/m 1,6 km/h (1 Bft) W 268 18,2 C 23,3 C 8,0 km/h (2 Bft)
27.09.2023 17:10 23,2 C 74 % 1021,7 hPa 0,0 l/m 1,6 km/h (1 Bft) SW 224 18,3 C 23,2 C 8,0 km/h (2 Bft)
27.09.2023 17:09 23,1 C 74 % 1021,7 hPa 0,0 l/m 1,6 km/h (1 Bft) W-SW 245 18,2 C 23,1 C 8,0 km/h (2 Bft)
27.09.2023 17:08 23,0 C 74 % 1021,7 hPa 0,0 l/m 3,2 km/h (1 Bft) W 278 18,1 C 23,0 C 8,0 km/h (2 Bft)
27.09.2023 17:07 23,0 C 74 % 1021,8 hPa 0,0 l/m 3,2 km/h (1 Bft) W 275 18,1 C 23,0 C 8,0 km/h (2 Bft)
27.09.2023 17:05 23,0 C 72 % 1021,8 hPa 0,0 l/m 3,2 km/h (1 Bft) W 280 17,7 C 23,0 C 8,0 km/h (2 Bft)
27.09.2023 17:04 23,0 C 73 % 1021,8 hPa 0,0 l/m 6,4 km/h (2 Bft) W 277 17,9 C 23,0 C 8,0 km/h (2 Bft)
27.09.2023 17:02 23,0 C 73 % 1021,8 hPa 0,0 l/m 4,8 km/h (1 Bft) W 278 17,9 C 23,0 C 8,0 km/h (2 Bft)
27.09.2023 17:01 23,0 C 73 % 1021,8 hPa 0,0 l/m 4,8 km/h (1 Bft) W 274 17,9 C 23,0 C 9,7 km/h (2 Bft)
27.09.2023 17:00 23,0 C 73 % 1021,8 hPa 0,0 l/m 3,2 km/h (1 Bft) W-NW 283 17,9 C 23,0 C 9,7 km/h (2 Bft)
27.09.2023 16:59 23,0 C 74 % 1021,8 hPa 0,0 l/m 6,4 km/h (2 Bft) W 275 18,1 C 23,0 C 9,7 km/h (2 Bft)
27.09.2023 16:58 23,0 C 74 % 1021,8 hPa 0,0 l/m 3,2 km/h (1 Bft) W 274 18,1 C 23,0 C 9,7 km/h (2 Bft)
27.09.2023 16:57 23,0 C 74 % 1021,9 hPa 0,0 l/m 4,8 km/h (1 Bft) W-NW 282 18,1 C 23,0 C 9,7 km/h (2 Bft)
27.09.2023 16:56 23,0 C 74 % 1021,9 hPa 0,0 l/m 6,4 km/h (2 Bft) W 274 18,1 C 23,0 C 9,7 km/h (2 Bft)
27.09.2023 16:55 22,9 C 74 % 1021,9 hPa 0,0 l/m 4,8 km/h (1 Bft) W 279 18,0 C 22,9 C 9,7 km/h (2 Bft)
27.09.2023 16:54 22,9 C 74 % 1021,9 hPa 0,0 l/m 4,8 km/h (1 Bft) W 267 18,0 C 22,9 C 9,7 km/h (2 Bft)
27.09.2023 16:52 22,9 C 74 % 1021,9 hPa 0,0 l/m 8,0 km/h (2 Bft) W 277 18,0 C 22,4 C 8,0 km/h (2 Bft)
27.09.2023 16:51 22,9 C 75 % 1021,9 hPa 0,0 l/m 6,4 km/h (2 Bft) W 276 18,2 C 22,9 C 8,0 km/h (2 Bft)
27.09.2023 16:50 22,9 C 74 % 1021,9 hPa 0,0 l/m 4,8 km/h (1 Bft) W 266 18,0 C 22,9 C 11,3 km/h (2 Bft)
27.09.2023 16:48 22,9 C 74 % 1022,0 hPa 0,0 l/m 6,4 km/h (2 Bft) W-NW 283 18,0 C 22,9 C 11,3 km/h (2 Bft)
27.09.2023 16:47 22,9 C 73 % 1022,0 hPa 0,0 l/m 4,8 km/h (1 Bft) W-NW 282 17,8 C 22,9 C 11,3 km/h (2 Bft)
27.09.2023 16:46 22,9 C 74 % 1022,0 hPa 0,0 l/m 6,4 km/h (2 Bft) W-NW 283 18,0 C 22,9 C 11,3 km/h (2 Bft)
27.09.2023 16:45 22,9 C 75 % 1022,0 hPa 0,0 l/m 6,4 km/h (2 Bft) W 276 18,2 C 22,9 C 11,3 km/h (2 Bft)
27.09.2023 16:44 22,9 C 75 % 1022,0 hPa 0,0 l/m 4,8 km/h (1 Bft) W-NW 289 18,2 C 22,9 C 11,3 km/h (2 Bft)
27.09.2023 16:43 22,8 C 75 % 1022,0 hPa 0,0 l/m 4,8 km/h (1 Bft) W-NW 290 18,1 C 22,8 C 11,3 km/h (2 Bft)
27.09.2023 16:42 22,9 C 76 % 1022,0 hPa 0,0 l/m 6,4 km/h (2 Bft) W 281 18,4 C 22,9 C 11,3 km/h (2 Bft)
27.09.2023 16:41 22,9 C 74 % 1022,0 hPa 0,0 l/m 8,0 km/h (2 Bft) W 280 18,0 C 22,4 C 11,3 km/h (2 Bft)
27.09.2023 16:39 22,9 C 74 % 1022,1 hPa 0,0 l/m 8,0 km/h (2 Bft) W 274 18,0 C 22,4 C 11,3 km/h (2 Bft)
27.09.2023 16:38 22,9 C 75 % 1022,2 hPa 0,0 l/m 4,8 km/h (1 Bft) W 281 18,2 C 22,9 C 11,3 km/h (2 Bft)
27.09.2023 16:37 22,8 C 74 % 1022,1 hPa 0,0 l/m 3,2 km/h (1 Bft) W 279 17,9 C 22,8 C 11,3 km/h (2 Bft)
27.09.2023 16:35 22,9 C 74 % 1022,1 hPa 0,0 l/m 9,7 km/h (2 Bft) W 278 18,0 C 21,9 C 9,7 km/h (2 Bft)
27.09.2023 16:34 22,8 C 74 % 1022,1 hPa 0,0 l/m 3,2 km/h (1 Bft) W-NW 283 17,9 C 22,8 C 12,9 km/h (3 Bft)
27.09.2023 16:33 22,8 C 74 % 1022,1 hPa 0,0 l/m 6,4 km/h (2 Bft) W 274 17,9 C 22,8 C 12,9 km/h (3 Bft)
27.09.2023 16:32 22,8 C 74 % 1022,2 hPa 0,0 l/m 6,4 km/h (2 Bft) W 271 17,9 C 22,8 C 12,9 km/h (3 Bft)
27.09.2023 16:31 22,8 C 75 % 1022,2 hPa 0,0 l/m 6,4 km/h (2 Bft) W 281 18,1 C 22,8 C 12,9 km/h (3 Bft)
27.09.2023 16:29 22,8 C 75 % 1022,2 hPa 0,0 l/m 6,4 km/h (2 Bft) W 276 18,1 C 22,8 C 12,9 km/h (3 Bft)
27.09.2023 16:28 22,8 C 74 % 1022,2 hPa 0,0 l/m 6,4 km/h (2 Bft) W-NW 287 17,9 C 22,8 C 12,9 km/h (3 Bft)
27.09.2023 16:27 22,8 C 75 % 1022,2 hPa 0,0 l/m 9,7 km/h (2 Bft) W 275 18,1 C 21,8 C 12,9 km/h (3 Bft)
27.09.2023 16:26 22,8 C 74 % 1022,3 hPa 0,0 l/m 8,0 km/h (2 Bft) W-NW 285 17,9 C 22,3 C 12,9 km/h (3 Bft)
27.09.2023 16:24 22,8 C 75 % 1022,3 hPa 0,0 l/m 8,0 km/h (2 Bft) W-NW 296 18,1 C 22,3 C 12,9 km/h (3 Bft)
27.09.2023 16:23 22,8 C 74 % 1022,3 hPa 0,0 l/m 8,0 km/h (2 Bft) W 269 17,9 C 22,3 C 12,9 km/h (3 Bft)
27.09.2023 16:22 22,8 C 74 % 1022,3 hPa 0,0 l/m 9,7 km/h (2 Bft) W 277 17,9 C 21,8 C 14,5 km/h (3 Bft)
27.09.2023 16:20 22,7 C 75 % 1022,3 hPa 0,0 l/m 11,3 km/h (2 Bft) W 279 18,0 C 21,3 C 14,5 km/h (3 Bft)
27.09.2023 16:19 22,7 C 76 % 1022,3 hPa 0,0 l/m 9,7 km/h (2 Bft) W-NW 286 18,2 C 21,7 C 14,5 km/h (3 Bft)
27.09.2023 16:17 22,6 C 76 % 1022,3 hPa 0,0 l/m 12,9 km/h (3 Bft) W-NW 288 18,1 C 20,8 C 19,3 km/h (3 Bft)
27.09.2023 16:16 22,5 C 76 % 1022,3 hPa 0,0 l/m 8,0 km/h (2 Bft) W-NW 285 18,0 C 22,0 C 19,3 km/h (3 Bft)
27.09.2023 16:14 22,5 C 75 % 1022,3 hPa 0,0 l/m 4,8 km/h (1 Bft) W 274 17,8 C 22,5 C 19,3 km/h (3 Bft)
27.09.2023 16:13 22,4 C 75 % 1022,3 hPa 0,0 l/m 12,9 km/h (3 Bft) W-NW 300 17,7 C 20,6 C 19,3 km/h (3 Bft)
27.09.2023 16:12 22,4 C 75 % 1022,3 hPa 0,0 l/m 11,3 km/h (2 Bft) W-NW 293 17,7 C 21,0 C 19,3 km/h (3 Bft)
27.09.2023 16:09 22,4 C 75 % 1022,4 hPa 0,0 l/m 16,1 km/h (3 Bft) W-NW 293 17,7 C 20,0 C 19,3 km/h (3 Bft)
27.09.2023 16:08 22,4 C 76 % 1022,3 hPa 0,0 l/m 14,5 km/h (3 Bft) W-NW 295 18,0 C 20,3 C 17,7 km/h (3 Bft)
27.09.2023 16:07 22,3 C 76 % 1022,4 hPa 0,0 l/m 11,3 km/h (2 Bft) W-NW 283 17,9 C 20,8 C 17,7 km/h (3 Bft)
27.09.2023 16:06 22,3 C 75 % 1022,3 hPa 0,0 l/m 12,9 km/h (3 Bft) W-NW 293 17,6 C 20,5 C 17,7 km/h (3 Bft)
27.09.2023 16:05 22,3 C 75 % 1022,4 hPa 0,0 l/m 12,9 km/h (3 Bft) W-NW 283 17,6 C 20,5 C 17,7 km/h (3 Bft)
27.09.2023 16:04 22,3 C 77 % 1022,4 hPa 0,0 l/m 12,9 km/h (3 Bft) W-NW 289 18,1 C 20,5 C 17,7 km/h (3 Bft)
27.09.2023 16:03 22,3 C 76 % 1022,4 hPa 0,0 l/m 11,3 km/h (2 Bft) NW 305 17,9 C 20,8 C 17,7 km/h (3 Bft)
27.09.2023 16:02 22,3 C 75 % 1022,4 hPa 0,0 l/m 12,9 km/h (3 Bft) W-NW 290 17,6 C 20,5 C 17,7 km/h (3 Bft)
27.09.2023 16:01 22,3 C 76 % 1022,4 hPa 0,0 l/m 14,5 km/h (3 Bft) W-NW 288 17,9 C 20,1 C 17,7 km/h (3 Bft)
27.09.2023 16:00 22,3 C 75 % 1022,4 hPa 0,0 l/m 12,9 km/h (3 Bft) W-NW 299 17,6 C 20,5 C 17,7 km/h (3 Bft)
27.09.2023 15:59 22,3 C 75 % 1022,3 hPa 0,0 l/m 16,1 km/h (3 Bft) W-NW 291 17,6 C 19,8 C 17,7 km/h (3 Bft)
27.09.2023 15:58 22,3 C 75 % 1022,4 hPa 0,0 l/m 11,3 km/h (2 Bft) W-NW 295 17,6 C 20,8 C 17,7 km/h (3 Bft)
27.09.2023 15:57 22,3 C 76 % 1022,5 hPa 0,0 l/m 11,3 km/h (2 Bft) W-NW 292 17,9 C 20,8 C 17,7 km/h (3 Bft)
27.09.2023 15:56 22,3 C 75 % 1022,5 hPa 0,0 l/m 12,9 km/h (3 Bft) W-NW 289 17,6 C 20,5 C 17,7 km/h (3 Bft)
27.09.2023 15:55 22,3 C 75 % 1022,4 hPa 0,0 l/m 12,9 km/h (3 Bft) W-NW 288 17,6 C 20,5 C 16,1 km/h (3 Bft)
27.09.2023 15:53 22,3 C 75 % 1022,4 hPa 0,0 l/m 9,7 km/h (2 Bft) W-NW 290 17,6 C 21,3 C 16,1 km/h (3 Bft)
27.09.2023 15:52 22,3 C 75 % 1022,5 hPa 0,0 l/m 14,5 km/h (3 Bft) W-NW 298 17,6 C 20,1 C 16,1 km/h (3 Bft)
27.09.2023 15:51 22,3 C 76 % 1022,5 hPa 0,0 l/m 14,5 km/h (3 Bft) NW 316 17,9 C 20,1 C 16,1 km/h (3 Bft)
27.09.2023 15:50 22,3 C 76 % 1022,6 hPa 0,0 l/m 6,4 km/h (2 Bft) NW 325 17,9 C 22,3 C 16,1 km/h (3 Bft)
27.09.2023 15:49 22,3 C 76 % 1022,6 hPa 0,0 l/m 8,0 km/h (2 Bft) W-NW 293 17,9 C 21,8 C 19,3 km/h (3 Bft)
27.09.2023 15:48 22,2 C 76 % 1022,6 hPa 0,0 l/m 9,7 km/h (2 Bft) NW 304 17,8 C 21,2 C 19,3 km/h (3 Bft)
27.09.2023 15:46 22,1 C 75 % 1022,7 hPa 0,0 l/m 11,3 km/h (2 Bft) W-NW 298 17,5 C 20,6 C 19,3 km/h (3 Bft)
27.09.2023 15:45 22,1 C 76 % 1022,7 hPa 0,0 l/m 12,9 km/h (3 Bft) W-NW 297 17,7 C 20,2 C 19,3 km/h (3 Bft)
27.09.2023 15:44 22,1 C 76 % 1022,7 hPa 0,0 l/m 12,9 km/h (3 Bft) W-NW 295 17,7 C 20,2 C 19,3 km/h (3 Bft)
27.09.2023 15:43 22,2 C 76 % 1022,8 hPa 0,0 l/m 12,9 km/h (3 Bft) NW 316 17,8 C 20,4 C 19,3 km/h (3 Bft)
27.09.2023 15:42 22,1 C 76 % 1022,7 hPa 0,0 l/m 12,9 km/h (3 Bft) W-NW 298 17,7 C 20,2 C 17,7 km/h (3 Bft)
27.09.2023 15:41 22,1 C 75 % 1022,7 hPa 0,0 l/m 17,7 km/h (3 Bft) W-NW 297 17,5 C 19,3 C 17,7 km/h (3 Bft)
27.09.2023 15:40 22,1 C 76 % 1022,6 hPa 0,0 l/m 11,3 km/h (2 Bft) W-NW 291 17,7 C 20,6 C 17,7 km/h (3 Bft)
27.09.2023 15:39 22,1 C 76 % 1022,7 hPa 0,0 l/m 9,7 km/h (2 Bft) W-NW 283 17,7 C 21,0 C 17,7 km/h (3 Bft)
27.09.2023 15:38 22,1 C 77 % 1022,8 hPa 0,0 l/m 4,8 km/h (1 Bft) W 279 17,9 C 22,1 C 17,7 km/h (3 Bft)
27.09.2023 15:36 22,1 C 75 % 1022,8 hPa 0,0 l/m 11,3 km/h (2 Bft) W-NW 299 17,5 C 20,6 C 17,7 km/h (3 Bft)
27.09.2023 15:35 22,1 C 75 % 1022,8 hPa 0,0 l/m 16,1 km/h (3 Bft) W-NW 302 17,5 C 19,6 C 16,1 km/h (3 Bft)
27.09.2023 15:32 22,1 C 75 % 1022,8 hPa 0,0 l/m 11,3 km/h (2 Bft) NW 315 17,5 C 20,6 C 16,1 km/h (3 Bft)
27.09.2023 15:30 22,1 C 75 % 1022,9 hPa 0,0 l/m 14,5 km/h (3 Bft) NW 310 17,5 C 19,9 C 17,7 km/h (3 Bft)
27.09.2023 15:28 22,1 C 76 % 1022,9 hPa 0,0 l/m 11,3 km/h (2 Bft) W-NW 303 17,7 C 20,6 C 17,7 km/h (3 Bft)
27.09.2023 15:27 22,1 C 75 % 1022,9 hPa 0,0 l/m 11,3 km/h (2 Bft) W-NW 287 17,5 C 20,6 C 20,9 km/h (4 Bft)
27.09.2023 15:26 22,1 C 76 % 1023,0 hPa 0,0 l/m 11,3 km/h (2 Bft) N-NW 328 17,7 C 20,6 C 20,9 km/h (4 Bft)
27.09.2023 15:24 22,1 C 75 % 1022,9 hPa 0,0 l/m 14,5 km/h (3 Bft) NW 312 17,5 C 19,9 C 20,9 km/h (4 Bft)
27.09.2023 15:23 22,1 C 76 % 1022,9 hPa 0,0 l/m 9,7 km/h (2 Bft) W-NW 286 17,7 C 21,0 C 20,9 km/h (4 Bft)
27.09.2023 15:21 22,1 C 75 % 1022,9 hPa 0,0 l/m 11,3 km/h (2 Bft) W-NW 297 17,5 C 20,6 C 20,9 km/h (4 Bft)
27.09.2023 15:20 22,1 C 75 % 1023,0 hPa 0,0 l/m 12,9 km/h (3 Bft) NW 309 17,5 C 20,2 C 20,9 km/h (4 Bft)
27.09.2023 15:19 22,1 C 74 % 1023,1 hPa 0,0 l/m 11,3 km/h (2 Bft) NW 325 17,2 C 20,6 C 20,9 km/h (4 Bft)
27.09.2023 15:18 22,1 C 75 % 1023,1 hPa 0,0 l/m 14,5 km/h (3 Bft) W-NW 293 17,5 C 19,9 C 19,3 km/h (3 Bft)
27.09.2023 15:16 22,1 C 76 % 1023,1 hPa 0,0 l/m 14,5 km/h (3 Bft) W-NW 295 17,7 C 19,9 C 19,3 km/h (3 Bft)
27.09.2023 15:15 22,1 C 76 % 1023,1 hPa 0,0 l/m 12,9 km/h (3 Bft) W-NW 288 17,7 C 20,2 C 19,3 km/h (3 Bft)
27.09.2023 15:11 22,0 C 74 % 1023,1 hPa 0,0 l/m 12,9 km/h (3 Bft) W-NW 285 17,1 C 20,1 C 19,3 km/h (3 Bft)
27.09.2023 15:10 22,0 C 75 % 1023,2 hPa 0,0 l/m 11,3 km/h (2 Bft) N-NW 330 17,4 C 20,5 C 19,3 km/h (3 Bft)
27.09.2023 15:09 22,0 C 74 % 1023,2 hPa 0,0 l/m 12,9 km/h (3 Bft) W-NW 288 17,1 C 20,1 C 19,3 km/h (3 Bft)
27.09.2023 15:08 22,0 C 75 % 1023,2 hPa 0,0 l/m 14,5 km/h (3 Bft) NW 314 17,4 C 19,8 C 19,3 km/h (3 Bft)
27.09.2023 15:07 22,0 C 75 % 1023,2 hPa 0,0 l/m 11,3 km/h (2 Bft) N-NW 330 17,4 C 20,5 C 19,3 km/h (3 Bft)
27.09.2023 15:05 22,0 C 75 % 1023,3 hPa 0,0 l/m 14,5 km/h (3 Bft) NW 306 17,4 C 19,8 C 19,3 km/h (3 Bft)
27.09.2023 15:01 22,0 C 75 % 1023,3 hPa 0,0 l/m 11,3 km/h (2 Bft) W-NW 300 17,4 C 20,5 C 20,9 km/h (4 Bft)
27.09.2023 15:00 22,0 C 75 % 1023,3 hPa 0,0 l/m 12,9 km/h (3 Bft) W-NW 300 17,4 C 20,1 C 20,9 km/h (4 Bft)
27.09.2023 14:59 21,9 C 76 % 1023,4 hPa 0,0 l/m 6,4 km/h (2 Bft) W-NW 300 17,5 C 21,9 C 20,9 km/h (4 Bft)
27.09.2023 14:58 21,9 C 76 % 1023,4 hPa 0,0 l/m 6,4 km/h (2 Bft) NW 308 17,5 C 21,9 C 20,9 km/h (4 Bft)
27.09.2023 14:56 21,9 C 75 % 1023,4 hPa 0,0 l/m 14,5 km/h (3 Bft) W-NW 301 17,3 C 19,7 C 20,9 km/h (4 Bft)
27.09.2023 14:55 21,9 C 77 % 1023,4 hPa 0,0 l/m 14,5 km/h (3 Bft) NW 312 17,7 C 19,7 C 17,7 km/h (3 Bft)
27.09.2023 14:54 21,9 C 77 % 1023,4 hPa 0,0 l/m 11,3 km/h (2 Bft) W-NW 288 17,7 C 20,4 C 19,3 km/h (3 Bft)
27.09.2023 14:53 21,9 C 76 % 1023,4 hPa 0,0 l/m 12,9 km/h (3 Bft) W-NW 301 17,5 C 20,0 C 24,1 km/h (4 Bft)
27.09.2023 14:52 21,8 C 75 % 1023,5 hPa 0,0 l/m 11,3 km/h (2 Bft) W-NW 290 17,2 C 20,3 C 24,1 km/h (4 Bft)
27.09.2023 14:51 21,8 C 76 % 1023,5 hPa 0,0 l/m 11,3 km/h (2 Bft) W-NW 295 17,4 C 20,3 C 24,1 km/h (4 Bft)
27.09.2023 14:49 21,7 C 76 % 1023,5 hPa 0,0 l/m 17,7 km/h (3 Bft) W-NW 288 17,3 C 18,8 C 24,1 km/h (4 Bft)
27.09.2023 14:48 21,7 C 75 % 1023,5 hPa 0,0 l/m 16,1 km/h (3 Bft) W-NW 292 17,1 C 19,1 C 24,1 km/h (4 Bft)
27.09.2023 14:47 21,7 C 75 % 1023,5 hPa 0,0 l/m 12,9 km/h (3 Bft) W-NW 295 17,1 C 19,8 C 24,1 km/h (4 Bft)
27.09.2023 14:46 21,7 C 76 % 1023,6 hPa 0,0 l/m 12,9 km/h (3 Bft) NW 308 17,3 C 19,8 C 24,1 km/h (4 Bft)
27.09.2023 14:45 21,8 C 75 % 1023,6 hPa 0,0 l/m 16,1 km/h (3 Bft) W-NW 283 17,2 C 19,2 C 24,1 km/h (4 Bft)
27.09.2023 14:44 21,7 C 78 % 1023,6 hPa 0,0 l/m 11,3 km/h (2 Bft) W-NW 290 17,7 C 20,2 C 19,3 km/h (3 Bft)
27.09.2023 14:42 21,6 C 77 % 1023,6 hPa 0,0 l/m 12,9 km/h (3 Bft) NW 305 17,4 C 19,7 C 19,3 km/h (3 Bft)
27.09.2023 14:41 21,6 C 77 % 1023,7 hPa 0,0 l/m 16,1 km/h (3 Bft) W-NW 302 17,4 C 19,0 C 19,3 km/h (3 Bft)
27.09.2023 14:40 21,5 C 76 % 1023,5 hPa 0,0 l/m 14,5 km/h (3 Bft) W-NW 291 17,1 C 19,2 C 19,3 km/h (3 Bft)
27.09.2023 14:39 21,6 C 76 % 1023,7 hPa 0,0 l/m 14,5 km/h (3 Bft) W-NW 288 17,2 C 19,3 C 19,3 km/h (3 Bft)
27.09.2023 14:38 21,6 C 76 % 1023,7 hPa 0,0 l/m 14,5 km/h (3 Bft) NW 310 17,2 C 19,3 C 19,3 km/h (3 Bft)
27.09.2023 14:37 21,6 C 78 % 1023,7 hPa 0,0 l/m 14,5 km/h (3 Bft) W-NW 299 17,6 C 19,3 C 19,3 km/h (3 Bft)
27.09.2023 14:36 21,6 C 78 % 1023,7 hPa 0,0 l/m 14,5 km/h (3 Bft) W-NW 290 17,6 C 19,3 C 19,3 km/h (3 Bft)
27.09.2023 14:35 21,5 C 76 % 1023,7 hPa 0,0 l/m 12,9 km/h (3 Bft) W-NW 298 17,1 C 19,5 C 19,3 km/h (3 Bft)
27.09.2023 14:34 21,6 C 76 % 1023,7 hPa 0,0 l/m 16,1 km/h (3 Bft) NW 305 17,2 C 19,0 C 19,3 km/h (3 Bft)
27.09.2023 14:33 21,6 C 77 % 1023,7 hPa 0,0 l/m 11,3 km/h (2 Bft) W-NW 298 17,4 C 20,1 C 22,5 km/h (4 Bft)
27.09.2023 14:32 21,6 C 77 % 1023,8 hPa 0,0 l/m 14,5 km/h (3 Bft) NW 309 17,4 C 19,3 C 22,5 km/h (4 Bft)
27.09.2023 14:31 21,5 C 77 % 1023,8 hPa 0,0 l/m 12,9 km/h (3 Bft) N-NW 331 17,3 C 19,5 C 22,5 km/h (4 Bft)
27.09.2023 14:30 21,5 C 78 % 1023,8 hPa 0,0 l/m 14,5 km/h (3 Bft) W-NW 300 17,5 C 19,2 C 22,5 km/h (4 Bft)
27.09.2023 14:28 21,4 C 77 % 1023,9 hPa 0,0 l/m 11,3 km/h (2 Bft) NW 306 17,2 C 19,8 C 22,5 km/h (4 Bft)
27.09.2023 14:27 21,4 C 77 % 1023,9 hPa 0,0 l/m 12,9 km/h (3 Bft) W-NW 296 17,2 C 19,4 C 22,5 km/h (4 Bft)
27.09.2023 14:26 21,4 C 77 % 1023,9 hPa 0,0 l/m 16,1 km/h (3 Bft) W-NW 303 17,2 C 18,7 C 22,5 km/h (4 Bft)
27.09.2023 14:25 21,4 C 76 % 1023,9 hPa 0,0 l/m 16,1 km/h (3 Bft) NW 319 17,0 C 18,7 C 22,5 km/h (4 Bft)
27.09.2023 14:24 21,5 C 76 % 1023,9 hPa 0,0 l/m 17,7 km/h (3 Bft) NW 308 17,1 C 18,5 C 22,5 km/h (4 Bft)
27.09.2023 14:23 21,5 C 75 % 1023,9 hPa 0,0 l/m 14,5 km/h (3 Bft) W-NW 291 16,9 C 19,2 C 22,5 km/h (4 Bft)
27.09.2023 14:22 21,5 C 76 % 1024,0 hPa 0,0 l/m 17,7 km/h (3 Bft) NW 321 17,1 C 18,5 C 20,9 km/h (4 Bft)
27.09.2023 14:21 21,6 C 76 % 1024,0 hPa 0,0 l/m 12,9 km/h (3 Bft) W-NW 302 17,2 C 19,7 C 24,1 km/h (4 Bft)
27.09.2023 14:20 21,6 C 78 % 1023,9 hPa 0,0 l/m 12,9 km/h (3 Bft) W-NW 295 17,6 C 19,7 C 24,1 km/h (4 Bft)
27.09.2023 14:19 21,5 C 77 % 1024,0 hPa 0,0 l/m 12,9 km/h (3 Bft) N-NW 330 17,3 C 19,5 C 24,1 km/h (4 Bft)
27.09.2023 14:18 21,5 C 76 % 1024,0 hPa 0,0 l/m 11,3 km/h (2 Bft) W-NW 290 17,1 C 19,9 C 25,7 km/h (4 Bft)
27.09.2023 14:17 21,5 C 77 % 1024,0 hPa 0,0 l/m 19,3 km/h (3 Bft) NW 319 17,3 C 18,3 C 25,7 km/h (4 Bft)
27.09.2023 14:16 21,5 C 77 % 1024,0 hPa 0,0 l/m 16,1 km/h (3 Bft) NW 318 17,3 C 18,8 C 25,7 km/h (4 Bft)
27.09.2023 14:15 21,5 C 78 % 1023,9 hPa 0,0 l/m 17,7 km/h (3 Bft) W-NW 296 17,5 C 18,5 C 25,7 km/h (4 Bft)
27.09.2023 14:14 21,4 C 76 % 1024,0 hPa 0,0 l/m 11,3 km/h (2 Bft) W-NW 294 17,0 C 19,8 C 25,7 km/h (4 Bft)
27.09.2023 14:13 21,4 C 77 % 1024,0 hPa 0,0 l/m 17,7 km/h (3 Bft) NW 310 17,2 C 18,4 C 25,7 km/h (4 Bft)
27.09.2023 14:12 21,4 C 77 % 1023,9 hPa 0,0 l/m 17,7 km/h (3 Bft) NW 304 17,2 C 18,4 C 25,7 km/h (4 Bft)
27.09.2023 14:11 21,5 C 77 % 1023,9 hPa 0,0 l/m 16,1 km/h (3 Bft) W-NW 293 17,3 C 18,8 C 25,7 km/h (4 Bft)
27.09.2023 14:10 21,5 C 76 % 1024,0 hPa 0,0 l/m 17,7 km/h (3 Bft) NW 312 17,1 C 18,5 C 25,7 km/h (4 Bft)
27.09.2023 14:09 21,5 C 77 % 1024,0 hPa 0,0 l/m 14,5 km/h (3 Bft) NW 326 17,3 C 19,2 C 20,9 km/h (4 Bft)
27.09.2023 14:08 21,5 C 77 % 1024,0 hPa 0,0 l/m 14,5 km/h (3 Bft) W-NW 291 17,3 C 19,2 C 20,9 km/h (4 Bft)
27.09.2023 14:07 21,5 C 76 % 1023,9 hPa 0,0 l/m 12,9 km/h (3 Bft) W-NW 292 17,1 C 19,5 C 20,9 km/h (4 Bft)
27.09.2023 14:06 21,5 C 78 % 1024,0 hPa 0,0 l/m 14,5 km/h (3 Bft) NW 307 17,5 C 19,2 C 19,3 km/h (3 Bft)
27.09.2023 14:05 21,5 C 77 % 1023,9 hPa 0,0 l/m 12,9 km/h (3 Bft) W-NW 293 17,3 C 19,5 C 19,3 km/h (3 Bft)
27.09.2023 14:04 21,4 C 76 % 1023,9 hPa 0,0 l/m 11,3 km/h (2 Bft) W-NW 294 17,0 C 19,8 C 19,3 km/h (3 Bft)
27.09.2023 14:03 21,4 C 76 % 1024,1 hPa 0,0 l/m 12,9 km/h (3 Bft) W-NW 302 17,0 C 19,4 C 19,3 km/h (3 Bft)
27.09.2023 14:02 21,4 C 76 % 1024,0 hPa 0,0 l/m 16,1 km/h (3 Bft) NW 306 17,0 C 18,7 C 19,3 km/h (3 Bft)
27.09.2023 14:01 21,4 C 76 % 1024,0 hPa 0,0 l/m 14,5 km/h (3 Bft) W-NW 288 17,0 C 19,1 C 19,3 km/h (3 Bft)
27.09.2023 14:00 21,5 C 76 % 1024,0 hPa 0,0 l/m 16,1 km/h (3 Bft) W-NW 299 17,1 C 18,8 C 19,3 km/h (3 Bft)
27.09.2023 13:58 21,4 C 76 % 1024,0 hPa 0,0 l/m 12,9 km/h (3 Bft) NW 313 17,0 C 19,4 C 19,3 km/h (3 Bft)
27.09.2023 13:37 21,2 C 78 % 1024,4 hPa 0,0 l/m 14,5 km/h (3 Bft) W-NW 288 17,2 C 18,8 C 17,7 km/h (3 Bft)
27.09.2023 13:23 21,1 C 78 % 1024,8 hPa 0,0 l/m 11,3 km/h (2 Bft) W-NW 297 17,1 C 19,5 C 19,3 km/h (3 Bft)
27.09.2023 13:21 21,0 C 77 % 1024,7 hPa 0,0 l/m 11,3 km/h (2 Bft) W-NW 298 16,8 C 19,4 C 19,3 km/h (3 Bft)
27.09.2023 13:20 21,0 C 80 % 1024,7 hPa 0,0 l/m 16,1 km/h (3 Bft) W-NW 292 17,4 C 18,2 C 19,3 km/h (3 Bft)
27.09.2023 13:18 20,9 C 77 % 1024,8 hPa 0,0 l/m 11,3 km/h (2 Bft) W-NW 300 16,7 C 19,3 C 19,3 km/h (3 Bft)
27.09.2023 13:17 20,9 C 78 % 1024,8 hPa 0,0 l/m 8,0 km/h (2 Bft) W-NW 285 16,9 C 20,3 C 19,3 km/h (3 Bft)
27.09.2023 13:15 20,9 C 78 % 1024,8 hPa 0,0 l/m 14,5 km/h (3 Bft) NW 309 16,9 C 18,5 C 19,3 km/h (3 Bft)
27.09.2023 13:14 20,9 C 78 % 1024,8 hPa 0,0 l/m 12,9 km/h (3 Bft) W-NW 295 16,9 C 18,8 C 19,3 km/h (3 Bft)
27.09.2023 13:13 20,8 C 77 % 1024,8 hPa 0,0 l/m 11,3 km/h (2 Bft) W-NW 303 16,6 C 19,1 C 19,3 km/h (3 Bft)
27.09.2023 13:11 20,8 C 78 % 1024,8 hPa 0,0 l/m 12,9 km/h (3 Bft) NW 311 16,8 C 18,7 C 17,7 km/h (3 Bft)
27.09.2023 13:10 20,8 C 78 % 1024,8 hPa 0,0 l/m 14,5 km/h (3 Bft) NW 309 16,8 C 18,3 C 17,7 km/h (3 Bft)
27.09.2023 13:09 20,8 C 76 % 1024,9 hPa 0,0 l/m 12,9 km/h (3 Bft) W-NW 296 16,4 C 18,7 C 17,7 km/h (3 Bft)
27.09.2023 13:08 20,9 C 77 % 1024,9 hPa 0,0 l/m 17,7 km/h (3 Bft) NW 305 16,7 C 17,8 C 17,7 km/h (3 Bft)
27.09.2023 13:07 20,9 C 77 % 1024,9 hPa 0,0 l/m 16,1 km/h (3 Bft) W-NW 303 16,7 C 18,1 C 16,1 km/h (3 Bft)
27.09.2023 13:06 20,9 C 79 % 1024,9 hPa 0,0 l/m 9,7 km/h (2 Bft) W-NW 300 17,1 C 19,7 C 16,1 km/h (3 Bft)
27.09.2023 13:04 20,9 C 78 % 1024,9 hPa 0,0 l/m 11,3 km/h (2 Bft) NW 310 16,9 C 19,3 C 16,1 km/h (3 Bft)
27.09.2023 13:03 20,8 C 77 % 1024,9 hPa 0,0 l/m 11,3 km/h (2 Bft) NW 310 16,6 C 19,1 C 17,7 km/h (3 Bft)
27.09.2023 13:02 20,8 C 77 % 1025,0 hPa 0,0 l/m 12,9 km/h (3 Bft) W-NW 296 16,6 C 18,7 C 17,7 km/h (3 Bft)
27.09.2023 13:01 20,8 C 76 % 1024,9 hPa 0,0 l/m 12,9 km/h (3 Bft) W-NW 297 16,4 C 18,7 C 17,7 km/h (3 Bft)
27.09.2023 12:59 20,9 C 77 % 1025,0 hPa 0,0 l/m 11,3 km/h (2 Bft) W-NW 288 16,7 C 19,3 C 17,7 km/h (3 Bft)
27.09.2023 12:57 20,8 C 78 % 1025,0 hPa 0,0 l/m 14,5 km/h (3 Bft) NW 319 16,8 C 18,3 C 17,7 km/h (3 Bft)
27.09.2023 12:55 20,7 C 76 % 1025,0 hPa 0,0 l/m 11,3 km/h (2 Bft) NW 309 16,3 C 19,0 C 17,7 km/h (3 Bft)
27.09.2023 12:54 20,7 C 75 % 1025,0 hPa 0,0 l/m 12,9 km/h (3 Bft) NW 312 16,1 C 18,6 C 17,7 km/h (3 Bft)
27.09.2023 12:52 20,7 C 76 % 1025,1 hPa 0,0 l/m 14,5 km/h (3 Bft) N-NW 328 16,3 C 18,2 C 17,7 km/h (3 Bft)
27.09.2023 12:51 20,7 C 76 % 1025,1 hPa 0,0 l/m 11,3 km/h (2 Bft) W-NW 290 16,3 C 19,0 C 17,7 km/h (3 Bft)
27.09.2023 12:50 20,6 C 76 % 1025,1 hPa 0,0 l/m 12,9 km/h (3 Bft) NW 314 16,2 C 18,5 C 17,7 km/h (3 Bft)
27.09.2023 12:49 20,6 C 77 % 1025,2 hPa 0,0 l/m 14,5 km/h (3 Bft) W-NW 293 16,4 C 18,1 C 19,3 km/h (3 Bft)
27.09.2023 12:48 20,6 C 76 % 1025,1 hPa 0,0 l/m 11,3 km/h (2 Bft) NW 312 16,2 C 18,9 C 19,3 km/h (3 Bft)
27.09.2023 12:47 20,6 C 78 % 1025,2 hPa 0,0 l/m 11,3 km/h (2 Bft) W-NW 302 16,6 C 18,9 C 19,3 km/h (3 Bft)
27.09.2023 12:46 20,5 C 78 % 1025,1 hPa 0,0 l/m 9,7 km/h (2 Bft) W-NW 296 16,5 C 19,3 C 19,3 km/h (3 Bft)
27.09.2023 12:45 20,5 C 77 % 1025,2 hPa 0,0 l/m 6,4 km/h (2 Bft) W-NW 297 16,3 C 20,5 C 19,3 km/h (3 Bft)
27.09.2023 12:44 20,5 C 77 % 1025,2 hPa 0,0 l/m 6,4 km/h (2 Bft) NW 306 16,3 C 20,5 C 19,3 km/h (3 Bft)
27.09.2023 12:42 20,5 C 77 % 1025,3 hPa 0,0 l/m 12,9 km/h (3 Bft) W-NW 290 16,3 C 18,4 C 19,3 km/h (3 Bft)
27.09.2023 12:41 20,5 C 76 % 1025,3 hPa 0,0 l/m 14,5 km/h (3 Bft) NW 322 16,1 C 18,0 C 19,3 km/h (3 Bft)
27.09.2023 12:40 20,6 C 77 % 1025,3 hPa 0,0 l/m 16,1 km/h (3 Bft) W-NW 302 16,4 C 17,7 C 19,3 km/h (3 Bft)
27.09.2023 12:39 20,6 C 78 % 1025,4 hPa 0,0 l/m 14,5 km/h (3 Bft) W-NW 286 16,6 C 18,1 C 17,7 km/h (3 Bft)
27.09.2023 12:38 20,6 C 79 % 1025,3 hPa 0,0 l/m 11,3 km/h (2 Bft) NW 307 16,8 C 18,9 C 17,7 km/h (3 Bft)
27.09.2023 12:37 20,6 C 80 % 1025,3 hPa 0,0 l/m 14,5 km/h (3 Bft) W-NW 294 17,0 C 18,1 C 19,3 km/h (3 Bft)
27.09.2023 12:36 20,5 C 80 % 1025,4 hPa 0,0 l/m 11,3 km/h (2 Bft) W-NW 284 16,9 C 18,8 C 19,3 km/h (3 Bft)
27.09.2023 12:35 20,4 C 77 % 1025,3 hPa 0,0 l/m 11,3 km/h (2 Bft) W-NW 293 16,2 C 18,7 C 19,3 km/h (3 Bft)
27.09.2023 12:34 20,4 C 78 % 1025,4 hPa 0,0 l/m 11,3 km/h (2 Bft) W-NW 301 16,4 C 18,7 C 19,3 km/h (3 Bft)
27.09.2023 12:33 20,3 C 78 % 1025,4 hPa 0,0 l/m 12,9 km/h (3 Bft) W-NW 288 16,3 C 18,1 C 19,3 km/h (3 Bft)
27.09.2023 12:32 20,3 C 79 % 1025,4 hPa 0,0 l/m 11,3 km/h (2 Bft) W-NW 287 16,5 C 18,6 C 20,9 km/h (4 Bft)
27.09.2023 12:31 20,1 C 79 % 1025,4 hPa 0,0 l/m 14,5 km/h (3 Bft) W-NW 302 16,3 C 17,5 C 20,9 km/h (4 Bft)
27.09.2023 12:30 20,1 C 78 % 1025,3 hPa 0,0 l/m 16,1 km/h (3 Bft) W-NW 287 16,1 C 17,1 C 20,9 km/h (4 Bft)
27.09.2023 12:29 20,1 C 78 % 1025,4 hPa 0,0 l/m 14,5 km/h (3 Bft) W-NW 288 16,1 C 17,5 C 20,9 km/h (4 Bft)
27.09.2023 12:28 20,1 C 77 % 1025,5 hPa 0,0 l/m 12,9 km/h (3 Bft) W 281 15,9 C 17,9 C 20,9 km/h (4 Bft)
27.09.2023 12:27 20,0 C 79 % 1025,4 hPa 0,0 l/m 14,5 km/h (3 Bft) W-NW 302 16,2 C 17,4 C 20,9 km/h (4 Bft)
27.09.2023 12:26 20,1 C 78 % 1025,5 hPa 0,0 l/m 16,1 km/h (3 Bft) NW 311 16,1 C 17,1 C 20,9 km/h (4 Bft)
27.09.2023 12:25 20,0 C 79 % 1025,5 hPa 0,0 l/m 14,5 km/h (3 Bft) NW 316 16,2 C 17,4 C 20,9 km/h (4 Bft)
27.09.2023 12:24 20,0 C 78 % 1025,6 hPa 0,0 l/m 16,1 km/h (3 Bft) W-NW 292 16,0 C 17,0 C 20,9 km/h (4 Bft)
27.09.2023 12:23 20,0 C 78 % 1025,5 hPa 0,0 l/m 19,3 km/h (3 Bft) NW 305 16,0 C 16,3 C 20,9 km/h (4 Bft)
27.09.2023 12:22 20,0 C 78 % 1025,5 hPa 0,0 l/m 14,5 km/h (3 Bft) W-NW 285 16,0 C 17,4 C 20,9 km/h (4 Bft)
27.09.2023 12:21 20,0 C 79 % 1025,4 hPa 0,0 l/m 11,3 km/h (2 Bft) W-NW 295 16,2 C 18,2 C 22,5 km/h (4 Bft)
27.09.2023 12:20 20,0 C 78 % 1025,5 hPa 0,0 l/m 11,3 km/h (2 Bft) NW 305 16,0 C 18,2 C 22,5 km/h (4 Bft)
27.09.2023 12:19 20,0 C 78 % 1025,5 hPa 0,0 l/m 16,1 km/h (3 Bft) W-NW 302 16,0 C 17,0 C 22,5 km/h (4 Bft)
27.09.2023 12:17 19,9 C 78 % 1025,5 hPa 0,0 l/m 11,3 km/h (2 Bft) W-NW 299 15,9 C 18,1 C 22,5 km/h (4 Bft)
27.09.2023 12:16 19,8 C 78 % 1025,6 hPa 0,0 l/m 16,1 km/h (3 Bft) W-NW 288 15,8 C 16,7 C 22,5 km/h (4 Bft)
27.09.2023 12:15 19,9 C 79 % 1025,6 hPa 0,0 l/m 16,1 km/h (3 Bft) NW 311 16,1 C 16,9 C 22,5 km/h (4 Bft)
27.09.2023 12:14 19,9 C 80 % 1025,5 hPa 0,0 l/m 12,9 km/h (3 Bft) W-NW 295 16,3 C 17,7 C 22,5 km/h (4 Bft)
27.09.2023 12:13 19,9 C 80 % 1025,6 hPa 0,0 l/m 17,7 km/h (3 Bft) NW 308 16,3 C 16,5 C 22,5 km/h (4 Bft)
27.09.2023 12:12 19,9 C 80 % 1025,5 hPa 0,0 l/m 12,9 km/h (3 Bft) W-NW 293 16,3 C 17,7 C 22,5 km/h (4 Bft)
27.09.2023 12:11 19,9 C 80 % 1025,6 hPa 0,0 l/m 17,7 km/h (3 Bft) W-NW 297 16,3 C 16,5 C 19,3 km/h (3 Bft)
27.09.2023 12:10 19,8 C 79 % 1025,5 hPa 0,0 l/m 16,1 km/h (3 Bft) W-NW 283 16,0 C 16,7 C 19,3 km/h (3 Bft)
27.09.2023 12:09 19,8 C 80 % 1025,5 hPa 0,0 l/m 14,5 km/h (3 Bft) W-NW 286 16,2 C 17,1 C 19,3 km/h (3 Bft)
27.09.2023 12:08 19,8 C 80 % 1025,5 hPa 0,0 l/m 11,3 km/h (2 Bft) W-NW 283 16,2 C 18,0 C 19,3 km/h (3 Bft)
27.09.2023 12:07 19,8 C 80 % 1025,6 hPa 0,0 l/m 17,7 km/h (3 Bft) W-NW 291 16,2 C 16,4 C 19,3 km/h (3 Bft)
27.09.2023 12:06 19,8 C 81 % 1025,7 hPa 0,0 l/m 12,9 km/h (3 Bft) W-NW 288 16,4 C 17,5 C 19,3 km/h (3 Bft)
27.09.2023 12:05 19,8 C 81 % 1025,5 hPa 0,0 l/m 12,9 km/h (3 Bft) W 278 16,4 C 17,5 C 19,3 km/h (3 Bft)
27.09.2023 12:04 19,7 C 80 % 1025,6 hPa 0,0 l/m 14,5 km/h (3 Bft) W-NW 287 16,1 C 17,0 C 17,7 km/h (3 Bft)
27.09.2023 12:03 19,8 C 80 % 1025,5 hPa 0,0 l/m 14,5 km/h (3 Bft) W-NW 286 16,2 C 17,1 C 17,7 km/h (3 Bft)
27.09.2023 12:02 19,7 C 80 % 1025,6 hPa 0,0 l/m 12,9 km/h (3 Bft) W-NW 291 16,1 C 17,4 C 17,7 km/h (3 Bft)
27.09.2023 12:01 19,7 C 81 % 1025,5 hPa 0,0 l/m 11,3 km/h (2 Bft) W-NW 300 16,3 C 17,9 C 17,7 km/h (3 Bft)
27.09.2023 12:00 19,8 C 80 % 1025,6 hPa 0,0 l/m 14,5 km/h (3 Bft) W-NW 300 16,2 C 17,1 C 17,7 km/h (3 Bft)
27.09.2023 11:59 19,8 C 81 % 1025,6 hPa 0,0 l/m 17,7 km/h (3 Bft) W-NW 294 16,4 C 16,4 C 16,1 km/h (3 Bft)
27.09.2023 11:58 19,8 C 80 % 1025,5 hPa 0,0 l/m 11,3 km/h (2 Bft) W-NW 293 16,2 C 18,0 C 16,1 km/h (3 Bft)
27.09.2023 11:57 19,8 C 80 % 1025,6 hPa 0,0 l/m 12,9 km/h (3 Bft) W-NW 288 16,2 C 17,5 C 12,9 km/h (3 Bft)
27.09.2023 11:56 19,8 C 80 % 1025,5 hPa 0,0 l/m 14,5 km/h (3 Bft) W-NW 284 16,2 C 17,1 C 12,9 km/h (3 Bft)
27.09.2023 11:55 19,8 C 81 % 1025,7 hPa 0,0 l/m 9,7 km/h (2 Bft) W-NW 299 16,4 C 18,5 C 12,9 km/h (3 Bft)
27.09.2023 11:54 19,8 C 80 % 1025,6 hPa 0,0 l/m 9,7 km/h (2 Bft) W-NW 285 16,2 C 18,5 C 12,9 km/h (3 Bft)
27.09.2023 11:53 19,8 C 80 % 1025,6 hPa 0,0 l/m 9,7 km/h (2 Bft) W-NW 288 16,2 C 18,5 C 12,9 km/h (3 Bft)
27.09.2023 11:52 19,8 C 81 % 1025,6 hPa 0,0 l/m 8,0 km/h (2 Bft) W-NW 302 16,4 C 19,1 C 12,9 km/h (3 Bft)
27.09.2023 11:51 19,7 C 82 % 1025,6 hPa 0,0 l/m 9,7 km/h (2 Bft) W-NW 288 16,5 C 18,4 C 12,9 km/h (3 Bft)
27.09.2023 11:50 19,7 C 80 % 1025,5 hPa 0,0 l/m 8,0 km/h (2 Bft) W 275 16,1 C 19,0 C 14,5 km/h (3 Bft)
27.09.2023 11:49 19,7 C 81 % 1025,6 hPa 0,0 l/m 4,8 km/h (1 Bft) W-NW 288 16,3 C 19,7 C 14,5 km/h (3 Bft)
27.09.2023 11:48 19,7 C 82 % 1025,5 hPa 0,0 l/m 9,7 km/h (2 Bft) W-NW 283 16,5 C 18,4 C 14,5 km/h (3 Bft)
27.09.2023 11:46 19,6 C 81 % 1025,5 hPa 0,0 l/m 6,4 km/h (2 Bft) W 279 16,2 C 19,6 C 14,5 km/h (3 Bft)
27.09.2023 11:44 19,5 C 84 % 1025,7 hPa 0,0 l/m 11,3 km/h (2 Bft) W-NW 297 16,7 C 17,7 C 14,5 km/h (3 Bft)
27.09.2023 11:42 19,5 C 82 % 1025,7 hPa 0,0 l/m 14,5 km/h (3 Bft) W 277 16,3 C 16,8 C 12,9 km/h (3 Bft)
27.09.2023 11:41 19,4 C 82 % 1025,7 hPa 0,0 l/m 9,7 km/h (2 Bft) W 274 16,2 C 18,1 C 12,9 km/h (3 Bft)
27.09.2023 11:40 19,3 C 81 % 1025,7 hPa 0,0 l/m 8,0 km/h (2 Bft) W 279 16,0 C 18,6 C 12,9 km/h (3 Bft)
27.09.2023 11:38 19,3 C 83 % 1025,7 hPa 0,0 l/m 11,3 km/h (2 Bft) W 278 16,3 C 17,4 C 14,5 km/h (3 Bft)
27.09.2023 11:37 19,2 C 83 % 1025,7 hPa 0,0 l/m 8,0 km/h (2 Bft) W 274 16,2 C 18,5 C 14,5 km/h (3 Bft)
27.09.2023 11:36 19,2 C 83 % 1025,7 hPa 0,0 l/m 8,0 km/h (2 Bft) W 274 16,2 C 18,5 C 14,5 km/h (3 Bft)
27.09.2023 11:35 19,1 C 84 % 1025,7 hPa 0,0 l/m 9,7 km/h (2 Bft) W-NW 290 16,3 C 17,8 C 14,5 km/h (3 Bft)
27.09.2023 11:33 19,1 C 83 % 1025,7 hPa 0,0 l/m 12,9 km/h (3 Bft) W 279 16,1 C 16,7 C 14,5 km/h (3 Bft)
27.09.2023 11:32 19,0 C 83 % 1025,8 hPa 0,0 l/m 9,7 km/h (2 Bft) W-NW 288 16,0 C 17,6 C 14,5 km/h (3 Bft)
27.09.2023 11:31 19,0 C 84 % 1025,8 hPa 0,0 l/m 9,7 km/h (2 Bft) W 280 16,2 C 17,6 C 14,5 km/h (3 Bft)
27.09.2023 11:30 18,9 C 84 % 1025,8 hPa 0,0 l/m 8,0 km/h (2 Bft) W-NW 293 16,1 C 18,2 C 12,9 km/h (3 Bft)
27.09.2023 11:29 18,8 C 83 % 1025,8 hPa 0,0 l/m 9,7 km/h (2 Bft) W-NW 284 15,8 C 17,4 C 11,3 km/h (2 Bft)
27.09.2023 11:28 18,8 C 83 % 1025,8 hPa 0,0 l/m 6,4 km/h (2 Bft) W 268 15,8 C 18,8 C 9,7 km/h (2 Bft)
27.09.2023 11:27 18,8 C 83 % 1025,7 hPa 0,0 l/m 8,0 km/h (2 Bft) W 279 15,8 C 18,1 C 9,7 km/h (2 Bft)
27.09.2023 11:26 18,8 C 84 % 1025,7 hPa 0,0 l/m 8,0 km/h (2 Bft) W-SW 250 16,0 C 18,1 C 9,7 km/h (2 Bft)
27.09.2023 11:25 18,8 C 84 % 1025,8 hPa 0,0 l/m 6,4 km/h (2 Bft) W-NW 291 16,0 C 18,8 C 9,7 km/h (2 Bft)
27.09.2023 11:24 18,8 C 83 % 1025,7 hPa 0,0 l/m 6,4 km/h (2 Bft) NW 324 15,8 C 18,8 C 6,4 km/h (2 Bft)
27.09.2023 11:23 18,8 C 83 % 1025,8 hPa 0,0 l/m 3,2 km/h (1 Bft) W-NW 303 15,8 C 18,8 C 6,4 km/h (2 Bft)
27.09.2023 11:22 18,7 C 83 % 1025,8 hPa 0,0 l/m 0,0 km/h (0 Bft) W-NW 283 15,8 C 18,7 C 6,4 km/h (2 Bft)
27.09.2023 11:21 18,7 C 84 % 1025,8 hPa 0,0 l/m 1,6 km/h (1 Bft) W 279 15,9 C 18,7 C 6,4 km/h (2 Bft)
27.09.2023 11:20 18,7 C 83 % 1025,7 hPa 0,0 l/m 1,6 km/h (1 Bft) W-NW 283 15,8 C 18,7 C 6,4 km/h (2 Bft)
27.09.2023 11:19 18,7 C 82 % 1025,8 hPa 0,0 l/m 1,6 km/h (1 Bft) NW 312 15,6 C 18,7 C 6,4 km/h (2 Bft)
27.09.2023 11:18 18,8 C 82 % 1025,8 hPa 0,0 l/m 3,2 km/h (1 Bft) W-NW 285 15,7 C 18,8 C 3,2 km/h (1 Bft)
27.09.2023 11:17 18,7 C 82 % 1025,7 hPa 0,0 l/m 1,6 km/h (1 Bft) W 264 15,6 C 18,7 C 3,2 km/h (1 Bft)
27.09.2023 11:16 18,7 C 82 % 1025,8 hPa 0,0 l/m 0,0 km/h (0 Bft) W 269 15,6 C 18,7 C 3,2 km/h (1 Bft)
27.09.2023 11:15 18,7 C 82 % 1025,8 hPa 0,0 l/m 1,6 km/h (1 Bft) SW 236 15,6 C 18,7 C 3,2 km/h (1 Bft)
27.09.2023 11:13 18,6 C 82 % 1025,8 hPa 0,0 l/m 1,6 km/h (1 Bft) W 265 15,5 C 18,6 C 3,2 km/h (1 Bft)
27.09.2023 11:12 18,6 C 82 % 1025,8 hPa 0,0 l/m 0,0 km/h (0 Bft) W-SW 252 15,5 C 18,6 C 1,6 km/h (1 Bft)
27.09.2023 11:10 18,4 C 82 % 1025,7 hPa 0,0 l/m 0,0 km/h (0 Bft) SW 229 15,3 C 18,4 C 1,6 km/h (1 Bft)
27.09.2023 11:09 18,3 C 83 % 1025,8 hPa 0,0 l/m 1,6 km/h (1 Bft) SW 229 15,4 C 18,3 C 1,6 km/h (1 Bft)
27.09.2023 11:08 18,3 C 82 % 1025,8 hPa 0,0 l/m 0,0 km/h (0 Bft) SW 229 15,2 C 18,3 C 1,6 km/h (1 Bft)
27.09.2023 11:07 18,3 C 82 % 1025,8 hPa 0,0 l/m 1,6 km/h (1 Bft) W-SW 238 15,2 C 18,3 C 1,6 km/h (1 Bft)
27.09.2023 11:06 18,3 C 83 % 1025,8 hPa 0,0 l/m 0,0 km/h (0 Bft) SW 236 15,4 C 18,3 C 1,6 km/h (1 Bft)
27.09.2023 11:05 18,2 C 83 % 1025,8 hPa 0,0 l/m 0,0 km/h (0 Bft) W-SW 248 15,3 C 18,2 C 1,6 km/h (1 Bft)
27.09.2023 11:04 18,1 C 83 % 1025,8 hPa 0,0 l/m 0,0 km/h (0 Bft) W-SW 243 15,2 C 18,1 C 3,2 km/h (1 Bft)
27.09.2023 11:03 18,1 C 83 % 1025,8 hPa 0,0 l/m 1,6 km/h (1 Bft) W-SW 255 15,2 C 18,1 C 3,2 km/h (1 Bft)
27.09.2023 11:02 18,0 C 84 % 1025,8 hPa 0,0 l/m 0,0 km/h (0 Bft) S-SW 213 15,3 C 18,0 C 3,2 km/h (1 Bft)
27.09.2023 11:01 18,0 C 84 % 1025,8 hPa 0,0 l/m 1,6 km/h (1 Bft) S-SW 213 15,3 C 18,0 C 3,2 km/h (1 Bft)
27.09.2023 11:00 17,8 C 84 % 1025,8 hPa 0,0 l/m 0,0 km/h (0 Bft) S-SW 213 15,1 C 17,8 C 3,2 km/h (1 Bft)
27.09.2023 10:59 17,8 C 84 % 1025,8 hPa 0,0 l/m 0,0 km/h (0 Bft) S-SW 213 15,1 C 17,8 C 3,2 km/h (1 Bft)
27.09.2023 10:57 17,6 C 84 % 1025,8 hPa 0,0 l/m 0,0 km/h (0 Bft) W-SW 238 14,9 C 17,6 C 3,2 km/h (1 Bft)
27.09.2023 10:54 17,7 C 85 % 1025,8 hPa 0,0 l/m 3,2 km/h (1 Bft) W 271 15,1 C 17,7 C 3,2 km/h (1 Bft)
27.09.2023 10:49 17,3 C 86 % 1025,9 hPa 0,0 l/m 0,0 km/h (0 Bft) SW 214 14,9 C 17,3 C 1,6 km/h (1 Bft)
27.09.2023 10:48 17,1 C 86 % 1025,8 hPa 0,0 l/m 0,0 km/h (0 Bft) W-SW 240 14,7 C 17,1 C 1,6 km/h (1 Bft)
27.09.2023 10:47 17,1 C 87 % 1025,8 hPa 0,0 l/m 1,6 km/h (1 Bft) W-SW 246 14,9 C 17,1 C 1,6 km/h (1 Bft)
27.09.2023 10:46 17,1 C 87 % 1025,9 hPa 0,0 l/m 1,6 km/h (1 Bft) W-SW 241 14,9 C 17,1 C 3,2 km/h (1 Bft)
27.09.2023 10:45 17,0 C 87 % 1025,8 hPa 0,0 l/m 0,0 km/h (0 Bft) SW 228 14,8 C 17,0 C 3,2 km/h (1 Bft)
27.09.2023 10:44 16,9 C 87 % 1026,0 hPa 0,0 l/m 1,6 km/h (1 Bft) W 276 14,7 C 16,9 C 4,8 km/h (1 Bft)
27.09.2023 10:43 16,8 C 87 % 1025,9 hPa 0,0 l/m 0,0 km/h (0 Bft) SW 231 14,6 C 16,8 C 4,8 km/h (1 Bft)
27.09.2023 10:42 16,8 C 88 % 1025,9 hPa 0,0 l/m 1,6 km/h (1 Bft) SW 232 14,8 C 16,8 C 4,8 km/h (1 Bft)
27.09.2023 10:41 16,7 C 87 % 1025,9 hPa 0,0 l/m 0,0 km/h (0 Bft) SW 232 14,5 C 16,7 C 4,8 km/h (1 Bft)
27.09.2023 10:40 16,7 C 87 % 1025,9 hPa 0,0 l/m 1,6 km/h (1 Bft) W 271 14,5 C 16,7 C 4,8 km/h (1 Bft)
27.09.2023 10:39 16,6 C 87 % 1025,9 hPa 0,0 l/m 0,0 km/h (0 Bft) W 271 14,4 C 16,6 C 4,8 km/h (1 Bft)
27.09.2023 10:36 16,6 C 87 % 1026,0 hPa 0,0 l/m 3,2 km/h (1 Bft) W-NW 283 14,4 C 16,6 C 4,8 km/h (1 Bft)
27.09.2023 10:35 16,6 C 87 % 1025,9 hPa 0,0 l/m 4,8 km/h (1 Bft) W 274 14,4 C 16,6 C 4,8 km/h (1 Bft)
27.09.2023 10:34 16,6 C 88 % 1025,9 hPa 0,0 l/m 4,8 km/h (1 Bft) W-NW 287 14,6 C 16,6 C 4,8 km/h (1 Bft)
27.09.2023 10:33 16,6 C 90 % 1025,9 hPa 0,0 l/m 4,8 km/h (1 Bft) W 278 15,0 C 16,6 C 4,8 km/h (1 Bft)
27.09.2023 10:32 16,5 C 91 % 1026,0 hPa 0,0 l/m 1,6 km/h (1 Bft) W-SW 240 15,0 C 16,5 C 1,6 km/h (1 Bft)
27.09.2023 10:31 16,4 C 91 % 1025,9 hPa 0,0 l/m 0,0 km/h (0 Bft) SW 221 14,9 C 16,4 C 1,6 km/h (1 Bft)
27.09.2023 10:30 16,3 C 91 % 1026,0 hPa 0,0 l/m 0,0 km/h (0 Bft) SW 221 14,8 C 16,3 C 1,6 km/h (1 Bft)
27.09.2023 10:29 16,2 C 91 % 1026,0 hPa 0,0 l/m 0,0 km/h (0 Bft) SW 222 14,7 C 16,2 C 1,6 km/h (1 Bft)
27.09.2023 10:28 16,1 C 91 % 1025,9 hPa 0,0 l/m 0,0 km/h (0 Bft) W 259 14,6 C 16,1 C 3,2 km/h (1 Bft)
27.09.2023 10:27 16,1 C 91 % 1025,9 hPa 0,0 l/m 0,0 km/h (0 Bft) W-SW 245 14,6 C 16,1 C 3,2 km/h (1 Bft)
27.09.2023 10:26 16,0 C 92 % 1025,9 hPa 0,0 l/m 1,6 km/h (1 Bft) W 266 14,7 C 16,0 C 3,2 km/h (1 Bft)
27.09.2023 10:25 16,0 C 92 % 1025,9 hPa 0,0 l/m 0,0 km/h (0 Bft) W 267 14,7 C 16,0 C 3,2 km/h (1 Bft)
27.09.2023 10:24 15,9 C 92 % 1026,0 hPa 0,0 l/m 0,0 km/h (0 Bft) W 266 14,6 C 15,9 C 3,2 km/h (1 Bft)
27.09.2023 10:23 15,8 C 92 % 1025,9 hPa 0,0 l/m 0,0 km/h (0 Bft) W 266 14,5 C 15,8 C 3,2 km/h (1 Bft)
27.09.2023 10:22 15,8 C 92 % 1026,0 hPa 0,0 l/m 0,0 km/h (0 Bft) W 266 14,5 C 15,8 C 3,2 km/h (1 Bft)
27.09.2023 10:21 15,7 C 92 % 1026,0 hPa 0,0 l/m 0,0 km/h (0 Bft) W 266 14,4 C 15,7 C 3,2 km/h (1 Bft)
27.09.2023 10:20 15,7 C 93 % 1026,0 hPa 0,0 l/m 0,0 km/h (0 Bft) W 265 14,6 C 15,7 C 3,2 km/h (1 Bft)
27.09.2023 10:19 15,7 C 93 % 1026,0 hPa 0,0 l/m 1,6 km/h (1 Bft) W 269 14,6 C 15,7 C 1,6 km/h (1 Bft)
27.09.2023 10:18 15,6 C 93 % 1026,0 hPa 0,0 l/m 1,6 km/h (1 Bft) W 268 14,5 C 15,6 C 3,2 km/h (1 Bft)
27.09.2023 10:17 15,6 C 93 % 1026,0 hPa 0,0 l/m 0,0 km/h (0 Bft) W 269 14,5 C 15,6 C 3,2 km/h (1 Bft)
27.09.2023 10:16 15,5 C 94 % 1025,9 hPa 0,0 l/m 0,0 km/h (0 Bft) W 269 14,5 C 15,5 C 3,2 km/h (1 Bft)
27.09.2023 10:15 15,5 C 94 % 1025,9 hPa 0,0 l/m 0,0 km/h (0 Bft) W 269 14,5 C 15,5 C 3,2 km/h (1 Bft)
27.09.2023 10:14 15,4 C 94 % 1026,0 hPa 0,0 l/m 1,6 km/h (1 Bft) W 266 14,4 C 15,4 C 3,2 km/h (1 Bft)
27.09.2023 10:13 15,4 C 94 % 1025,9 hPa 0,0 l/m 0,0 km/h (0 Bft) W 264 14,4 C 15,4 C 3,2 km/h (1 Bft)
27.09.2023 10:12 15,3 C 94 % 1025,9 hPa 0,0 l/m 0,0 km/h (0 Bft) W 264 14,3 C 15,3 C 3,2 km/h (1 Bft)
27.09.2023 10:11 15,3 C 94 % 1025,9 hPa 0,0 l/m 1,6 km/h (1 Bft) W 269 14,3 C 15,3 C 3,2 km/h (1 Bft)
27.09.2023 10:10 15,3 C 94 % 1025,8 hPa 0,0 l/m 1,6 km/h (1 Bft) W 278 14,3 C 15,3 C 3,2 km/h (1 Bft)
27.09.2023 10:09 15,3 C 93 % 1025,9 hPa 0,0 l/m 0,0 km/h (0 Bft) W 269 14,2 C 15,3 C 1,6 km/h (1 Bft)
27.09.2023 10:08 15,4 C 94 % 1025,8 hPa 0,0 l/m 1,6 km/h (1 Bft) W 269 14,4 C 15,4 C 1,6 km/h (1 Bft)
27.09.2023 10:07 15,4 C 94 % 1025,9 hPa 0,0 l/m 1,6 km/h (1 Bft) W 269 14,4 C 15,4 C 1,6 km/h (1 Bft)
27.09.2023 10:06 15,4 C 94 % 1025,8 hPa 0,0 l/m 1,6 km/h (1 Bft) W-SW 240 14,4 C 15,4 C 1,6 km/h (1 Bft)
27.09.2023 10:04 15,5 C 94 % 1025,8 hPa 0,0 l/m 1,6 km/h (1 Bft) SW 228 14,5 C 15,5 C 1,6 km/h (1 Bft)
27.09.2023 10:03 15,5 C 96 % 1025,9 hPa 0,0 l/m 1,6 km/h (1 Bft) W-SW 238 14,9 C 15,5 C 1,6 km/h (1 Bft)
27.09.2023 10:02 15,5 C 96 % 1025,9 hPa 0,0 l/m 0,0 km/h (0 Bft) W-SW 238 14,9 C 15,5 C 1,6 km/h (1 Bft)
27.09.2023 10:01 15,3 C 96 % 1025,9 hPa 0,0 l/m 0,0 km/h (0 Bft) W-SW 239 14,7 C 15,3 C 1,6 km/h (1 Bft)
27.09.2023 10:00 15,1 C 96 % 1025,9 hPa 0,0 l/m 0,0 km/h (0 Bft) W-SW 239 14,5 C 15,1 C 1,6 km/h (1 Bft)
27.09.2023 09:59 15,0 C 96 % 1025,9 hPa 0,0 l/m 0,0 km/h (0 Bft) W-SW 239 14,4 C 15,0 C 1,6 km/h (1 Bft)
27.09.2023 09:58 14,9 C 95 % 1025,9 hPa 0,0 l/m 0,0 km/h (0 Bft) W-SW 239 14,1 C 14,9 C 1,6 km/h (1 Bft)
27.09.2023 09:57 14,8 C 95 % 1025,9 hPa 0,0 l/m 0,0 km/h (0 Bft) W-SW 239 14,0 C 14,8 C 1,6 km/h (1 Bft)
27.09.2023 09:56 14,8 C 95 % 1025,9 hPa 0,0 l/m 0,0 km/h (0 Bft) W-SW 239 14,0 C 14,8 C 1,6 km/h (1 Bft)
27.09.2023 09:55 14,8 C 95 % 1025,9 hPa 0,0 l/m 1,6 km/h (1 Bft) SW 236 14,0 C 14,8 C 3,2 km/h (1 Bft)
27.09.2023 09:54 14,7 C 95 % 1025,8 hPa 0,0 l/m 0,0 km/h (0 Bft) SW 236 13,9 C 14,7 C 3,2 km/h (1 Bft)
27.09.2023 09:53 14,7 C 95 % 1025,8 hPa 0,0 l/m 1,6 km/h (1 Bft) SW 235 13,9 C 14,7 C 3,2 km/h (1 Bft)
27.09.2023 09:52 14,7 C 95 % 1025,9 hPa 0,0 l/m 0,0 km/h (0 Bft) SW 230 13,9 C 14,7 C 3,2 km/h (1 Bft)
27.09.2023 09:51 14,6 C 96 % 1025,8 hPa 0,0 l/m 0,0 km/h (0 Bft) W-SW 257 14,0 C 14,6 C 3,2 km/h (1 Bft)
27.09.2023 09:50 14,6 C 96 % 1025,8 hPa 0,0 l/m 0,0 km/h (0 Bft) W 260 14,0 C 14,6 C 3,2 km/h (1 Bft)
27.09.2023 09:49 14,5 C 96 % 1025,9 hPa 0,0 l/m 0,0 km/h (0 Bft) S-SW 212 13,9 C 14,5 C 3,2 km/h (1 Bft)
27.09.2023 09:48 14,4 C 95 % 1025,9 hPa 0,0 l/m 0,0 km/h (0 Bft) S-SW 212 13,6 C 14,4 C 3,2 km/h (1 Bft)
27.09.2023 09:47 14,4 C 95 % 1025,8 hPa 0,0 l/m 1,6 km/h (1 Bft) SW 236 13,6 C 14,4 C 3,2 km/h (1 Bft)
27.09.2023 09:46 14,4 C 95 % 1025,8 hPa 0,0 l/m 3,2 km/h (1 Bft) W 273 13,6 C 14,4 C 3,2 km/h (1 Bft)
27.09.2023 09:45 14,4 C 96 % 1025,8 hPa 0,0 l/m 1,6 km/h (1 Bft) W-NW 283 13,8 C 14,4 C 1,6 km/h (1 Bft)
27.09.2023 09:44 14,4 C 96 % 1025,8 hPa 0,0 l/m 0,0 km/h (0 Bft) O-SO 113 13,8 C 14,4 C 1,6 km/h (1 Bft)
27.09.2023 09:43 14,3 C 96 % 1025,8 hPa 0,0 l/m 0,0 km/h (0 Bft) O-SO 110 13,7 C 14,3 C 1,6 km/h (1 Bft)
27.09.2023 09:42 14,3 C 96 % 1025,8 hPa 0,0 l/m 0,0 km/h (0 Bft) O-SO 110 13,7 C 14,3 C 1,6 km/h (1 Bft)
27.09.2023 09:41 14,3 C 96 % 1025,8 hPa 0,0 l/m 0,0 km/h (0 Bft) O-SO 109 13,7 C 14,3 C 1,6 km/h (1 Bft)
27.09.2023 09:40 14,1 C 96 % 1025,8 hPa 0,0 l/m 0,0 km/h (0 Bft) O-SO 109 13,5 C 14,1 C 1,6 km/h (1 Bft)
27.09.2023 09:39 14,2 C 96 % 1025,8 hPa 0,0 l/m 0,0 km/h (0 Bft) O-SO 109 13,6 C 14,2 C 1,6 km/h (1 Bft)
27.09.2023 09:38 14,2 C 96 % 1025,7 hPa 0,0 l/m 0,0 km/h (0 Bft) O-SO 109 13,6 C 14,2 C 1,6 km/h (1 Bft)
27.09.2023 09:37 14,4 C 97 % 1025,9 hPa 0,0 l/m 1,6 km/h (1 Bft) O-SO 109 13,9 C 14,4 C 1,6 km/h (1 Bft)
27.09.2023 09:36 14,4 C 97 % 1025,8 hPa 0,0 l/m 0,0 km/h (0 Bft) SO 135 13,9 C 14,4 C 1,6 km/h (1 Bft)
27.09.2023 09:35 14,2 C 97 % 1025,8 hPa 0,0 l/m 0,0 km/h (0 Bft) SO 137 13,7 C 14,2 C 1,6 km/h (1 Bft)
27.09.2023 09:34 14,2 C 97 % 1025,9 hPa 0,0 l/m 0,0 km/h (0 Bft) SO 136 13,7 C 14,2 C 1,6 km/h (1 Bft)
27.09.2023 09:33 14,2 C 97 % 1025,9 hPa 0,0 l/m 0,0 km/h (0 Bft) W 279 13,7 C 14,2 C 1,6 km/h (1 Bft)
27.09.2023 09:32 14,1 C 97 % 1025,9 hPa 0,0 l/m 0,0 km/h (0 Bft) W-NW 293 13,6 C 14,1 C 1,6 km/h (1 Bft)
27.09.2023 09:31 14,0 C 97 % 1025,9 hPa 0,0 l/m 0,0 km/h (0 Bft) W-NW 293 13,5 C 14,0 C 1,6 km/h (1 Bft)
27.09.2023 09:30 13,9 C 97 % 1025,9 hPa 0,0 l/m 0,0 km/h (0 Bft) W-NW 293 13,4 C 13,9 C 1,6 km/h (1 Bft)
27.09.2023 09:29 13,9 C 97 % 1025,9 hPa 0,0 l/m 0,0 km/h (0 Bft) W-NW 293 13,4 C 13,9 C 1,6 km/h (1 Bft)
27.09.2023 09:28 13,9 C 97 % 1025,9 hPa 0,0 l/m 0,0 km/h (0 Bft) W-NW 293 13,4 C 13,9 C 1,6 km/h (1 Bft)
27.09.2023 09:27 13,7 C 97 % 1025,9 hPa 0,0 l/m 0,0 km/h (0 Bft) W-NW 293 13,2 C 13,7 C 1,6 km/h (1 Bft)
27.09.2023 09:26 13,6 C 97 % 1025,9 hPa 0,0 l/m 0,0 km/h (0 Bft) W-NW 293 13,1 C 13,6 C 1,6 km/h (1 Bft)
27.09.2023 09:25 13,6 C 97 % 1025,9 hPa 0,0 l/m 0,0 km/h (0 Bft) W-NW 293 13,1 C 13,6 C 1,6 km/h (1 Bft)
27.09.2023 09:24 13,4 C 97 % 1025,9 hPa 0,0 l/m 0,0 km/h (0 Bft) W-NW 293 12,9 C 13,4 C 1,6 km/h (1 Bft)
27.09.2023 09:23 13,3 C 97 % 1025,9 hPa 0,0 l/m 0,0 km/h (0 Bft) W-NW 293 12,8 C 13,3 C 1,6 km/h (1 Bft)
27.09.2023 09:22 13,1 C 97 % 1025,9 hPa 0,0 l/m 0,0 km/h (0 Bft) W-NW 295 12,6 C 13,1 C 1,6 km/h (1 Bft)
27.09.2023 09:21 13,0 C 97 % 1025,9 hPa 0,0 l/m 0,0 km/h (0 Bft) W-NW 292 12,5 C 13,0 C 1,6 km/h (1 Bft)
27.09.2023 09:20 12,9 C 97 % 1026,0 hPa 0,0 l/m 0,0 km/h (0 Bft) W-NW 290 12,4 C 12,9 C 1,6 km/h (1 Bft)
27.09.2023 09:19 12,8 C 97 % 1025,9 hPa 0,0 l/m 0,0 km/h (0 Bft) W-NW 290 12,3 C 12,8 C 1,6 km/h (1 Bft)
27.09.2023 09:18 12,8 C 97 % 1025,9 hPa 0,0 l/m 0,0 km/h (0 Bft) W-NW 290 12,3 C 12,8 C 1,6 km/h (1 Bft)
27.09.2023 09:17 12,7 C 96 % 1025,9 hPa 0,0 l/m 0,0 km/h (0 Bft) W-NW 290 12,1 C 12,7 C 1,6 km/h (1 Bft)
27.09.2023 09:16 12,7 C 96 % 1025,9 hPa 0,0 l/m 0,0 km/h (0 Bft) W-NW 290 12,1 C 12,7 C 1,6 km/h (1 Bft)
27.09.2023 09:15 12,7 C 97 % 1025,9 hPa 0,0 l/m 0,0 km/h (0 Bft) W-NW 290 12,2 C 12,7 C 1,6 km/h (1 Bft)
27.09.2023 09:14 12,7 C 97 % 1025,9 hPa 0,0 l/m 0,0 km/h (0 Bft) W-NW 290 12,2 C 12,7 C 1,6 km/h (1 Bft)
27.09.2023 09:13 12,6 C 97 % 1025,9 hPa 0,0 l/m 0,0 km/h (0 Bft) W-NW 290 12,1 C 12,6 C 1,6 km/h (1 Bft)
27.09.2023 09:12 12,6 C 97 % 1025,9 hPa 0,0 l/m 0,0 km/h (0 Bft) W-NW 290 12,1 C 12,6 C 1,6 km/h (1 Bft)
27.09.2023 09:11 12,6 C 97 % 1025,9 hPa 0,0 l/m 0,0 km/h (0 Bft) W-NW 290 12,1 C 12,6 C 1,6 km/h (1 Bft)
27.09.2023 09:10 12,7 C 97 % 1025,9 hPa 0,0 l/m 0,0 km/h (0 Bft) W-NW 290 12,2 C 12,7 C 1,6 km/h (1 Bft)
27.09.2023 09:09 12,8 C 97 % 1025,9 hPa 0,0 l/m 0,0 km/h (0 Bft) W-NW 300 12,3 C 12,8 C 1,6 km/h (1 Bft)
27.09.2023 09:08 12,6 C 97 % 1025,9 hPa 0,0 l/m 0,0 km/h (0 Bft) O-NO 60 12,1 C 12,6 C 1,6 km/h (1 Bft)
27.09.2023 09:07 12,5 C 97 % 1025,9 hPa 0,0 l/m 0,0 km/h (0 Bft) NO 54 12,0 C 12,5 C 1,6 km/h (1 Bft)
27.09.2023 09:06 12,4 C 97 % 1025,8 hPa 0,0 l/m 0,0 km/h (0 Bft) NO 54 11,9 C 12,4 C 1,6 km/h (1 Bft)
27.09.2023 09:05 12,3 C 97 % 1025,9 hPa 0,0 l/m 0,0 km/h (0 Bft) NO 54 11,8 C 12,3 C 1,6 km/h (1 Bft)
27.09.2023 09:04 12,1 C 97 % 1025,9 hPa 0,0 l/m 0,0 km/h (0 Bft) NO 54 11,6 C 12,1 C 1,6 km/h (1 Bft)
27.09.2023 09:03 12,1 C 97 % 1025,9 hPa 0,0 l/m 0,0 km/h (0 Bft) NO 54 11,6 C 12,1 C 1,6 km/h (1 Bft)
27.09.2023 09:02 12,0 C 97 % 1025,9 hPa 0,0 l/m 0,0 km/h (0 Bft) NO 54 11,5 C 12,0 C 1,6 km/h (1 Bft)
27.09.2023 09:01 12,0 C 97 % 1025,8 hPa 0,0 l/m 0,0 km/h (0 Bft) NO 54 11,5 C 12,0 C 1,6 km/h (1 Bft)
27.09.2023 08:58 11,8 C 97 % 1025,8 hPa 0,0 l/m 0,0 km/h (0 Bft) W 273 11,3 C 11,8 C 1,6 km/h (1 Bft)
27.09.2023 08:57 11,8 C 97 % 1025,8 hPa 0,0 l/m 0,0 km/h (0 Bft) W 273 11,3 C 11,8 C 1,6 km/h (1 Bft)
27.09.2023 08:56 11,8 C 97 % 1025,9 hPa 0,0 l/m 0,0 km/h (0 Bft) W 273 11,3 C 11,8 C 1,6 km/h (1 Bft)
27.09.2023 08:55 11,8 C 97 % 1025,8 hPa 0,0 l/m 0,0 km/h (0 Bft) W 273 11,3 C 11,8 C 1,6 km/h (1 Bft)
27.09.2023 08:53 11,6 C 97 % 1025,8 hPa 0,0 l/m 0,0 km/h (0 Bft) W 273 11,1 C 11,6 C 1,6 km/h (1 Bft)
27.09.2023 08:52 11,6 C 97 % 1025,8 hPa 0,0 l/m 0,0 km/h (0 Bft) W 273 11,1 C 11,6 C 1,6 km/h (1 Bft)
27.09.2023 08:51 11,6 C 97 % 1025,9 hPa 0,0 l/m 0,0 km/h (0 Bft) W 273 11,1 C 11,6 C 1,6 km/h (1 Bft)
27.09.2023 08:50 11,6 C 97 % 1025,8 hPa 0,0 l/m 0,0 km/h (0 Bft) W 273 11,1 C 11,6 C 1,6 km/h (1 Bft)
27.09.2023 08:49 11,6 C 97 % 1025,8 hPa 0,0 l/m 0,0 km/h (0 Bft) W 273 11,1 C 11,6 C 1,6 km/h (1 Bft)
27.09.2023 08:47 11,6 C 97 % 1025,8 hPa 0,0 l/m 0,0 km/h (0 Bft) W 266 11,1 C 11,6 C 1,6 km/h (1 Bft)
27.09.2023 08:46 11,7 C 97 % 1025,8 hPa 0,0 l/m 0,0 km/h (0 Bft) SW 235 11,2 C 11,7 C 3,2 km/h (1 Bft)
27.09.2023 08:45 11,6 C 97 % 1025,8 hPa 0,0 l/m 0,0 km/h (0 Bft) SW 235 11,1 C 11,6 C 3,2 km/h (1 Bft)
27.09.2023 08:43 11,6 C 97 % 1025,8 hPa 0,0 l/m 0,0 km/h (0 Bft) SW 235 11,1 C 11,6 C 4,8 km/h (1 Bft)
27.09.2023 08:42 11,6 C 97 % 1025,8 hPa 0,0 l/m 1,6 km/h (1 Bft) W 271 11,1 C 11,6 C 4,8 km/h (1 Bft)
27.09.2023 08:41 11,6 C 97 % 1025,9 hPa 0,0 l/m 0,0 km/h (0 Bft) SW 217 11,1 C 11,6 C 4,8 km/h (1 Bft)
27.09.2023 08:40 11,6 C 97 % 1025,9 hPa 0,0 l/m 0,0 km/h (0 Bft) SW 215 11,1 C 11,6 C 4,8 km/h (1 Bft)
27.09.2023 08:39 11,6 C 97 % 1025,8 hPa 0,0 l/m 0,0 km/h (0 Bft) SW 216 11,1 C 11,6 C 4,8 km/h (1 Bft)
27.09.2023 08:38 11,6 C 97 % 1025,9 hPa 0,0 l/m 0,0 km/h (0 Bft) SW 215 11,1 C 11,6 C 4,8 km/h (1 Bft)
27.09.2023 08:35 11,6 C 97 % 1025,9 hPa 0,0 l/m 1,6 km/h (1 Bft) W-SW 246 11,1 C 11,6 C 4,8 km/h (1 Bft)
27.09.2023 08:34 11,6 C 97 % 1025,8 hPa 0,0 l/m 3,2 km/h (1 Bft) W 274 11,1 C 11,6 C 1,6 km/h (1 Bft)
27.09.2023 08:33 11,6 C 97 % 1025,8 hPa 0,0 l/m 1,6 km/h (1 Bft) W 274 11,1 C 11,6 C 1,6 km/h (1 Bft)
27.09.2023 08:32 11,7 C 97 % 1025,8 hPa 0,0 l/m 0,0 km/h (0 Bft) W 275 11,2 C 11,7 C 1,6 km/h (1 Bft)
27.09.2023 08:28 11,5 C 97 % 1025,8 hPa 0,0 l/m 0,0 km/h (0 Bft) O 79 11,0 C 11,5 C 1,6 km/h (1 Bft)
27.09.2023 08:27 11,5 C 97 % 1025,7 hPa 0,0 l/m 0,0 km/h (0 Bft) O 79 11,0 C 11,5 C 1,6 km/h (1 Bft)
27.09.2023 08:26 11,4 C 97 % 1025,7 hPa 0,0 l/m 0,0 km/h (0 Bft) O 79 10,9 C 11,4 C 1,6 km/h (1 Bft)
27.09.2023 08:25 11,4 C 97 % 1025,8 hPa 0,0 l/m 0,0 km/h (0 Bft) O 79 10,9 C 11,4 C 1,6 km/h (1 Bft)
27.09.2023 08:24 11,4 C 97 % 1025,7 hPa 0,0 l/m 1,6 km/h (1 Bft) O 79 10,9 C 11,4 C 1,6 km/h (1 Bft)
27.09.2023 08:23 11,4 C 97 % 1025,7 hPa 0,0 l/m 1,6 km/h (1 Bft) O 79 10,9 C 11,4 C 1,6 km/h (1 Bft)
27.09.2023 08:22 11,4 C 97 % 1025,7 hPa 0,0 l/m 0,0 km/h (0 Bft) O 79 10,9 C 11,4 C 1,6 km/h (1 Bft)
27.09.2023 08:21 11,4 C 97 % 1025,8 hPa 0,0 l/m 1,6 km/h (1 Bft) O 79 10,9 C 11,4 C 1,6 km/h (1 Bft)
27.09.2023 08:20 11,4 C 97 % 1025,8 hPa 0,0 l/m 0,0 km/h (0 Bft) O 79 10,9 C 11,4 C 1,6 km/h (1 Bft)
27.09.2023 08:19 11,4 C 97 % 1025,8 hPa 0,0 l/m 1,6 km/h (1 Bft) O-NO 76 10,9 C 11,4 C 1,6 km/h (1 Bft)
27.09.2023 08:18 11,4 C 97 % 1025,8 hPa 0,0 l/m 0,0 km/h (0 Bft) O-NO 76 10,9 C 11,4 C 1,6 km/h (1 Bft)
27.09.2023 08:17 11,4 C 97 % 1025,8 hPa 0,0 l/m 1,6 km/h (1 Bft) O-NO 76 10,9 C 11,4 C 1,6 km/h (1 Bft)
27.09.2023 08:16 11,4 C 97 % 1025,8 hPa 0,0 l/m 0,0 km/h (0 Bft) W 274 10,9 C 11,4 C 1,6 km/h (1 Bft)
27.09.2023 08:15 11,4 C 97 % 1025,8 hPa 0,0 l/m 0,0 km/h (0 Bft) W 274 10,9 C 11,4 C 1,6 km/h (1 Bft)
27.09.2023 08:14 11,3 C 97 % 1025,8 hPa 0,0 l/m 0,0 km/h (0 Bft) W 274 10,8 C 11,3 C 1,6 km/h (1 Bft)
27.09.2023 08:13 11,3 C 97 % 1025,8 hPa 0,0 l/m 0,0 km/h (0 Bft) W 274 10,8 C 11,3 C 1,6 km/h (1 Bft)
27.09.2023 08:12 11,3 C 97 % 1025,7 hPa 0,0 l/m 0,0 km/h (0 Bft) W 274 10,8 C 11,3 C 1,6 km/h (1 Bft)
27.09.2023 08:11 11,3 C 97 % 1025,7 hPa 0,0 l/m 0,0 km/h (0 Bft) W 274 10,8 C 11,3 C 1,6 km/h (1 Bft)
27.09.2023 08:10 11,3 C 97 % 1025,7 hPa 0,0 l/m 0,0 km/h (0 Bft) W 274 10,8 C 11,3 C 1,6 km/h (1 Bft)
27.09.2023 08:08 11,3 C 97 % 1025,7 hPa 0,0 l/m 0,0 km/h (0 Bft) W 274 10,8 C 11,3 C 1,6 km/h (1 Bft)
27.09.2023 08:07 11,2 C 97 % 1025,7 hPa 0,0 l/m 0,0 km/h (0 Bft) W 274 10,7 C 11,2 C 1,6 km/h (1 Bft)
27.09.2023 08:06 11,2 C 97 % 1025,7 hPa 0,0 l/m 0,0 km/h (0 Bft) W 274 10,7 C 11,2 C 1,6 km/h (1 Bft)
27.09.2023 08:05 11,2 C 97 % 1025,7 hPa 0,0 l/m 0,0 km/h (0 Bft) W 274 10,7 C 11,2 C 1,6 km/h (1 Bft)
27.09.2023 08:04 11,2 C 97 % 1025,7 hPa 0,0 l/m 0,0 km/h (0 Bft) W 274 10,7 C 11,2 C 1,6 km/h (1 Bft)
27.09.2023 08:03 11,2 C 97 % 1025,7 hPa 0,0 l/m 0,0 km/h (0 Bft) W-SW 244 10,7 C 11,2 C 1,6 km/h (1 Bft)
27.09.2023 08:02 11,3 C 97 % 1025,7 hPa 0,0 l/m 0,0 km/h (0 Bft) W-SW 243 10,8 C 11,3 C 1,6 km/h (1 Bft)
27.09.2023 08:01 11,3 C 97 % 1025,6 hPa 0,0 l/m 0,0 km/h (0 Bft) W-SW 243 10,8 C 11,3 C 1,6 km/h (1 Bft)
27.09.2023 08:00 11,3 C 97 % 1025,7 hPa 0,0 l/m 0,0 km/h (0 Bft) W-SW 244 10,8 C 11,3 C 1,6 km/h (1 Bft)
27.09.2023 07:59 11,2 C 97 % 1025,6 hPa 0,0 l/m 0,0 km/h (0 Bft) W-SW 243 10,7 C 11,2 C 1,6 km/h (1 Bft)
27.09.2023 07:58 11,1 C 97 % 1025,7 hPa 0,0 l/m 0,0 km/h (0 Bft) W-SW 243 10,6 C 11,1 C 1,6 km/h (1 Bft)
27.09.2023 07:57 11,1 C 97 % 1025,7 hPa 0,0 l/m 0,0 km/h (0 Bft) W-SW 243 10,6 C 11,1 C 1,6 km/h (1 Bft)
27.09.2023 07:56 11,1 C 97 % 1025,6 hPa 0,0 l/m 0,0 km/h (0 Bft) W-SW 243 10,6 C 11,1 C 1,6 km/h (1 Bft)
27.09.2023 07:55 11,1 C 97 % 1025,6 hPa 0,0 l/m 0,0 km/h (0 Bft) W-SW 243 10,6 C 11,1 C 1,6 km/h (1 Bft)
27.09.2023 07:54 11,0 C 97 % 1025,6 hPa 0,0 l/m 0,0 km/h (0 Bft) W-SW 243 10,5 C 11,0 C 1,6 km/h (1 Bft)
27.09.2023 07:53 11,0 C 97 % 1025,6 hPa 0,0 l/m 0,0 km/h (0 Bft) W-SW 243 10,5 C 11,0 C 1,6 km/h (1 Bft)
27.09.2023 07:52 11,0 C 97 % 1025,6 hPa 0,0 l/m 0,0 km/h (0 Bft) W-SW 243 10,5 C 11,0 C 1,6 km/h (1 Bft)
27.09.2023 07:51 11,0 C 97 % 1025,6 hPa 0,0 l/m 0,0 km/h (0 Bft) W-SW 243 10,5 C 11,0 C 1,6 km/h (1 Bft)
27.09.2023 07:50 11,0 C 97 % 1025,5 hPa 0,0 l/m 0,0 km/h (0 Bft) W-SW 243 10,5 C 11,0 C 1,6 km/h (1 Bft)
27.09.2023 07:49 11,0 C 97 % 1025,5 hPa 0,0 l/m 0,0 km/h (0 Bft) W-SW 244 10,5 C 11,0 C 1,6 km/h (1 Bft)
27.09.2023 07:48 11,0 C 97 % 1025,5 hPa 0,0 l/m 0,0 km/h (0 Bft) W-SW 243 10,5 C 11,0 C 1,6 km/h (1 Bft)
27.09.2023 07:47 11,0 C 97 % 1025,4 hPa 0,0 l/m 0,0 km/h (0 Bft) W-SW 243 10,5 C 11,0 C 1,6 km/h (1 Bft)
27.09.2023 07:46 11,0 C 97 % 1025,5 hPa 0,0 l/m 0,0 km/h (0 Bft) W-SW 243 10,5 C 11,0 C 1,6 km/h (1 Bft)
27.09.2023 07:45 11,0 C 97 % 1025,4 hPa 0,0 l/m 0,0 km/h (0 Bft) W-SW 243 10,5 C 11,0 C 1,6 km/h (1 Bft)
27.09.2023 07:44 11,0 C 97 % 1025,5 hPa 0,0 l/m 0,0 km/h (0 Bft) W-SW 244 10,5 C 11,0 C 1,6 km/h (1 Bft)
27.09.2023 07:43 10,9 C 97 % 1025,5 hPa 0,0 l/m 0,0 km/h (0 Bft) W-SW 243 10,4 C 10,9 C 1,6 km/h (1 Bft)
27.09.2023 07:42 11,0 C 97 % 1025,4 hPa 0,0 l/m 0,0 km/h (0 Bft) W-SW 243 10,5 C 11,0 C 1,6 km/h (1 Bft)
27.09.2023 07:41 11,0 C 97 % 1025,4 hPa 0,0 l/m 0,0 km/h (0 Bft) W-SW 243 10,5 C 11,0 C 1,6 km/h (1 Bft)
27.09.2023 07:40 11,0 C 97 % 1025,4 hPa 0,0 l/m 0,0 km/h (0 Bft) W-SW 244 10,5 C 11,0 C 1,6 km/h (1 Bft)
27.09.2023 07:39 11,0 C 97 % 1025,5 hPa 0,0 l/m 0,0 km/h (0 Bft) W-SW 242 10,5 C 11,0 C 1,6 km/h (1 Bft)
27.09.2023 07:38 11,0 C 97 % 1025,4 hPa 0,0 l/m 0,0 km/h (0 Bft) W-SW 242 10,5 C 11,0 C 1,6 km/h (1 Bft)
27.09.2023 07:37 11,0 C 97 % 1025,5 hPa 0,0 l/m 0,0 km/h (0 Bft) W-SW 242 10,5 C 11,0 C 1,6 km/h (1 Bft)
27.09.2023 07:36 11,0 C 97 % 1025,4 hPa 0,0 l/m 0,0 km/h (0 Bft) O 82 10,5 C 11,0 C 1,6 km/h (1 Bft)
27.09.2023 07:35 11,0 C 97 % 1025,5 hPa 0,0 l/m 0,0 km/h (0 Bft) O 82 10,5 C 11,0 C 1,6 km/h (1 Bft)
27.09.2023 07:34 11,0 C 97 % 1025,4 hPa 0,0 l/m 0,0 km/h (0 Bft) O 82 10,5 C 11,0 C 1,6 km/h (1 Bft)
27.09.2023 07:33 11,0 C 97 % 1025,5 hPa 0,0 l/m 0,0 km/h (0 Bft) O 82 10,5 C 11,0 C 1,6 km/h (1 Bft)
27.09.2023 07:32 10,9 C 97 % 1025,5 hPa 0,0 l/m 0,0 km/h (0 Bft) O 82 10,4 C 10,9 C 1,6 km/h (1 Bft)
27.09.2023 07:31 10,9 C 97 % 1025,4 hPa 0,0 l/m 0,0 km/h (0 Bft) O 82 10,4 C 10,9 C 1,6 km/h (1 Bft)
27.09.2023 07:30 10,9 C 97 % 1025,5 hPa 0,0 l/m 0,0 km/h (0 Bft) O 82 10,4 C 10,9 C 1,6 km/h (1 Bft)
27.09.2023 07:29 10,9 C 97 % 1025,4 hPa 0,0 l/m 0,0 km/h (0 Bft) O 82 10,4 C 10,9 C 1,6 km/h (1 Bft)
27.09.2023 07:28 10,9 C 97 % 1025,4 hPa 0,0 l/m 0,0 km/h (0 Bft) O 82 10,4 C 10,9 C 1,6 km/h (1 Bft)
27.09.2023 07:27 10,9 C 97 % 1025,3 hPa 0,0 l/m 0,0 km/h (0 Bft) O 82 10,4 C 10,9 C 1,6 km/h (1 Bft)
27.09.2023 07:26 10,9 C 97 % 1025,3 hPa 0,0 l/m 0,0 km/h (0 Bft) O 82 10,4 C 10,9 C 1,6 km/h (1 Bft)
27.09.2023 07:25 10,9 C 97 % 1025,3 hPa 0,0 l/m 0,0 km/h (0 Bft) O 82 10,4 C 10,9 C 1,6 km/h (1 Bft)
27.09.2023 07:24 10,9 C 97 % 1025,3 hPa 0,0 l/m 0,0 km/h (0 Bft) O 82 10,4 C 10,9 C 1,6 km/h (1 Bft)
27.09.2023 07:23 11,0 C 97 % 1025,3 hPa 0,0 l/m 0,0 km/h (0 Bft) O 82 10,5 C 11,0 C 3,2 km/h (1 Bft)
27.09.2023 07:22 11,0 C 97 % 1025,4 hPa 0,0 l/m 0,0 km/h (0 Bft) O 82 10,5 C 11,0 C 3,2 km/h (1 Bft)
27.09.2023 07:21 11,0 C 97 % 1025,3 hPa 0,0 l/m 0,0 km/h (0 Bft) O 82 10,5 C 11,0 C 3,2 km/h (1 Bft)
27.09.2023 07:20 11,0 C 97 % 1025,3 hPa 0,0 l/m 0,0 km/h (0 Bft) O 82 10,5 C 11,0 C 3,2 km/h (1 Bft)
27.09.2023 07:19 11,0 C 97 % 1025,3 hPa 0,0 l/m 0,0 km/h (0 Bft) O 82 10,5 C 11,0 C 3,2 km/h (1 Bft)
27.09.2023 07:18 11,0 C 97 % 1025,3 hPa 0,0 l/m 0,0 km/h (0 Bft) O 82 10,5 C 11,0 C 3,2 km/h (1 Bft)
27.09.2023 07:15 10,9 C 97 % 1025,2 hPa 0,0 l/m 1,6 km/h (1 Bft) O 82 10,4 C 10,9 C 3,2 km/h (1 Bft)
27.09.2023 07:14 11,0 C 97 % 1025,1 hPa 0,0 l/m 1,6 km/h (1 Bft) O 82 10,5 C 11,0 C 1,6 km/h (1 Bft)
27.09.2023 07:13 11,0 C 97 % 1025,2 hPa 0,0 l/m 1,6 km/h (1 Bft) O 84 10,5 C 11,0 C 1,6 km/h (1 Bft)
27.09.2023 07:12 11,0 C 97 % 1025,2 hPa 0,0 l/m 1,6 km/h (1 Bft) O 84 10,5 C 11,0 C 1,6 km/h (1 Bft)
27.09.2023 07:11 11,0 C 97 % 1025,2 hPa 0,0 l/m 1,6 km/h (1 Bft) O 84 10,5 C 11,0 C 1,6 km/h (1 Bft)
27.09.2023 07:10 11,0 C 97 % 1025,2 hPa 0,0 l/m 1,6 km/h (1 Bft) O 84 10,5 C 11,0 C 1,6 km/h (1 Bft)
27.09.2023 07:09 11,0 C 97 % 1025,1 hPa 0,0 l/m 1,6 km/h (1 Bft) O 87 10,5 C 11,0 C 1,6 km/h (1 Bft)
27.09.2023 07:08 11,0 C 97 % 1025,1 hPa 0,0 l/m 1,6 km/h (1 Bft) O 87 10,5 C 11,0 C 1,6 km/h (1 Bft)
27.09.2023 07:07 11,0 C 97 % 1025,1 hPa 0,0 l/m 0,0 km/h (0 Bft) O 87 10,5 C 11,0 C 1,6 km/h (1 Bft)
27.09.2023 07:06 11,0 C 97 % 1025,1 hPa 0,0 l/m 0,0 km/h (0 Bft) O 87 10,5 C 11,0 C 1,6 km/h (1 Bft)
27.09.2023 07:05 11,0 C 97 % 1025,1 hPa 0,0 l/m 0,0 km/h (0 Bft) O 88 10,5 C 11,0 C 1,6 km/h (1 Bft)
27.09.2023 07:04 11,0 C 97 % 1025,1 hPa 0,0 l/m 0,0 km/h (0 Bft) O 88 10,5 C 11,0 C 1,6 km/h (1 Bft)
27.09.2023 07:03 11,0 C 97 % 1025,1 hPa 0,0 l/m 0,0 km/h (0 Bft) O 88 10,5 C 11,0 C 1,6 km/h (1 Bft)
27.09.2023 07:02 11,0 C 97 % 1025,0 hPa 0,0 l/m 0,0 km/h (0 Bft) O 88 10,5 C 11,0 C 1,6 km/h (1 Bft)
27.09.2023 07:01 11,0 C 97 % 1025,0 hPa 0,0 l/m 0,0 km/h (0 Bft) O 88 10,5 C 11,0 C 1,6 km/h (1 Bft)
27.09.2023 07:00 11,0 C 97 % 1025,1 hPa 0,0 l/m 0,0 km/h (0 Bft) O 87 10,5 C 11,0 C 1,6 km/h (1 Bft)
27.09.2023 06:59 11,0 C 97 % 1025,0 hPa 0,0 l/m 0,0 km/h (0 Bft) O 88 10,5 C 11,0 C 1,6 km/h (1 Bft)
27.09.2023 06:58 10,9 C 97 % 1025,0 hPa 0,0 l/m 0,0 km/h (0 Bft) O 88 10,4 C 10,9 C 1,6 km/h (1 Bft)
27.09.2023 06:57 10,9 C 97 % 1025,0 hPa 0,0 l/m 0,0 km/h (0 Bft) O 88 10,4 C 10,9 C 1,6 km/h (1 Bft)
27.09.2023 06:56 10,9 C 97 % 1025,0 hPa 0,0 l/m 0,0 km/h (0 Bft) O 88 10,4 C 10,9 C 1,6 km/h (1 Bft)
27.09.2023 06:55 10,9 C 97 % 1025,0 hPa 0,0 l/m 0,0 km/h (0 Bft) O 87 10,4 C 10,9 C 1,6 km/h (1 Bft)
27.09.2023 06:54 11,0 C 97 % 1024,9 hPa 0,0 l/m 0,0 km/h (0 Bft) O 88 10,5 C 11,0 C 1,6 km/h (1 Bft)
27.09.2023 06:53 10,9 C 97 % 1024,9 hPa 0,0 l/m 0,0 km/h (0 Bft) O 88 10,4 C 10,9 C 1,6 km/h (1 Bft)
27.09.2023 06:52 11,0 C 97 % 1025,0 hPa 0,0 l/m 0,0 km/h (0 Bft) O 88 10,5 C 11,0 C 1,6 km/h (1 Bft)
27.09.2023 06:51 11,0 C 97 % 1024,9 hPa 0,0 l/m 0,0 km/h (0 Bft) O 88 10,5 C 11,0 C 1,6 km/h (1 Bft)
27.09.2023 06:50 11,0 C 97 % 1024,8 hPa 0,0 l/m 0,0 km/h (0 Bft) O 88 10,5 C 11,0 C 1,6 km/h (1 Bft)
27.09.2023 06:49 11,0 C 97 % 1024,8 hPa 0,0 l/m 0,0 km/h (0 Bft) O 87 10,5 C 11,0 C 1,6 km/h (1 Bft)
27.09.2023 06:48 11,0 C 97 % 1024,8 hPa 0,0 l/m 0,0 km/h (0 Bft) O 88 10,5 C 11,0 C 1,6 km/h (1 Bft)
27.09.2023 06:47 11,0 C 97 % 1024,8 hPa 0,0 l/m 0,0 km/h (0 Bft) O 88 10,5 C 11,0 C 1,6 km/h (1 Bft)
27.09.2023 06:46 11,0 C 97 % 1024,8 hPa 0,0 l/m 0,0 km/h (0 Bft) O 87 10,5 C 11,0 C 1,6 km/h (1 Bft)
27.09.2023 06:45 11,0 C 96 % 1024,8 hPa 0,0 l/m 0,0 km/h (0 Bft) O 88 10,4 C 11,0 C 1,6 km/h (1 Bft)
27.09.2023 06:44 11,1 C 97 % 1024,8 hPa 0,0 l/m 0,0 km/h (0 Bft) O 87 10,6 C 11,1 C 1,6 km/h (1 Bft)
27.09.2023 06:43 11,1 C 97 % 1024,8 hPa 0,0 l/m 1,6 km/h (1 Bft) O 87 10,6 C 11,1 C 1,6 km/h (1 Bft)
27.09.2023 06:42 11,1 C 97 % 1024,8 hPa 0,0 l/m 0,0 km/h (0 Bft) O 87 10,6 C 11,1 C 1,6 km/h (1 Bft)
27.09.2023 06:41 11,1 C 97 % 1024,8 hPa 0,0 l/m 0,0 km/h (0 Bft) O 87 10,6 C 11,1 C 1,6 km/h (1 Bft)
27.09.2023 06:40 11,1 C 97 % 1024,9 hPa 0,0 l/m 0,0 km/h (0 Bft) O 87 10,6 C 11,1 C 1,6 km/h (1 Bft)
27.09.2023 06:39 11,1 C 97 % 1024,8 hPa 0,0 l/m 0,0 km/h (0 Bft) O 87 10,6 C 11,1 C 1,6 km/h (1 Bft)
27.09.2023 06:38 11,2 C 97 % 1024,7 hPa 0,0 l/m 0,0 km/h (0 Bft) O 87 10,7 C 11,2 C 1,6 km/h (1 Bft)
27.09.2023 06:37 11,3 C 97 % 1024,8 hPa 0,0 l/m 0,0 km/h (0 Bft) O 87 10,8 C 11,3 C 1,6 km/h (1 Bft)
27.09.2023 06:36 11,3 C 97 % 1024,7 hPa 0,0 l/m 0,0 km/h (0 Bft) O 87 10,8 C 11,3 C 1,6 km/h (1 Bft)
27.09.2023 06:35 11,3 C 97 % 1024,7 hPa 0,0 l/m 0,0 km/h (0 Bft) O 87 10,8 C 11,3 C 1,6 km/h (1 Bft)
27.09.2023 06:34 11,3 C 97 % 1024,7 hPa 0,0 l/m 0,0 km/h (0 Bft) O 87 10,8 C 11,3 C 1,6 km/h (1 Bft)
27.09.2023 06:33 11,3 C 97 % 1024,7 hPa 0,0 l/m 0,0 km/h (0 Bft) O 87 10,8 C 11,3 C 1,6 km/h (1 Bft)
27.09.2023 06:32 11,3 C 97 % 1024,7 hPa 0,0 l/m 0,0 km/h (0 Bft) O 87 10,8 C 11,3 C 1,6 km/h (1 Bft)
27.09.2023 06:31 11,3 C 97 % 1024,7 hPa 0,0 l/m 0,0 km/h (0 Bft) O 87 10,8 C 11,3 C 1,6 km/h (1 Bft)
27.09.2023 06:30 11,2 C 97 % 1024,7 hPa 0,0 l/m 0,0 km/h (0 Bft) O 87 10,7 C 11,2 C 1,6 km/h (1 Bft)
27.09.2023 06:29 11,2 C 97 % 1024,7 hPa 0,0 l/m 0,0 km/h (0 Bft) O 87 10,7 C 11,2 C 1,6 km/h (1 Bft)
27.09.2023 06:28 11,2 C 97 % 1024,8 hPa 0,0 l/m 0,0 km/h (0 Bft) O 87 10,7 C 11,2 C 1,6 km/h (1 Bft)
27.09.2023 06:27 11,3 C 97 % 1024,7 hPa 0,0 l/m 0,0 km/h (0 Bft) O 87 10,8 C 11,3 C 1,6 km/h (1 Bft)
27.09.2023 06:26 11,3 C 97 % 1024,7 hPa 0,0 l/m 0,0 km/h (0 Bft) O 87 10,8 C 11,3 C 1,6 km/h (1 Bft)
27.09.2023 06:25 11,2 C 97 % 1024,7 hPa 0,0 l/m 0,0 km/h (0 Bft) O 87 10,7 C 11,2 C 1,6 km/h (1 Bft)
27.09.2023 06:24 11,2 C 97 % 1024,7 hPa 0,0 l/m 0,0 km/h (0 Bft) O 87 10,7 C 11,2 C 1,6 km/h (1 Bft)
27.09.2023 06:23 11,2 C 97 % 1024,7 hPa 0,0 l/m 0,0 km/h (0 Bft) O 87 10,7 C 11,2 C 1,6 km/h (1 Bft)
27.09.2023 06:22 11,2 C 97 % 1024,7 hPa 0,0 l/m 0,0 km/h (0 Bft) O 87 10,7 C 11,2 C 1,6 km/h (1 Bft)
27.09.2023 06:21 11,2 C 97 % 1024,7 hPa 0,0 l/m 0,0 km/h (0 Bft) O 87 10,7 C 11,2 C 1,6 km/h (1 Bft)
27.09.2023 06:20 11,2 C 97 % 1024,7 hPa 0,0 l/m 0,0 km/h (0 Bft) O 87 10,7 C 11,2 C 1,6 km/h (1 Bft)
27.09.2023 06:19 11,2 C 97 % 1024,7 hPa 0,0 l/m 0,0 km/h (0 Bft) O 87 10,7 C 11,2 C 1,6 km/h (1 Bft)
27.09.2023 06:18 11,2 C 97 % 1024,7 hPa 0,0 l/m 0,0 km/h (0 Bft) O 87 10,7 C 11,2 C 1,6 km/h (1 Bft)
27.09.2023 06:17 11,1 C 97 % 1024,7 hPa 0,0 l/m 0,0 km/h (0 Bft) O 87 10,6 C 11,1 C 1,6 km/h (1 Bft)
27.09.2023 06:16 11,1 C 97 % 1024,7 hPa 0,0 l/m 0,0 km/h (0 Bft) O 87 10,6 C 11,1 C 1,6 km/h (1 Bft)
27.09.2023 06:15 11,1 C 97 % 1024,8 hPa 0,0 l/m 0,0 km/h (0 Bft) O 87 10,6 C 11,1 C 1,6 km/h (1 Bft)
27.09.2023 06:14 11,1 C 97 % 1024,7 hPa 0,0 l/m 0,0 km/h (0 Bft) O 87 10,6 C 11,1 C 1,6 km/h (1 Bft)
27.09.2023 06:13 11,1 C 97 % 1024,7 hPa 0,0 l/m 0,0 km/h (0 Bft) O 87 10,6 C 11,1 C 1,6 km/h (1 Bft)
27.09.2023 06:12 11,1 C 97 % 1024,7 hPa 0,0 l/m 0,0 km/h (0 Bft) O 87 10,6 C 11,1 C 1,6 km/h (1 Bft)
27.09.2023 06:11 11,1 C 97 % 1024,7 hPa 0,0 l/m 0,0 km/h (0 Bft) O 87 10,6 C 11,1 C 1,6 km/h (1 Bft)
27.09.2023 06:10 11,1 C 97 % 1024,6 hPa 0,0 l/m 0,0 km/h (0 Bft) O 87 10,6 C 11,1 C 1,6 km/h (1 Bft)
27.09.2023 06:09 11,1 C 97 % 1024,7 hPa 0,0 l/m 0,0 km/h (0 Bft) O 87 10,6 C 11,1 C 1,6 km/h (1 Bft)
27.09.2023 06:08 11,1 C 97 % 1024,6 hPa 0,0 l/m 0,0 km/h (0 Bft) O 87 10,6 C 11,1 C 1,6 km/h (1 Bft)
27.09.2023 06:07 11,1 C 97 % 1024,6 hPa 0,0 l/m 0,0 km/h (0 Bft) O 87 10,6 C 11,1 C 1,6 km/h (1 Bft)
27.09.2023 06:06 11,1 C 97 % 1024,6 hPa 0,0 l/m 1,6 km/h (1 Bft) O 87 10,6 C 11,1 C 1,6 km/h (1 Bft)
27.09.2023 06:05 11,2 C 97 % 1024,6 hPa 0,0 l/m 0,0 km/h (0 Bft) O 87 10,7 C 11,2 C 1,6 km/h (1 Bft)
27.09.2023 06:04 11,1 C 97 % 1024,6 hPa 0,0 l/m 0,0 km/h (0 Bft) O 87 10,6 C 11,1 C 1,6 km/h (1 Bft)
27.09.2023 06:03 11,2 C 97 % 1024,7 hPa 0,0 l/m 0,0 km/h (0 Bft) O 87 10,7 C 11,2 C 1,6 km/h (1 Bft)
27.09.2023 06:02 11,2 C 97 % 1024,7 hPa 0,0 l/m 0,0 km/h (0 Bft) O 87 10,7 C 11,2 C 1,6 km/h (1 Bft)
27.09.2023 06:01 11,2 C 97 % 1024,7 hPa 0,0 l/m 0,0 km/h (0 Bft) O 87 10,7 C 11,2 C 1,6 km/h (1 Bft)
27.09.2023 06:00 11,2 C 97 % 1024,7 hPa 0,0 l/m 0,0 km/h (0 Bft) O 87 10,7 C 11,2 C 1,6 km/h (1 Bft)
27.09.2023 05:59 11,2 C 97 % 1024,7 hPa 0,0 l/m 0,0 km/h (0 Bft) O 87 10,7 C 11,2 C 1,6 km/h (1 Bft)
27.09.2023 05:58 11,2 C 97 % 1024,7 hPa 0,0 l/m 0,0 km/h (0 Bft) O 87 10,7 C 11,2 C 1,6 km/h (1 Bft)
27.09.2023 05:56 11,2 C 97 % 1024,7 hPa 0,0 l/m 0,0 km/h (0 Bft) O 87 10,7 C 11,2 C 1,6 km/h (1 Bft)
27.09.2023 05:55 11,2 C 97 % 1024,8 hPa 0,0 l/m 0,0 km/h (0 Bft) O 87 10,7 C 11,2 C 1,6 km/h (1 Bft)
27.09.2023 05:54 11,2 C 97 % 1024,7 hPa 0,0 l/m 0,0 km/h (0 Bft) O 87 10,7 C 11,2 C 1,6 km/h (1 Bft)
27.09.2023 05:53 11,2 C 97 % 1024,7 hPa 0,0 l/m 0,0 km/h (0 Bft) O 87 10,7 C 11,2 C 1,6 km/h (1 Bft)
27.09.2023 05:52 11,2 C 97 % 1024,7 hPa 0,0 l/m 0,0 km/h (0 Bft) O 87 10,7 C 11,2 C 1,6 km/h (1 Bft)
27.09.2023 05:51 11,2 C 97 % 1024,8 hPa 0,0 l/m 0,0 km/h (0 Bft) O 87 10,7 C 11,2 C 1,6 km/h (1 Bft)
27.09.2023 05:49 11,2 C 97 % 1024,7 hPa 0,0 l/m 0,0 km/h (0 Bft) O 87 10,7 C 11,2 C 1,6 km/h (1 Bft)
27.09.2023 05:48 11,2 C 97 % 1024,6 hPa 0,0 l/m 0,0 km/h (0 Bft) O 87 10,7 C 11,2 C 1,6 km/h (1 Bft)
27.09.2023 05:47 11,2 C 97 % 1024,7 hPa 0,0 l/m 0,0 km/h (0 Bft) O 87 10,7 C 11,2 C 1,6 km/h (1 Bft)
27.09.2023 05:46 11,2 C 97 % 1024,7 hPa 0,0 l/m 0,0 km/h (0 Bft) O 87 10,7 C 11,2 C 1,6 km/h (1 Bft)
27.09.2023 05:45 11,2 C 97 % 1024,7 hPa 0,0 l/m 0,0 km/h (0 Bft) O 87 10,7 C 11,2 C 1,6 km/h (1 Bft)
27.09.2023 05:43 11,2 C 97 % 1024,7 hPa 0,0 l/m 0,0 km/h (0 Bft) O 87 10,7 C 11,2 C 1,6 km/h (1 Bft)
27.09.2023 05:42 11,3 C 97 % 1024,7 hPa 0,0 l/m 0,0 km/h (0 Bft) O 87 10,8 C 11,3 C 1,6 km/h (1 Bft)
27.09.2023 05:41 11,2 C 96 % 1024,8 hPa 0,0 l/m 0,0 km/h (0 Bft) O 87 10,6 C 11,2 C 1,6 km/h (1 Bft)
27.09.2023 05:40 11,3 C 96 % 1024,7 hPa 0,0 l/m 0,0 km/h (0 Bft) O 87 10,7 C 11,3 C 1,6 km/h (1 Bft)
27.09.2023 05:39 11,3 C 96 % 1024,8 hPa 0,0 l/m 0,0 km/h (0 Bft) O 87 10,7 C 11,3 C 1,6 km/h (1 Bft)
27.09.2023 05:38 11,3 C 96 % 1024,8 hPa 0,0 l/m 0,0 km/h (0 Bft) O 87 10,7 C 11,3 C 1,6 km/h (1 Bft)
27.09.2023 05:37 11,3 C 96 % 1024,8 hPa 0,0 l/m 0,0 km/h (0 Bft) O 87 10,7 C 11,3 C 1,6 km/h (1 Bft)
27.09.2023 05:36 11,3 C 96 % 1024,8 hPa 0,0 l/m 0,0 km/h (0 Bft) O 87 10,7 C 11,3 C 1,6 km/h (1 Bft)
27.09.2023 05:35 11,4 C 96 % 1024,7 hPa 0,0 l/m 0,0 km/h (0 Bft) O 87 10,8 C 11,4 C 1,6 km/h (1 Bft)
27.09.2023 05:33 11,4 C 96 % 1024,7 hPa 0,0 l/m 0,0 km/h (0 Bft) O 87 10,8 C 11,4 C 1,6 km/h (1 Bft)
27.09.2023 05:32 11,4 C 97 % 1024,7 hPa 0,0 l/m 0,0 km/h (0 Bft) O 87 10,9 C 11,4 C 1,6 km/h (1 Bft)
27.09.2023 05:31 11,5 C 97 % 1024,8 hPa 0,0 l/m 0,0 km/h (0 Bft) O 87 11,0 C 11,5 C 1,6 km/h (1 Bft)
27.09.2023 05:30 11,5 C 97 % 1024,8 hPa 0,0 l/m 0,0 km/h (0 Bft) O 87 11,0 C 11,5 C 1,6 km/h (1 Bft)
27.09.2023 05:29 11,5 C 97 % 1024,8 hPa 0,0 l/m 0,0 km/h (0 Bft) O 87 11,0 C 11,5 C 1,6 km/h (1 Bft)
27.09.2023 05:28 11,5 C 97 % 1024,8 hPa 0,0 l/m 0,0 km/h (0 Bft) O 87 11,0 C 11,5 C 1,6 km/h (1 Bft)
27.09.2023 05:27 11,5 C 97 % 1024,7 hPa 0,0 l/m 0,0 km/h (0 Bft) O 87 11,0 C 11,5 C 1,6 km/h (1 Bft)
27.09.2023 05:26 11,6 C 97 % 1024,7 hPa 0,0 l/m 0,0 km/h (0 Bft) O 87 11,1 C 11,6 C 1,6 km/h (1 Bft)
27.09.2023 05:25 11,6 C 97 % 1024,8 hPa 0,0 l/m 0,0 km/h (0 Bft) O 87 11,1 C 11,6 C 1,6 km/h (1 Bft)
27.09.2023 05:24 11,5 C 97 % 1024,7 hPa 0,0 l/m 0,0 km/h (0 Bft) O 87 11,0 C 11,5 C 1,6 km/h (1 Bft)
27.09.2023 05:23 11,5 C 97 % 1024,8 hPa 0,0 l/m 0,0 km/h (0 Bft) O 87 11,0 C 11,5 C 1,6 km/h (1 Bft)
27.09.2023 05:22 11,5 C 97 % 1024,7 hPa 0,0 l/m 0,0 km/h (0 Bft) O 87 11,0 C 11,5 C 1,6 km/h (1 Bft)
27.09.2023 05:21 11,5 C 97 % 1024,8 hPa 0,0 l/m 0,0 km/h (0 Bft) O 87 11,0 C 11,5 C 1,6 km/h (1 Bft)
27.09.2023 05:19 11,5 C 97 % 1024,7 hPa 0,0 l/m 0,0 km/h (0 Bft) O 87 11,0 C 11,5 C 1,6 km/h (1 Bft)
27.09.2023 05:18 11,4 C 97 % 1024,7 hPa 0,0 l/m 0,0 km/h (0 Bft) O 87 10,9 C 11,4 C 1,6 km/h (1 Bft)
27.09.2023 05:17 11,5 C 97 % 1024,8 hPa 0,0 l/m 0,0 km/h (0 Bft) O 87 11,0 C 11,5 C 1,6 km/h (1 Bft)
27.09.2023 05:16 11,5 C 97 % 1024,7 hPa 0,0 l/m 0,0 km/h (0 Bft) O 87 11,0 C 11,5 C 1,6 km/h (1 Bft)
27.09.2023 05:15 11,4 C 97 % 1024,8 hPa 0,0 l/m 0,0 km/h (0 Bft) O 87 10,9 C 11,4 C 1,6 km/h (1 Bft)
27.09.2023 05:14 11,4 C 97 % 1024,7 hPa 0,0 l/m 0,0 km/h (0 Bft) O 87 10,9 C 11,4 C 1,6 km/h (1 Bft)
27.09.2023 05:12 11,4 C 97 % 1024,8 hPa 0,0 l/m 0,0 km/h (0 Bft) O 87 10,9 C 11,4 C 1,6 km/h (1 Bft)
27.09.2023 05:10 11,4 C 97 % 1024,7 hPa 0,0 l/m 0,0 km/h (0 Bft) O 87 10,9 C 11,4 C 1,6 km/h (1 Bft)
27.09.2023 05:09 11,4 C 97 % 1024,8 hPa 0,0 l/m 0,0 km/h (0 Bft) O 87 10,9 C 11,4 C 1,6 km/h (1 Bft)
27.09.2023 05:08 11,4 C 97 % 1024,7 hPa 0,0 l/m 0,0 km/h (0 Bft) O 87 10,9 C 11,4 C 1,6 km/h (1 Bft)
27.09.2023 05:06 11,4 C 97 % 1024,6 hPa 0,0 l/m 0,0 km/h (0 Bft) O 87 10,9 C 11,4 C 1,6 km/h (1 Bft)
27.09.2023 05:04 11,4 C 96 % 1024,8 hPa 0,0 l/m 0,0 km/h (0 Bft) O 87 10,8 C 11,4 C 1,6 km/h (1 Bft)
27.09.2023 05:02 11,4 C 96 % 1024,7 hPa 0,0 l/m 0,0 km/h (0 Bft) O 87 10,8 C 11,4 C 1,6 km/h (1 Bft)
27.09.2023 05:01 11,4 C 96 % 1024,7 hPa 0,0 l/m 0,0 km/h (0 Bft) O 87 10,8 C 11,4 C 1,6 km/h (1 Bft)
27.09.2023 05:00 11,4 C 96 % 1024,6 hPa 0,0 l/m 0,0 km/h (0 Bft) O 87 10,8 C 11,4 C 1,6 km/h (1 Bft)
27.09.2023 04:59 11,4 C 96 % 1024,7 hPa 0,0 l/m 0,0 km/h (0 Bft) O 87 10,8 C 11,4 C 1,6 km/h (1 Bft)
27.09.2023 04:58 11,4 C 96 % 1024,7 hPa 0,0 l/m 0,0 km/h (0 Bft) O 87 10,8 C 11,4 C 1,6 km/h (1 Bft)
27.09.2023 04:57 11,5 C 96 % 1024,6 hPa 0,0 l/m 1,6 km/h (1 Bft) O 87 10,9 C 11,5 C 1,6 km/h (1 Bft)
27.09.2023 04:56 11,5 C 96 % 1024,7 hPa 0,0 l/m 1,6 km/h (1 Bft) O 86 10,9 C 11,5 C 1,6 km/h (1 Bft)
27.09.2023 04:53 11,6 C 96 % 1024,7 hPa 0,0 l/m 0,0 km/h (0 Bft) O-SO 105 11,0 C 11,6 C 1,6 km/h (1 Bft)
27.09.2023 04:52 11,6 C 96 % 1024,7 hPa 0,0 l/m 0,0 km/h (0 Bft) O-SO 106 11,0 C 11,6 C 1,6 km/h (1 Bft)
27.09.2023 04:51 11,6 C 96 % 1024,6 hPa 0,0 l/m 0,0 km/h (0 Bft) O-SO 106 11,0 C 11,6 C 1,6 km/h (1 Bft)
27.09.2023 04:49 11,7 C 97 % 1024,7 hPa 0,0 l/m 0,0 km/h (0 Bft) O-SO 106 11,2 C 11,7 C 1,6 km/h (1 Bft)
27.09.2023 04:48 11,7 C 97 % 1024,7 hPa 0,0 l/m 0,0 km/h (0 Bft) O-SO 106 11,2 C 11,7 C 1,6 km/h (1 Bft)
27.09.2023 04:47 11,7 C 97 % 1024,7 hPa 0,0 l/m 0,0 km/h (0 Bft) O-SO 106 11,2 C 11,7 C 1,6 km/h (1 Bft)
27.09.2023 04:45 11,8 C 97 % 1024,7 hPa 0,0 l/m 0,0 km/h (0 Bft) O-SO 106 11,3 C 11,8 C 1,6 km/h (1 Bft)
27.09.2023 04:44 11,7 C 96 % 1024,6 hPa 0,0 l/m 0,0 km/h (0 Bft) O-SO 106 11,1 C 11,7 C 1,6 km/h (1 Bft)
27.09.2023 04:43 11,8 C 97 % 1024,7 hPa 0,0 l/m 0,0 km/h (0 Bft) O-SO 106 11,3 C 11,8 C 1,6 km/h (1 Bft)
27.09.2023 04:42 11,8 C 97 % 1024,7 hPa 0,0 l/m 0,0 km/h (0 Bft) O-SO 106 11,3 C 11,8 C 1,6 km/h (1 Bft)
27.09.2023 04:41 11,8 C 97 % 1024,7 hPa 0,0 l/m 0,0 km/h (0 Bft) O-SO 106 11,3 C 11,8 C 1,6 km/h (1 Bft)
27.09.2023 04:40 11,8 C 97 % 1024,7 hPa 0,0 l/m 0,0 km/h (0 Bft) O-SO 106 11,3 C 11,8 C 1,6 km/h (1 Bft)
27.09.2023 04:39 11,8 C 97 % 1024,6 hPa 0,0 l/m 0,0 km/h (0 Bft) O-SO 106 11,3 C 11,8 C 1,6 km/h (1 Bft)
27.09.2023 04:37 11,8 C 97 % 1024,6 hPa 0,0 l/m 0,0 km/h (0 Bft) O-SO 106 11,3 C 11,8 C 1,6 km/h (1 Bft)
27.09.2023 04:36 11,8 C 97 % 1024,7 hPa 0,0 l/m 0,0 km/h (0 Bft) O-SO 106 11,3 C 11,8 C 1,6 km/h (1 Bft)
27.09.2023 04:35 11,8 C 97 % 1024,7 hPa 0,0 l/m 0,0 km/h (0 Bft) O-SO 106 11,3 C 11,8 C 1,6 km/h (1 Bft)
27.09.2023 04:34 11,8 C 97 % 1024,6 hPa 0,0 l/m 0,0 km/h (0 Bft) O-SO 105 11,3 C 11,8 C 1,6 km/h (1 Bft)
27.09.2023 04:33 11,8 C 97 % 1024,6 hPa 0,0 l/m 0,0 km/h (0 Bft) O-SO 105 11,3 C 11,8 C 1,6 km/h (1 Bft)
27.09.2023 04:32 11,8 C 97 % 1024,7 hPa 0,0 l/m 0,0 km/h (0 Bft) O-SO 105 11,3 C 11,8 C 1,6 km/h (1 Bft)
27.09.2023 04:31 11,8 C 97 % 1024,7 hPa 0,0 l/m 0,0 km/h (0 Bft) O-SO 105 11,3 C 11,8 C 1,6 km/h (1 Bft)
27.09.2023 04:30 11,8 C 97 % 1024,7 hPa 0,0 l/m 0,0 km/h (0 Bft) O-SO 105 11,3 C 11,8 C 1,6 km/h (1 Bft)
27.09.2023 04:29 11,8 C 97 % 1024,6 hPa 0,0 l/m 0,0 km/h (0 Bft) O-SO 105 11,3 C 11,8 C 1,6 km/h (1 Bft)
27.09.2023 04:28 11,8 C 97 % 1024,6 hPa 0,0 l/m 0,0 km/h (0 Bft) O-SO 105 11,3 C 11,8 C 1,6 km/h (1 Bft)
27.09.2023 04:27 11,8 C 97 % 1024,6 hPa 0,0 l/m 0,0 km/h (0 Bft) O-SO 105 11,3 C 11,8 C 3,2 km/h (1 Bft)
27.09.2023 04:26 11,9 C 97 % 1024,6 hPa 0,0 l/m 1,6 km/h (1 Bft) O-SO 105 11,4 C 11,9 C 3,2 km/h (1 Bft)
27.09.2023 04:25 11,9 C 97 % 1024,6 hPa 0,0 l/m 0,0 km/h (0 Bft) O-SO 105 11,4 C 11,9 C 3,2 km/h (1 Bft)
27.09.2023 04:24 11,9 C 97 % 1024,7 hPa 0,0 l/m 0,0 km/h (0 Bft) O-SO 105 11,4 C 11,9 C 3,2 km/h (1 Bft)
27.09.2023 04:23 11,9 C 97 % 1024,7 hPa 0,0 l/m 0,0 km/h (0 Bft) O-SO 105 11,4 C 11,9 C 3,2 km/h (1 Bft)
27.09.2023 04:22 11,9 C 97 % 1024,7 hPa 0,0 l/m 0,0 km/h (0 Bft) O-SO 105 11,4 C 11,9 C 3,2 km/h (1 Bft)
27.09.2023 04:21 11,9 C 97 % 1024,7 hPa 0,0 l/m 0,0 km/h (0 Bft) O-SO 105 11,4 C 11,9 C 3,2 km/h (1 Bft)
27.09.2023 04:20 11,9 C 97 % 1024,7 hPa 0,0 l/m 0,0 km/h (0 Bft) O-SO 105 11,4 C 11,9 C 3,2 km/h (1 Bft)
27.09.2023 04:19 11,9 C 97 % 1024,7 hPa 0,0 l/m 1,6 km/h (1 Bft) O-SO 105 11,4 C 11,9 C 3,2 km/h (1 Bft)
27.09.2023 04:18 11,9 C 97 % 1024,7 hPa 0,2 l/m 1,6 km/h (1 Bft) O 84 11,4 C 11,9 C 3,2 km/h (1 Bft)
27.09.2023 04:17 11,9 C 97 % 1024,7 hPa 0,0 l/m 1,6 km/h (1 Bft) O-NO 77 11,4 C 11,9 C 1,6 km/h (1 Bft)
27.09.2023 04:16 11,9 C 97 % 1024,7 hPa 0,0 l/m 0,0 km/h (0 Bft) O-SO 113 11,4 C 11,9 C 1,6 km/h (1 Bft)
27.09.2023 04:15 11,9 C 97 % 1024,7 hPa 0,0 l/m 0,0 km/h (0 Bft) O-SO 113 11,4 C 11,9 C 1,6 km/h (1 Bft)
27.09.2023 04:14 11,9 C 97 % 1024,7 hPa 0,0 l/m 0,0 km/h (0 Bft) O-SO 114 11,4 C 11,9 C 1,6 km/h (1 Bft)
27.09.2023 04:13 11,9 C 97 % 1024,8 hPa 0,0 l/m 0,0 km/h (0 Bft) SO 130 11,4 C 11,9 C 1,6 km/h (1 Bft)
27.09.2023 04:12 11,9 C 97 % 1024,7 hPa 0,0 l/m 0,0 km/h (0 Bft) SO 130 11,4 C 11,9 C 1,6 km/h (1 Bft)
27.09.2023 04:11 11,9 C 97 % 1024,8 hPa 0,0 l/m 0,0 km/h (0 Bft) SO 130 11,4 C 11,9 C 1,6 km/h (1 Bft)
27.09.2023 04:10 11,9 C 97 % 1024,8 hPa 0,0 l/m 0,0 km/h (0 Bft) SO 130 11,4 C 11,9 C 1,6 km/h (1 Bft)
27.09.2023 04:09 11,9 C 97 % 1024,7 hPa 0,0 l/m 0,0 km/h (0 Bft) SO 130 11,4 C 11,9 C 1,6 km/h (1 Bft)
27.09.2023 04:08 11,9 C 97 % 1024,7 hPa 0,0 l/m 0,0 km/h (0 Bft) SO 130 11,4 C 11,9 C 1,6 km/h (1 Bft)
27.09.2023 04:07 11,9 C 97 % 1024,8 hPa 0,0 l/m 0,0 km/h (0 Bft) SO 130 11,4 C 11,9 C 1,6 km/h (1 Bft)
27.09.2023 04:06 11,9 C 97 % 1024,7 hPa 0,0 l/m 0,0 km/h (0 Bft) SO 130 11,4 C 11,9 C 1,6 km/h (1 Bft)
27.09.2023 04:05 11,8 C 97 % 1024,7 hPa 0,0 l/m 0,0 km/h (0 Bft) SO 130 11,3 C 11,8 C 1,6 km/h (1 Bft)
27.09.2023 04:04 11,8 C 97 % 1024,7 hPa 0,0 l/m 0,0 km/h (0 Bft) SO 130 11,3 C 11,8 C 1,6 km/h (1 Bft)
27.09.2023 04:03 11,8 C 97 % 1024,8 hPa 0,0 l/m 0,0 km/h (0 Bft) SO 130 11,3 C 11,8 C 1,6 km/h (1 Bft)
27.09.2023 04:02 11,8 C 97 % 1024,7 hPa 0,0 l/m 0,0 km/h (0 Bft) SO 130 11,3 C 11,8 C 1,6 km/h (1 Bft)
27.09.2023 04:01 11,8 C 96 % 1024,7 hPa 0,0 l/m 0,0 km/h (0 Bft) SO 130 11,2 C 11,8 C 1,6 km/h (1 Bft)
27.09.2023 04:00 11,8 C 97 % 1024,7 hPa 0,0 l/m 0,0 km/h (0 Bft) SW 229 11,3 C 11,8 C 1,6 km/h (1 Bft)
27.09.2023 03:59 11,8 C 97 % 1024,8 hPa 0,0 l/m 0,0 km/h (0 Bft) SW 229 11,3 C 11,8 C 1,6 km/h (1 Bft)
27.09.2023 03:58 11,8 C 97 % 1024,8 hPa 0,0 l/m 0,0 km/h (0 Bft) SW 229 11,3 C 11,8 C 1,6 km/h (1 Bft)
27.09.2023 03:57 11,8 C 96 % 1024,7 hPa 0,0 l/m 0,0 km/h (0 Bft) SW 230 11,2 C 11,8 C 1,6 km/h (1 Bft)
27.09.2023 03:56 11,8 C 96 % 1024,7 hPa 0,0 l/m 0,0 km/h (0 Bft) SW 230 11,2 C 11,8 C 1,6 km/h (1 Bft)
27.09.2023 03:55 11,8 C 96 % 1024,7 hPa 0,0 l/m 0,0 km/h (0 Bft) SW 230 11,2 C 11,8 C 1,6 km/h (1 Bft)
27.09.2023 03:54 11,8 C 96 % 1024,8 hPa 0,0 l/m 0,0 km/h (0 Bft) SW 230 11,2 C 11,8 C 1,6 km/h (1 Bft)
27.09.2023 03:53 11,8 C 96 % 1024,7 hPa 0,0 l/m 0,0 km/h (0 Bft) SW 230 11,2 C 11,8 C 1,6 km/h (1 Bft)
27.09.2023 03:52 11,8 C 96 % 1024,8 hPa 0,0 l/m 0,0 km/h (0 Bft) SW 230 11,2 C 11,8 C 1,6 km/h (1 Bft)
27.09.2023 03:51 11,8 C 96 % 1024,9 hPa 0,0 l/m 0,0 km/h (0 Bft) SW 229 11,2 C 11,8 C 1,6 km/h (1 Bft)
27.09.2023 03:50 11,8 C 96 % 1024,8 hPa 0,0 l/m 0,0 km/h (0 Bft) SW 229 11,2 C 11,8 C 1,6 km/h (1 Bft)
27.09.2023 03:49 11,9 C 96 % 1024,7 hPa 0,0 l/m 0,0 km/h (0 Bft) SW 229 11,3 C 11,9 C 1,6 km/h (1 Bft)
27.09.2023 03:48 11,9 C 96 % 1024,8 hPa 0,0 l/m 0,0 km/h (0 Bft) SW 229 11,3 C 11,9 C 1,6 km/h (1 Bft)
27.09.2023 03:47 11,9 C 96 % 1024,8 hPa 0,0 l/m 0,0 km/h (0 Bft) SW 230 11,3 C 11,9 C 1,6 km/h (1 Bft)
27.09.2023 03:46 11,9 C 96 % 1024,8 hPa 0,0 l/m 0,0 km/h (0 Bft) SW 230 11,3 C 11,9 C 1,6 km/h (1 Bft)
27.09.2023 03:45 11,9 C 96 % 1024,7 hPa 0,0 l/m 0,0 km/h (0 Bft) SW 229 11,3 C 11,9 C 1,6 km/h (1 Bft)
27.09.2023 03:44 11,9 C 96 % 1024,8 hPa 0,0 l/m 0,0 km/h (0 Bft) SW 229 11,3 C 11,9 C 1,6 km/h (1 Bft)
27.09.2023 03:43 11,9 C 96 % 1024,7 hPa 0,0 l/m 0,0 km/h (0 Bft) SW 229 11,3 C 11,9 C 1,6 km/h (1 Bft)
27.09.2023 03:42 11,9 C 96 % 1024,7 hPa 0,0 l/m 0,0 km/h (0 Bft) SW 229 11,3 C 11,9 C 1,6 km/h (1 Bft)
27.09.2023 03:41 11,9 C 96 % 1024,8 hPa 0,0 l/m 0,0 km/h (0 Bft) SW 229 11,3 C 11,9 C 1,6 km/h (1 Bft)
27.09.2023 03:40 11,9 C 96 % 1024,8 hPa 0,0 l/m 0,0 km/h (0 Bft) SW 229 11,3 C 11,9 C 1,6 km/h (1 Bft)
27.09.2023 03:39 11,9 C 96 % 1024,8 hPa 0,0 l/m 0,0 km/h (0 Bft) SW 229 11,3 C 11,9 C 1,6 km/h (1 Bft)
27.09.2023 03:38 12,0 C 96 % 1024,8 hPa 0,0 l/m 0,0 km/h (0 Bft) SW 229 11,4 C 12,0 C 1,6 km/h (1 Bft)
27.09.2023 03:37 12,0 C 96 % 1024,8 hPa 0,0 l/m 0,0 km/h (0 Bft) SW 229 11,4 C 12,0 C 1,6 km/h (1 Bft)
27.09.2023 03:36 12,0 C 96 % 1024,7 hPa 0,0 l/m 0,0 km/h (0 Bft) SW 229 11,4 C 12,0 C 1,6 km/h (1 Bft)
27.09.2023 03:35 12,0 C 96 % 1024,7 hPa 0,0 l/m 0,0 km/h (0 Bft) SW 229 11,4 C 12,0 C 1,6 km/h (1 Bft)
27.09.2023 03:34 12,0 C 96 % 1024,8 hPa 0,0 l/m 0,0 km/h (0 Bft) SW 229 11,4 C 12,0 C 1,6 km/h (1 Bft)
27.09.2023 03:33 12,0 C 96 % 1024,7 hPa 0,0 l/m 0,0 km/h (0 Bft) SW 229 11,4 C 12,0 C 1,6 km/h (1 Bft)
27.09.2023 03:32 12,1 C 96 % 1024,8 hPa 0,0 l/m 0,0 km/h (0 Bft) SW 229 11,5 C 12,1 C 1,6 km/h (1 Bft)
27.09.2023 03:31 12,1 C 96 % 1024,8 hPa 0,0 l/m 0,0 km/h (0 Bft) S-SO 159 11,5 C 12,1 C 1,6 km/h (1 Bft)
27.09.2023 03:30 12,1 C 96 % 1024,8 hPa 0,0 l/m 0,0 km/h (0 Bft) S-SO 159 11,5 C 12,1 C 1,6 km/h (1 Bft)
27.09.2023 03:29 12,1 C 96 % 1024,8 hPa 0,0 l/m 0,0 km/h (0 Bft) S-SO 159 11,5 C 12,1 C 1,6 km/h (1 Bft)
27.09.2023 03:28 12,1 C 96 % 1024,8 hPa 0,0 l/m 0,0 km/h (0 Bft) S-SO 159 11,5 C 12,1 C 1,6 km/h (1 Bft)
27.09.2023 03:27 12,1 C 96 % 1024,8 hPa 0,0 l/m 0,0 km/h (0 Bft) S-SO 159 11,5 C 12,1 C 1,6 km/h (1 Bft)
27.09.2023 03:26 12,1 C 96 % 1024,9 hPa 0,0 l/m 0,0 km/h (0 Bft) S-SO 159 11,5 C 12,1 C 1,6 km/h (1 Bft)
27.09.2023 03:25 12,2 C 96 % 1024,8 hPa 0,0 l/m 0,0 km/h (0 Bft) S-SO 159 11,6 C 12,2 C 1,6 km/h (1 Bft)
27.09.2023 03:24 12,2 C 96 % 1024,8 hPa 0,0 l/m 0,0 km/h (0 Bft) S-SO 159 11,6 C 12,2 C 1,6 km/h (1 Bft)
27.09.2023 03:23 12,2 C 96 % 1024,8 hPa 0,0 l/m 0,0 km/h (0 Bft) S-SO 159 11,6 C 12,2 C 1,6 km/h (1 Bft)
27.09.2023 03:22 12,2 C 96 % 1024,8 hPa 0,0 l/m 0,0 km/h (0 Bft) O-SO 110 11,6 C 12,2 C 1,6 km/h (1 Bft)
27.09.2023 03:21 12,2 C 96 % 1024,8 hPa 0,0 l/m 0,0 km/h (0 Bft) O-SO 110 11,6 C 12,2 C 1,6 km/h (1 Bft)
27.09.2023 03:20 12,2 C 96 % 1024,8 hPa 0,0 l/m 0,0 km/h (0 Bft) O-SO 110 11,6 C 12,2 C 1,6 km/h (1 Bft)
27.09.2023 03:19 12,2 C 96 % 1024,8 hPa 0,0 l/m 0,0 km/h (0 Bft) O-SO 110 11,6 C 12,2 C 1,6 km/h (1 Bft)
27.09.2023 03:18 12,2 C 96 % 1024,8 hPa 0,0 l/m 0,0 km/h (0 Bft) O-SO 110 11,6 C 12,2 C 1,6 km/h (1 Bft)
27.09.2023 03:17 12,2 C 96 % 1024,8 hPa 0,0 l/m 0,0 km/h (0 Bft) O-SO 110 11,6 C 12,2 C 1,6 km/h (1 Bft)
27.09.2023 03:16 12,3 C 96 % 1024,8 hPa 0,0 l/m 0,0 km/h (0 Bft) O-SO 110 11,7 C 12,3 C 1,6 km/h (1 Bft)
27.09.2023 03:15 12,3 C 96 % 1024,8 hPa 0,0 l/m 0,0 km/h (0 Bft) O-SO 110 11,7 C 12,3 C 1,6 km/h (1 Bft)
27.09.2023 03:14 12,3 C 96 % 1024,8 hPa 0,0 l/m 0,0 km/h (0 Bft) O-SO 110 11,7 C 12,3 C 1,6 km/h (1 Bft)
27.09.2023 03:13 12,3 C 96 % 1024,8 hPa 0,0 l/m 0,0 km/h (0 Bft) O-SO 110 11,7 C 12,3 C 1,6 km/h (1 Bft)
27.09.2023 03:12 12,3 C 96 % 1024,8 hPa 0,0 l/m 0,0 km/h (0 Bft) O-SO 110 11,7 C 12,3 C 1,6 km/h (1 Bft)
27.09.2023 03:11 12,3 C 96 % 1024,8 hPa 0,0 l/m 0,0 km/h (0 Bft) O-SO 110 11,7 C 12,3 C 1,6 km/h (1 Bft)
27.09.2023 03:10 12,3 C 96 % 1024,9 hPa 0,0 l/m 0,0 km/h (0 Bft) O-SO 110 11,7 C 12,3 C 1,6 km/h (1 Bft)
27.09.2023 03:09 12,4 C 96 % 1024,9 hPa 0,0 l/m 0,0 km/h (0 Bft) O-SO 110 11,8 C 12,4 C 1,6 km/h (1 Bft)
27.09.2023 03:08 12,4 C 96 % 1024,9 hPa 0,0 l/m 0,0 km/h (0 Bft) O-SO 110 11,8 C 12,4 C 1,6 km/h (1 Bft)
27.09.2023 03:07 12,4 C 96 % 1024,8 hPa 0,0 l/m 0,0 km/h (0 Bft) O-SO 110 11,8 C 12,4 C 1,6 km/h (1 Bft)
27.09.2023 03:06 12,3 C 96 % 1024,9 hPa 0,0 l/m 0,0 km/h (0 Bft) O-SO 110 11,7 C 12,3 C 1,6 km/h (1 Bft)
27.09.2023 03:05 12,4 C 96 % 1024,9 hPa 0,0 l/m 0,0 km/h (0 Bft) O-SO 110 11,8 C 12,4 C 1,6 km/h (1 Bft)
27.09.2023 03:04 12,3 C 96 % 1024,9 hPa 0,0 l/m 0,0 km/h (0 Bft) O-SO 110 11,7 C 12,3 C 1,6 km/h (1 Bft)
27.09.2023 03:03 12,3 C 96 % 1024,9 hPa 0,0 l/m 0,0 km/h (0 Bft) O-SO 110 11,7 C 12,3 C 1,6 km/h (1 Bft)
27.09.2023 03:02 12,3 C 96 % 1025,0 hPa 0,0 l/m 0,0 km/h (0 Bft) O-SO 110 11,7 C 12,3 C 1,6 km/h (1 Bft)
27.09.2023 03:01 12,3 C 96 % 1025,0 hPa 0,0 l/m 0,0 km/h (0 Bft) O-SO 110 11,7 C 12,3 C 1,6 km/h (1 Bft)
27.09.2023 03:00 12,3 C 96 % 1025,0 hPa 0,0 l/m 0,0 km/h (0 Bft) O-SO 110 11,7 C 12,3 C 1,6 km/h (1 Bft)
27.09.2023 02:59 12,3 C 96 % 1025,0 hPa 0,0 l/m 0,0 km/h (0 Bft) O-SO 110 11,7 C 12,3 C 1,6 km/h (1 Bft)
27.09.2023 02:58 12,3 C 96 % 1025,0 hPa 0,0 l/m 0,0 km/h (0 Bft) O-SO 109 11,7 C 12,3 C 1,6 km/h (1 Bft)
27.09.2023 02:56 12,4 C 96 % 1024,9 hPa 0,0 l/m 0,0 km/h (0 Bft) O-SO 110 11,8 C 12,4 C 1,6 km/h (1 Bft)
27.09.2023 02:55 12,4 C 96 % 1025,0 hPa 0,0 l/m 0,0 km/h (0 Bft) O 94 11,8 C 12,4 C 1,6 km/h (1 Bft)
27.09.2023 02:54 12,4 C 96 % 1024,9 hPa 0,0 l/m 1,6 km/h (1 Bft) O-NO 76 11,8 C 12,4 C 1,6 km/h (1 Bft)
27.09.2023 02:53 12,4 C 96 % 1025,0 hPa 0,0 l/m 1,6 km/h (1 Bft) O-NO 75 11,8 C 12,4 C 1,6 km/h (1 Bft)
27.09.2023 02:52 12,4 C 96 % 1025,0 hPa 0,0 l/m 0,0 km/h (0 Bft) O 86 11,8 C 12,4 C 1,6 km/h (1 Bft)
27.09.2023 02:51 12,4 C 96 % 1025,0 hPa 0,0 l/m 0,0 km/h (0 Bft) O 86 11,8 C 12,4 C 1,6 km/h (1 Bft)
27.09.2023 02:50 12,4 C 96 % 1025,0 hPa 0,0 l/m 0,0 km/h (0 Bft) O 83 11,8 C 12,4 C 1,6 km/h (1 Bft)
27.09.2023 02:49 12,4 C 96 % 1025,0 hPa 0,0 l/m 0,0 km/h (0 Bft) O 83 11,8 C 12,4 C 1,6 km/h (1 Bft)
27.09.2023 02:48 12,4 C 96 % 1025,0 hPa 0,0 l/m 0,0 km/h (0 Bft) O 83 11,8 C 12,4 C 1,6 km/h (1 Bft)
27.09.2023 02:47 12,4 C 96 % 1025,0 hPa 0,0 l/m 0,0 km/h (0 Bft) O 83 11,8 C 12,4 C 1,6 km/h (1 Bft)
27.09.2023 02:46 12,4 C 96 % 1024,9 hPa 0,0 l/m 0,0 km/h (0 Bft) O 83 11,8 C 12,4 C 1,6 km/h (1 Bft)
27.09.2023 02:45 12,4 C 96 % 1024,9 hPa 0,0 l/m 0,0 km/h (0 Bft) O 83 11,8 C 12,4 C 1,6 km/h (1 Bft)
27.09.2023 02:44 12,4 C 96 % 1024,9 hPa 0,0 l/m 0,0 km/h (0 Bft) O 83 11,8 C 12,4 C 1,6 km/h (1 Bft)
27.09.2023 02:43 12,4 C 96 % 1025,0 hPa 0,0 l/m 0,0 km/h (0 Bft) O 83 11,8 C 12,4 C 1,6 km/h (1 Bft)
27.09.2023 02:42 12,4 C 96 % 1024,9 hPa 0,0 l/m 0,0 km/h (0 Bft) O 83 11,8 C 12,4 C 1,6 km/h (1 Bft)
27.09.2023 02:41 12,4 C 96 % 1024,9 hPa 0,0 l/m 0,0 km/h (0 Bft) O 83 11,8 C 12,4 C 1,6 km/h (1 Bft)
27.09.2023 02:40 12,4 C 96 % 1024,9 hPa 0,0 l/m 0,0 km/h (0 Bft) O 83 11,8 C 12,4 C 1,6 km/h (1 Bft)
27.09.2023 02:39 12,4 C 96 % 1024,9 hPa 0,0 l/m 0,0 km/h (0 Bft) O 83 11,8 C 12,4 C 1,6 km/h (1 Bft)
27.09.2023 02:38 12,4 C 96 % 1025,0 hPa 0,0 l/m 0,0 km/h (0 Bft) O 83 11,8 C 12,4 C 1,6 km/h (1 Bft)
27.09.2023 02:37 12,4 C 96 % 1024,9 hPa 0,0 l/m 0,0 km/h (0 Bft) O-NO 76 11,8 C 12,4 C 1,6 km/h (1 Bft)
27.09.2023 02:36 12,4 C 96 % 1024,9 hPa 0,0 l/m 0,0 km/h (0 Bft) O-NO 76 11,8 C 12,4 C 1,6 km/h (1 Bft)
27.09.2023 02:35 12,5 C 96 % 1024,9 hPa 0,0 l/m 0,0 km/h (0 Bft) O-NO 76 11,9 C 12,5 C 3,2 km/h (1 Bft)
27.09.2023 02:34 12,5 C 96 % 1025,0 hPa 0,0 l/m 0,0 km/h (0 Bft) O-NO 76 11,9 C 12,5 C 3,2 km/h (1 Bft)
27.09.2023 02:33 12,5 C 96 % 1025,0 hPa 0,0 l/m 0,0 km/h (0 Bft) O-NO 76 11,9 C 12,5 C 3,2 km/h (1 Bft)
27.09.2023 02:32 12,5 C 96 % 1025,0 hPa 0,0 l/m 0,0 km/h (0 Bft) O-NO 76 11,9 C 12,5 C 3,2 km/h (1 Bft)
27.09.2023 02:31 12,5 C 96 % 1025,0 hPa 0,0 l/m 0,0 km/h (0 Bft) O-NO 76 11,9 C 12,5 C 3,2 km/h (1 Bft)
27.09.2023 02:30 12,5 C 96 % 1025,1 hPa 0,0 l/m 0,0 km/h (0 Bft) O-NO 75 11,9 C 12,5 C 3,2 km/h (1 Bft)
27.09.2023 02:29 12,5 C 96 % 1025,1 hPa 0,0 l/m 0,0 km/h (0 Bft) O-NO 75 11,9 C 12,5 C 3,2 km/h (1 Bft)
27.09.2023 02:28 12,6 C 96 % 1025,0 hPa 0,0 l/m 1,6 km/h (1 Bft) O 92 12,0 C 12,6 C 3,2 km/h (1 Bft)
27.09.2023 02:27 12,6 C 96 % 1025,1 hPa 0,0 l/m 0,0 km/h (0 Bft) O 97 12,0 C 12,6 C 3,2 km/h (1 Bft)
27.09.2023 02:26 12,6 C 96 % 1025,0 hPa 0,0 l/m 3,2 km/h (1 Bft) O 94 12,0 C 12,6 C 3,2 km/h (1 Bft)
27.09.2023 02:25 12,7 C 96 % 1025,0 hPa 0,0 l/m 1,6 km/h (1 Bft) O 89 12,1 C 12,7 C 1,6 km/h (1 Bft)
27.09.2023 02:24 12,8 C 96 % 1025,1 hPa 0,0 l/m 0,0 km/h (0 Bft) O 88 12,2 C 12,8 C 1,6 km/h (1 Bft)
27.09.2023 02:23 12,7 C 96 % 1025,0 hPa 0,0 l/m 0,0 km/h (0 Bft) O 88 12,1 C 12,7 C 1,6 km/h (1 Bft)
27.09.2023 02:22 12,7 C 96 % 1025,1 hPa 0,0 l/m 0,0 km/h (0 Bft) O 88 12,1 C 12,7 C 1,6 km/h (1 Bft)
27.09.2023 02:21 12,8 C 96 % 1025,1 hPa 0,0 l/m 0,0 km/h (0 Bft) O 88 12,2 C 12,8 C 1,6 km/h (1 Bft)
27.09.2023 02:20 12,8 C 96 % 1025,1 hPa 0,0 l/m 0,0 km/h (0 Bft) O 88 12,2 C 12,8 C 1,6 km/h (1 Bft)
27.09.2023 02:19 12,8 C 96 % 1025,1 hPa 0,0 l/m 0,0 km/h (0 Bft) O 88 12,2 C 12,8 C 1,6 km/h (1 Bft)
27.09.2023 02:18 12,8 C 96 % 1025,2 hPa 0,0 l/m 0,0 km/h (0 Bft) O 88 12,2 C 12,8 C 1,6 km/h (1 Bft)
27.09.2023 02:17 12,8 C 96 % 1025,1 hPa 0,0 l/m 0,0 km/h (0 Bft) O 88 12,2 C 12,8 C 1,6 km/h (1 Bft)
27.09.2023 02:16 12,8 C 96 % 1025,1 hPa 0,0 l/m 0,0 km/h (0 Bft) O 88 12,2 C 12,8 C 1,6 km/h (1 Bft)
27.09.2023 02:15 12,8 C 96 % 1025,1 hPa 0,0 l/m 0,0 km/h (0 Bft) O 88 12,2 C 12,8 C 1,6 km/h (1 Bft)
27.09.2023 02:14 12,8 C 96 % 1025,1 hPa 0,0 l/m 0,0 km/h (0 Bft) O 88 12,2 C 12,8 C 1,6 km/h (1 Bft)
27.09.2023 02:13 12,8 C 96 % 1025,1 hPa 0,0 l/m 0,0 km/h (0 Bft) O 88 12,2 C 12,8 C 1,6 km/h (1 Bft)
27.09.2023 02:12 12,8 C 96 % 1025,1 hPa 0,0 l/m 0,0 km/h (0 Bft) O 88 12,2 C 12,8 C 1,6 km/h (1 Bft)
27.09.2023 02:11 12,8 C 96 % 1025,2 hPa 0,0 l/m 0,0 km/h (0 Bft) O 88 12,2 C 12,8 C 1,6 km/h (1 Bft)
27.09.2023 02:10 12,8 C 96 % 1025,1 hPa 0,0 l/m 0,0 km/h (0 Bft) O 88 12,2 C 12,8 C 1,6 km/h (1 Bft)
27.09.2023 02:09 12,8 C 96 % 1025,1 hPa 0,0 l/m 0,0 km/h (0 Bft) O 88 12,2 C 12,8 C 1,6 km/h (1 Bft)
27.09.2023 02:08 12,8 C 96 % 1025,1 hPa 0,0 l/m 0,0 km/h (0 Bft) O 88 12,2 C 12,8 C 1,6 km/h (1 Bft)
27.09.2023 02:07 12,8 C 96 % 1025,1 hPa 0,0 l/m 0,0 km/h (0 Bft) O 88 12,2 C 12,8 C 1,6 km/h (1 Bft)
27.09.2023 02:06 12,8 C 96 % 1025,1 hPa 0,0 l/m 0,0 km/h (0 Bft) O 88 12,2 C 12,8 C 1,6 km/h (1 Bft)
27.09.2023 02:05 12,8 C 96 % 1025,1 hPa 0,0 l/m 0,0 km/h (0 Bft) O 88 12,2 C 12,8 C 1,6 km/h (1 Bft)
27.09.2023 02:04 12,8 C 96 % 1025,0 hPa 0,0 l/m 0,0 km/h (0 Bft) O 88 12,2 C 12,8 C 1,6 km/h (1 Bft)
27.09.2023 02:03 12,8 C 96 % 1025,1 hPa 0,0 l/m 0,0 km/h (0 Bft) O 88 12,2 C 12,8 C 1,6 km/h (1 Bft)
27.09.2023 02:02 12,8 C 96 % 1025,1 hPa 0,0 l/m 0,0 km/h (0 Bft) O 88 12,2 C 12,8 C 1,6 km/h (1 Bft)
27.09.2023 02:01 12,8 C 96 % 1025,1 hPa 0,0 l/m 0,0 km/h (0 Bft) O 88 12,2 C 12,8 C 1,6 km/h (1 Bft)
27.09.2023 02:00 12,8 C 96 % 1025,1 hPa 0,0 l/m 0,0 km/h (0 Bft) O 88 12,2 C 12,8 C 1,6 km/h (1 Bft)
27.09.2023 01:59 12,8 C 96 % 1025,1 hPa 0,0 l/m 0,0 km/h (0 Bft) O 88 12,2 C 12,8 C 1,6 km/h (1 Bft)
27.09.2023 01:58 12,8 C 96 % 1025,1 hPa 0,0 l/m 0,0 km/h (0 Bft) O 88 12,2 C 12,8 C 1,6 km/h (1 Bft)
27.09.2023 01:57 12,8 C 96 % 1025,1 hPa 0,0 l/m 0,0 km/h (0 Bft) O 88 12,2 C 12,8 C 1,6 km/h (1 Bft)
27.09.2023 01:55 12,7 C 96 % 1025,2 hPa 0,0 l/m 0,0 km/h (0 Bft) O 88 12,1 C 12,7 C 1,6 km/h (1 Bft)
27.09.2023 01:54 12,8 C 96 % 1025,1 hPa 0,0 l/m 0,0 km/h (0 Bft) O 88 12,2 C 12,8 C 1,6 km/h (1 Bft)
27.09.2023 01:52 12,8 C 96 % 1025,2 hPa 0,0 l/m 0,0 km/h (0 Bft) O 88 12,2 C 12,8 C 1,6 km/h (1 Bft)
27.09.2023 01:51 12,8 C 96 % 1025,1 hPa 0,0 l/m 0,0 km/h (0 Bft) O 88 12,2 C 12,8 C 1,6 km/h (1 Bft)
27.09.2023 01:50 12,8 C 96 % 1025,1 hPa 0,0 l/m 0,0 km/h (0 Bft) O 88 12,2 C 12,8 C 1,6 km/h (1 Bft)
27.09.2023 01:49 12,8 C 96 % 1025,1 hPa 0,0 l/m 1,6 km/h (1 Bft) O 87 12,2 C 12,8 C 1,6 km/h (1 Bft)
27.09.2023 01:48 12,8 C 96 % 1025,1 hPa 0,0 l/m 0,0 km/h (0 Bft) O 87 12,2 C 12,8 C 1,6 km/h (1 Bft)
27.09.2023 01:46 12,9 C 96 % 1025,1 hPa 0,0 l/m 1,6 km/h (1 Bft) O 96 12,3 C 12,9 C 1,6 km/h (1 Bft)
27.09.2023 01:45 12,9 C 96 % 1025,1 hPa 0,0 l/m 0,0 km/h (0 Bft) O 96 12,3 C 12,9 C 1,6 km/h (1 Bft)
27.09.2023 01:44 12,9 C 96 % 1025,1 hPa 0,0 l/m 1,6 km/h (1 Bft) O 96 12,3 C 12,9 C 1,6 km/h (1 Bft)
27.09.2023 01:43 12,9 C 96 % 1025,2 hPa 0,0 l/m 1,6 km/h (1 Bft) O 96 12,3 C 12,9 C 1,6 km/h (1 Bft)
27.09.2023 01:42 12,9 C 96 % 1025,1 hPa 0,0 l/m 0,0 km/h (0 Bft) O 96 12,3 C 12,9 C 1,6 km/h (1 Bft)
27.09.2023 01:41 13,0 C 96 % 1025,1 hPa 0,0 l/m 0,0 km/h (0 Bft) O-SO 115 12,4 C 13,0 C 1,6 km/h (1 Bft)
27.09.2023 01:40 13,0 C 96 % 1025,2 hPa 0,0 l/m 0,0 km/h (0 Bft) O-SO 115 12,4 C 13,0 C 1,6 km/h (1 Bft)
27.09.2023 01:39 13,0 C 96 % 1025,1 hPa 0,0 l/m 0,0 km/h (0 Bft) O-SO 115 12,4 C 13,0 C 1,6 km/h (1 Bft)
27.09.2023 01:38 13,0 C 96 % 1025,1 hPa 0,0 l/m 0,0 km/h (0 Bft) O-SO 115 12,4 C 13,0 C 1,6 km/h (1 Bft)
27.09.2023 01:37 13,0 C 96 % 1025,1 hPa 0,0 l/m 0,0 km/h (0 Bft) O-SO 115 12,4 C 13,0 C 1,6 km/h (1 Bft)
27.09.2023 01:36 13,1 C 96 % 1025,0 hPa 0,0 l/m 0,0 km/h (0 Bft) O-SO 115 12,5 C 13,1 C 1,6 km/h (1 Bft)
27.09.2023 01:35 13,1 C 96 % 1025,1 hPa 0,0 l/m 0,0 km/h (0 Bft) O-SO 115 12,5 C 13,1 C 1,6 km/h (1 Bft)
27.09.2023 01:34 13,1 C 96 % 1025,0 hPa 0,0 l/m 0,0 km/h (0 Bft) O-SO 115 12,5 C 13,1 C 1,6 km/h (1 Bft)
27.09.2023 01:33 13,1 C 96 % 1025,0 hPa 0,0 l/m 0,0 km/h (0 Bft) SO 137 12,5 C 13,1 C 1,6 km/h (1 Bft)
27.09.2023 01:32 13,1 C 96 % 1025,1 hPa 0,0 l/m 0,0 km/h (0 Bft) SO 137 12,5 C 13,1 C 1,6 km/h (1 Bft)
27.09.2023 01:31 13,1 C 96 % 1025,1 hPa 0,0 l/m 0,0 km/h (0 Bft) SO 137 12,5 C 13,1 C 1,6 km/h (1 Bft)
27.09.2023 01:30 13,1 C 96 % 1025,1 hPa 0,0 l/m 0,0 km/h (0 Bft) SO 137 12,5 C 13,1 C 1,6 km/h (1 Bft)
27.09.2023 01:29 13,1 C 96 % 1025,2 hPa 0,0 l/m 0,0 km/h (0 Bft) SO 138 12,5 C 13,1 C 1,6 km/h (1 Bft)
27.09.2023 01:28 13,1 C 96 % 1025,1 hPa 0,0 l/m 0,0 km/h (0 Bft) SO 137 12,5 C 13,1 C 1,6 km/h (1 Bft)
27.09.2023 01:27 13,1 C 96 % 1025,1 hPa 0,0 l/m 0,0 km/h (0 Bft) SO 137 12,5 C 13,1 C 1,6 km/h (1 Bft)
27.09.2023 01:26 13,1 C 96 % 1025,1 hPa 0,0 l/m 0,0 km/h (0 Bft) SO 139 12,5 C 13,1 C 1,6 km/h (1 Bft)
27.09.2023 01:25 13,1 C 96 % 1025,1 hPa 0,0 l/m 0,0 km/h (0 Bft) SO 139 12,5 C 13,1 C 1,6 km/h (1 Bft)
27.09.2023 01:24 13,1 C 96 % 1025,0 hPa 0,0 l/m 0,0 km/h (0 Bft) SO 139 12,5 C 13,1 C 1,6 km/h (1 Bft)
27.09.2023 01:23 13,1 C 96 % 1025,0 hPa 0,0 l/m 0,0 km/h (0 Bft) SO 139 12,5 C 13,1 C 1,6 km/h (1 Bft)
27.09.2023 01:22 13,0 C 96 % 1025,1 hPa 0,0 l/m 0,0 km/h (0 Bft) SO 139 12,4 C 13,0 C 1,6 km/h (1 Bft)
27.09.2023 01:21 13,0 C 95 % 1025,1 hPa 0,0 l/m 0,0 km/h (0 Bft) SO 139 12,2 C 13,0 C 1,6 km/h (1 Bft)
27.09.2023 01:20 13,1 C 95 % 1025,0 hPa 0,0 l/m 0,0 km/h (0 Bft) SO 139 12,3 C 13,1 C 1,6 km/h (1 Bft)
27.09.2023 01:19 13,1 C 95 % 1025,1 hPa 0,0 l/m 0,0 km/h (0 Bft) SO 139 12,3 C 13,1 C 1,6 km/h (1 Bft)
27.09.2023 01:18 13,1 C 95 % 1025,1 hPa 0,0 l/m 0,0 km/h (0 Bft) SO 139 12,3 C 13,1 C 1,6 km/h (1 Bft)
27.09.2023 01:17 13,1 C 96 % 1025,0 hPa 0,0 l/m 0,0 km/h (0 Bft) SO 139 12,5 C 13,1 C 1,6 km/h (1 Bft)
27.09.2023 01:16 13,1 C 96 % 1025,0 hPa 0,0 l/m 0,0 km/h (0 Bft) SO 139 12,5 C 13,1 C 1,6 km/h (1 Bft)
27.09.2023 01:15 13,1 C 95 % 1025,0 hPa 0,0 l/m 0,0 km/h (0 Bft) SO 139 12,3 C 13,1 C 1,6 km/h (1 Bft)
27.09.2023 01:14 13,2 C 96 % 1025,0 hPa 0,0 l/m 0,0 km/h (0 Bft) SO 139 12,6 C 13,2 C 1,6 km/h (1 Bft)
27.09.2023 01:13 13,1 C 96 % 1025,0 hPa 0,0 l/m 0,0 km/h (0 Bft) SO 139 12,5 C 13,1 C 1,6 km/h (1 Bft)
27.09.2023 01:12 13,2 C 96 % 1025,0 hPa 0,0 l/m 0,0 km/h (0 Bft) SO 139 12,6 C 13,2 C 1,6 km/h (1 Bft)
27.09.2023 01:11 13,2 C 95 % 1025,0 hPa 0,0 l/m 0,0 km/h (0 Bft) SO 139 12,4 C 13,2 C 1,6 km/h (1 Bft)
27.09.2023 01:10 13,2 C 95 % 1025,1 hPa 0,0 l/m 0,0 km/h (0 Bft) SO 139 12,4 C 13,2 C 1,6 km/h (1 Bft)
27.09.2023 01:09 13,2 C 95 % 1025,0 hPa 0,0 l/m 0,0 km/h (0 Bft) SO 139 12,4 C 13,2 C 1,6 km/h (1 Bft)
27.09.2023 01:08 13,3 C 96 % 1025,1 hPa 0,0 l/m 0,0 km/h (0 Bft) SO 139 12,7 C 13,3 C 1,6 km/h (1 Bft)
27.09.2023 01:07 13,3 C 96 % 1025,1 hPa 0,0 l/m 0,0 km/h (0 Bft) SO 139 12,7 C 13,3 C 1,6 km/h (1 Bft)
27.09.2023 01:06 13,3 C 95 % 1025,1 hPa 0,0 l/m 0,0 km/h (0 Bft) SO 139 12,5 C 13,3 C 1,6 km/h (1 Bft)
27.09.2023 01:05 13,3 C 95 % 1025,1 hPa 0,0 l/m 0,0 km/h (0 Bft) SO 139 12,5 C 13,3 C 1,6 km/h (1 Bft)
27.09.2023 01:04 13,3 C 96 % 1025,1 hPa 0,0 l/m 0,0 km/h (0 Bft) SO 139 12,7 C 13,3 C 1,6 km/h (1 Bft)
27.09.2023 01:03 13,3 C 96 % 1025,1 hPa 0,0 l/m 0,0 km/h (0 Bft) SO 139 12,7 C 13,3 C 1,6 km/h (1 Bft)
27.09.2023 01:02 13,3 C 96 % 1025,2 hPa 0,0 l/m 0,0 km/h (0 Bft) SO 139 12,7 C 13,3 C 1,6 km/h (1 Bft)
27.09.2023 01:01 13,3 C 96 % 1025,1 hPa 0,0 l/m 0,0 km/h (0 Bft) SO 139 12,7 C 13,3 C 1,6 km/h (1 Bft)
27.09.2023 01:00 13,3 C 96 % 1025,1 hPa 0,0 l/m 0,0 km/h (0 Bft) SO 139 12,7 C 13,3 C 1,6 km/h (1 Bft)
27.09.2023 00:59 13,3 C 96 % 1025,0 hPa 0,0 l/m 0,0 km/h (0 Bft) SO 139 12,7 C 13,3 C 1,6 km/h (1 Bft)
27.09.2023 00:58 13,3 C 96 % 1025,1 hPa 0,0 l/m 0,0 km/h (0 Bft) SO 139 12,7 C 13,3 C 1,6 km/h (1 Bft)
27.09.2023 00:57 13,3 C 96 % 1025,0 hPa 0,0 l/m 0,0 km/h (0 Bft) SO 139 12,7 C 13,3 C 1,6 km/h (1 Bft)
27.09.2023 00:56 13,3 C 96 % 1025,0 hPa 0,0 l/m 0,0 km/h (0 Bft) SO 139 12,7 C 13,3 C 1,6 km/h (1 Bft)
27.09.2023 00:55 13,3 C 96 % 1025,0 hPa 0,0 l/m 0,0 km/h (0 Bft) SO 139 12,7 C 13,3 C 1,6 km/h (1 Bft)
27.09.2023 00:54 13,3 C 95 % 1025,0 hPa 0,0 l/m 0,0 km/h (0 Bft) SO 139 12,5 C 13,3 C 1,6 km/h (1 Bft)
27.09.2023 00:53 13,3 C 95 % 1025,0 hPa 0,0 l/m 0,0 km/h (0 Bft) SO 139 12,5 C 13,3 C 1,6 km/h (1 Bft)
27.09.2023 00:52 13,3 C 95 % 1025,0 hPa 0,0 l/m 0,0 km/h (0 Bft) SO 139 12,5 C 13,3 C 1,6 km/h (1 Bft)
27.09.2023 00:51 13,3 C 95 % 1025,0 hPa 0,0 l/m 0,0 km/h (0 Bft) SO 139 12,5 C 13,3 C 1,6 km/h (1 Bft)
27.09.2023 00:50 13,3 C 95 % 1025,0 hPa 0,0 l/m 0,0 km/h (0 Bft) SO 139 12,5 C 13,3 C 1,6 km/h (1 Bft)
27.09.2023 00:49 13,3 C 95 % 1025,0 hPa 0,0 l/m 0,0 km/h (0 Bft) SO 139 12,5 C 13,3 C 1,6 km/h (1 Bft)
27.09.2023 00:48 13,3 C 95 % 1025,0 hPa 0,0 l/m 0,0 km/h (0 Bft) SO 139 12,5 C 13,3 C 1,6 km/h (1 Bft)
27.09.2023 00:47 13,3 C 95 % 1024,9 hPa 0,0 l/m 0,0 km/h (0 Bft) SO 139 12,5 C 13,3 C 1,6 km/h (1 Bft)
27.09.2023 00:46 13,3 C 95 % 1025,0 hPa 0,0 l/m 0,0 km/h (0 Bft) SO 139 12,5 C 13,3 C 1,6 km/h (1 Bft)
27.09.2023 00:45 13,3 C 95 % 1025,0 hPa 0,0 l/m 0,0 km/h (0 Bft) SO 139 12,5 C 13,3 C 1,6 km/h (1 Bft)
27.09.2023 00:44 13,4 C 95 % 1025,0 hPa 0,0 l/m 0,0 km/h (0 Bft) SO 139 12,6 C 13,4 C 1,6 km/h (1 Bft)
27.09.2023 00:43 13,4 C 95 % 1025,0 hPa 0,0 l/m 0,0 km/h (0 Bft) SO 139 12,6 C 13,4 C 1,6 km/h (1 Bft)
27.09.2023 00:42 13,4 C 95 % 1025,0 hPa 0,0 l/m 0,0 km/h (0 Bft) SO 139 12,6 C 13,4 C 1,6 km/h (1 Bft)
27.09.2023 00:41 13,4 C 95 % 1024,9 hPa 0,0 l/m 0,0 km/h (0 Bft) SO 138 12,6 C 13,4 C 1,6 km/h (1 Bft)
27.09.2023 00:40 13,4 C 95 % 1024,9 hPa 0,0 l/m 0,0 km/h (0 Bft) SO 138 12,6 C 13,4 C 1,6 km/h (1 Bft)
27.09.2023 00:39 13,4 C 95 % 1024,9 hPa 0,0 l/m 0,0 km/h (0 Bft) SO 138 12,6 C 13,4 C 1,6 km/h (1 Bft)
27.09.2023 00:38 13,4 C 95 % 1024,9 hPa 0,0 l/m 0,0 km/h (0 Bft) SO 138 12,6 C 13,4 C 1,6 km/h (1 Bft)
27.09.2023 00:37 13,4 C 95 % 1024,9 hPa 0,0 l/m 0,0 km/h (0 Bft) SO 138 12,6 C 13,4 C 1,6 km/h (1 Bft)
27.09.2023 00:36 13,4 C 95 % 1024,9 hPa 0,0 l/m 0,0 km/h (0 Bft) SO 138 12,6 C 13,4 C 1,6 km/h (1 Bft)
27.09.2023 00:35 13,4 C 95 % 1024,9 hPa 0,0 l/m 0,0 km/h (0 Bft) SO 138 12,6 C 13,4 C 1,6 km/h (1 Bft)
27.09.2023 00:34 13,4 C 95 % 1024,9 hPa 0,0 l/m 0,0 km/h (0 Bft) SO 138 12,6 C 13,4 C 1,6 km/h (1 Bft)
27.09.2023 00:30 13,4 C 95 % 1024,9 hPa 0,0 l/m 0,0 km/h (0 Bft) SO 138 12,6 C 13,4 C 1,6 km/h (1 Bft)
27.09.2023 00:29 13,4 C 95 % 1024,8 hPa 0,0 l/m 0,0 km/h (0 Bft) SO 138 12,6 C 13,4 C 1,6 km/h (1 Bft)
27.09.2023 00:28 13,4 C 95 % 1024,8 hPa 0,0 l/m 0,0 km/h (0 Bft) SO 138 12,6 C 13,4 C 1,6 km/h (1 Bft)
27.09.2023 00:27 13,4 C 95 % 1024,8 hPa 0,0 l/m 0,0 km/h (0 Bft) SO 138 12,6 C 13,4 C 1,6 km/h (1 Bft)
27.09.2023 00:26 13,4 C 95 % 1024,9 hPa 0,0 l/m 0,0 km/h (0 Bft) SO 138 12,6 C 13,4 C 1,6 km/h (1 Bft)
27.09.2023 00:25 13,4 C 95 % 1024,8 hPa 0,0 l/m 0,0 km/h (0 Bft) SO 138 12,6 C 13,4 C 1,6 km/h (1 Bft)
27.09.2023 00:24 13,4 C 95 % 1024,8 hPa 0,0 l/m 0,0 km/h (0 Bft) SO 138 12,6 C 13,4 C 1,6 km/h (1 Bft)
27.09.2023 00:23 13,4 C 95 % 1024,8 hPa 0,0 l/m 0,0 km/h (0 Bft) SO 138 12,6 C 13,4 C 1,6 km/h (1 Bft)
27.09.2023 00:22 13,4 C 95 % 1024,8 hPa 0,0 l/m 0,0 km/h (0 Bft) SO 138 12,6 C 13,4 C 1,6 km/h (1 Bft)
27.09.2023 00:21 13,4 C 95 % 1024,8 hPa 0,0 l/m 0,0 km/h (0 Bft) SO 138 12,6 C 13,4 C 1,6 km/h (1 Bft)
27.09.2023 00:20 13,4 C 95 % 1024,8 hPa 0,0 l/m 0,0 km/h (0 Bft) SO 138 12,6 C 13,4 C 1,6 km/h (1 Bft)
27.09.2023 00:19 13,4 C 95 % 1024,8 hPa 0,0 l/m 0,0 km/h (0 Bft) SO 138 12,6 C 13,4 C 1,6 km/h (1 Bft)
27.09.2023 00:18 13,4 C 95 % 1024,9 hPa 0,0 l/m 0,0 km/h (0 Bft) SO 138 12,6 C 13,4 C 1,6 km/h (1 Bft)
27.09.2023 00:17 13,4 C 95 % 1024,8 hPa 0,0 l/m 0,0 km/h (0 Bft) SO 138 12,6 C 13,4 C 1,6 km/h (1 Bft)
27.09.2023 00:16 13,4 C 95 % 1024,8 hPa 0,0 l/m 0,0 km/h (0 Bft) SO 138 12,6 C 13,4 C 1,6 km/h (1 Bft)
27.09.2023 00:15 13,4 C 95 % 1024,8 hPa 0,0 l/m 0,0 km/h (0 Bft) SO 138 12,6 C 13,4 C 1,6 km/h (1 Bft)
27.09.2023 00:14 13,4 C 95 % 1024,8 hPa 0,0 l/m 0,0 km/h (0 Bft) SO 138 12,6 C 13,4 C 1,6 km/h (1 Bft)
27.09.2023 00:10 13,4 C 95 % 1024,8 hPa 0,0 l/m 0,0 km/h (0 Bft) SO 138 12,6 C 13,4 C 1,6 km/h (1 Bft)
27.09.2023 00:09 13,4 C 95 % 1024,9 hPa 0,0 l/m 0,0 km/h (0 Bft) SO 138 12,6 C 13,4 C 1,6 km/h (1 Bft)
27.09.2023 00:08 13,4 C 95 % 1024,9 hPa 0,0 l/m 0,0 km/h (0 Bft) SO 137 12,6 C 13,4 C 1,6 km/h (1 Bft)
27.09.2023 00:07 13,4 C 95 % 1024,9 hPa 0,0 l/m 0,0 km/h (0 Bft) SO 138 12,6 C 13,4 C 1,6 km/h (1 Bft)
27.09.2023 00:06 13,3 C 95 % 1024,9 hPa 0,0 l/m 0,0 km/h (0 Bft) SO 138 12,5 C 13,3 C 1,6 km/h (1 Bft)
27.09.2023 00:05 13,3 C 95 % 1024,8 hPa 0,0 l/m 0,0 km/h (0 Bft) SO 138 12,5 C 13,3 C 1,6 km/h (1 Bft)
27.09.2023 00:04 13,3 C 95 % 1024,8 hPa 0,0 l/m 0,0 km/h (0 Bft) SO 138 12,5 C 13,3 C 1,6 km/h (1 Bft)
27.09.2023 00:03 13,3 C 95 % 1024,8 hPa 0,0 l/m 0,0 km/h (0 Bft) SO 138 12,5 C 13,3 C 1,6 km/h (1 Bft)
27.09.2023 00:02 13,3 C 95 % 1024,8 hPa 0,0 l/m 0,0 km/h (0 Bft) SO 138 12,5 C 13,3 C 1,6 km/h (1 Bft)
27.09.2023 00:01 13,3 C 95 % 1024,8 hPa 0,0 l/m 0,0 km/h (0 Bft) SO 138 12,5 C 13,3 C 1,6 km/h (1 Bft)
27.09.2023 00:00 13,3 C 95 % 1024,7 hPa 0,0 l/m 0,0 km/h (0 Bft) SO 138 12,5 C 13,3 C 1,6 km/h (1 Bft)
26.09.2023 23:59 13,2 C 95 % 1024,8 hPa 0,0 l/m 0,0 km/h (0 Bft) SO 138 12,4 C 13,2 C 1,6 km/h (1 Bft)
26.09.2023 23:58 13,2 C 95 % 1024,7 hPa 0,0 l/m 0,0 km/h (0 Bft) SO 138 12,4 C 13,2 C 1,6 km/h (1 Bft)
26.09.2023 23:57 13,1 C 95 % 1024,8 hPa 0,0 l/m 0,0 km/h (0 Bft) SO 138 12,3 C 13,1 C 1,6 km/h (1 Bft)
26.09.2023 23:56 13,1 C 95 % 1024,8 hPa 0,0 l/m 0,0 km/h (0 Bft) SO 138 12,3 C 13,1 C 1,6 km/h (1 Bft)
26.09.2023 22:58 13,8 C 94 % 1024,5 hPa 0,0 l/m 0,0 km/h (0 Bft) SO 130 12,9 C 13,8 C 1,6 km/h (1 Bft)
26.09.2023 22:56 13,8 C 94 % 1024,5 hPa 0,0 l/m 0,0 km/h (0 Bft) SO 130 12,9 C 13,8 C 1,6 km/h (1 Bft)
26.09.2023 22:55 13,8 C 94 % 1024,5 hPa 0,0 l/m 0,0 km/h (0 Bft) SO 130 12,9 C 13,8 C 1,6 km/h (1 Bft)
26.09.2023 22:54 13,9 C 94 % 1024,4 hPa 0,0 l/m 0,0 km/h (0 Bft) SO 130 12,9 C 13,9 C 1,6 km/h (1 Bft)
26.09.2023 22:53 13,9 C 94 % 1024,5 hPa 0,0 l/m 0,0 km/h (0 Bft) SO 130 12,9 C 13,9 C 1,6 km/h (1 Bft)
26.09.2023 22:52 13,9 C 94 % 1024,4 hPa 0,0 l/m 0,0 km/h (0 Bft) SO 130 12,9 C 13,9 C 1,6 km/h (1 Bft)
26.09.2023 22:51 13,9 C 94 % 1024,4 hPa 0,0 l/m 0,0 km/h (0 Bft) SO 130 12,9 C 13,9 C 1,6 km/h (1 Bft)
26.09.2023 22:50 13,9 C 94 % 1024,4 hPa 0,0 l/m 0,0 km/h (0 Bft) SO 130 12,9 C 13,9 C 1,6 km/h (1 Bft)
26.09.2023 22:49 14,0 C 94 % 1024,4 hPa 0,0 l/m 0,0 km/h (0 Bft) SO 130 13,0 C 14,0 C 1,6 km/h (1 Bft)
26.09.2023 22:48 14,0 C 94 % 1024,4 hPa 0,0 l/m 0,0 km/h (0 Bft) SO 130 13,0 C 14,0 C 1,6 km/h (1 Bft)
26.09.2023 22:47 14,0 C 95 % 1024,4 hPa 0,0 l/m 0,0 km/h (0 Bft) SO 130 13,2 C 14,0 C 1,6 km/h (1 Bft)
26.09.2023 22:46 14,0 C 95 % 1024,3 hPa 0,0 l/m 0,0 km/h (0 Bft) SO 130 13,2 C 14,0 C 1,6 km/h (1 Bft)
26.09.2023 22:45 14,0 C 95 % 1024,4 hPa 0,0 l/m 0,0 km/h (0 Bft) SO 130 13,2 C 14,0 C 1,6 km/h (1 Bft)
26.09.2023 22:44 14,0 C 95 % 1024,4 hPa 0,0 l/m 0,0 km/h (0 Bft) SO 130 13,2 C 14,0 C 1,6 km/h (1 Bft)
26.09.2023 22:43 14,0 C 95 % 1024,4 hPa 0,0 l/m 0,0 km/h (0 Bft) SO 130 13,2 C 14,0 C 1,6 km/h (1 Bft)
26.09.2023 22:42 13,9 C 95 % 1024,4 hPa 0,0 l/m 0,0 km/h (0 Bft) SO 130 13,1 C 13,9 C 1,6 km/h (1 Bft)
26.09.2023 22:41 13,9 C 95 % 1024,4 hPa 0,0 l/m 0,0 km/h (0 Bft) SO 133 13,1 C 13,9 C 1,6 km/h (1 Bft)
26.09.2023 22:40 13,9 C 94 % 1024,4 hPa 0,0 l/m 0,0 km/h (0 Bft) SO 133 12,9 C 13,9 C 1,6 km/h (1 Bft)
26.09.2023 22:39 13,9 C 94 % 1024,3 hPa 0,0 l/m 0,0 km/h (0 Bft) SO 133 12,9 C 13,9 C 1,6 km/h (1 Bft)
26.09.2023 22:38 13,9 C 94 % 1024,3 hPa 0,0 l/m 0,0 km/h (0 Bft) SO 133 12,9 C 13,9 C 1,6 km/h (1 Bft)
26.09.2023 22:37 13,9 C 94 % 1024,4 hPa 0,0 l/m 0,0 km/h (0 Bft) SO 133 12,9 C 13,9 C 1,6 km/h (1 Bft)
26.09.2023 22:36 13,9 C 94 % 1024,4 hPa 0,0 l/m 0,0 km/h (0 Bft) SO 133 12,9 C 13,9 C 1,6 km/h (1 Bft)
26.09.2023 22:35 13,9 C 94 % 1024,4 hPa 0,0 l/m 1,6 km/h (1 Bft) SO 133 12,9 C 13,9 C 1,6 km/h (1 Bft)
26.09.2023 22:34 13,9 C 94 % 1024,3 hPa 0,0 l/m 0,0 km/h (0 Bft) SO 133 12,9 C 13,9 C 1,6 km/h (1 Bft)
26.09.2023 22:33 13,9 C 94 % 1024,4 hPa 0,0 l/m 0,0 km/h (0 Bft) SO 134 12,9 C 13,9 C 1,6 km/h (1 Bft)
26.09.2023 22:32 13,9 C 94 % 1024,3 hPa 0,0 l/m 0,0 km/h (0 Bft) SO 133 12,9 C 13,9 C 1,6 km/h (1 Bft)
26.09.2023 22:31 13,9 C 94 % 1024,3 hPa 0,0 l/m 0,0 km/h (0 Bft) SO 134 12,9 C 13,9 C 1,6 km/h (1 Bft)
26.09.2023 22:30 13,9 C 94 % 1024,3 hPa 0,0 l/m 0,0 km/h (0 Bft) SO 133 12,9 C 13,9 C 1,6 km/h (1 Bft)
26.09.2023 22:29 14,0 C 94 % 1024,4 hPa 0,0 l/m 0,0 km/h (0 Bft) SO 133 13,0 C 14,0 C 1,6 km/h (1 Bft)
26.09.2023 22:28 14,0 C 94 % 1024,4 hPa 0,0 l/m 0,0 km/h (0 Bft) SO 134 13,0 C 14,0 C 1,6 km/h (1 Bft)
26.09.2023 22:27 14,0 C 94 % 1024,3 hPa 0,0 l/m 0,0 km/h (0 Bft) SO 134 13,0 C 14,0 C 1,6 km/h (1 Bft)
26.09.2023 22:26 14,0 C 94 % 1024,3 hPa 0,0 l/m 0,0 km/h (0 Bft) SO 134 13,0 C 14,0 C 3,2 km/h (1 Bft)
26.09.2023 22:25 14,0 C 94 % 1024,3 hPa 0,0 l/m 0,0 km/h (0 Bft) SO 133 13,0 C 14,0 C 3,2 km/h (1 Bft)
26.09.2023 22:24 14,1 C 94 % 1024,3 hPa 0,0 l/m 0,0 km/h (0 Bft) SO 133 13,1 C 14,1 C 3,2 km/h (1 Bft)
26.09.2023 22:23 14,1 C 94 % 1024,3 hPa 0,0 l/m 0,0 km/h (0 Bft) SO 134 13,1 C 14,1 C 3,2 km/h (1 Bft)
26.09.2023 22:22 14,1 C 94 % 1024,3 hPa 0,0 l/m 0,0 km/h (0 Bft) SO 133 13,1 C 14,1 C 3,2 km/h (1 Bft)
26.09.2023 22:21 14,1 C 94 % 1024,3 hPa 0,0 l/m 0,0 km/h (0 Bft) SO 133 13,1 C 14,1 C 3,2 km/h (1 Bft)
26.09.2023 22:20 14,2 C 94 % 1024,4 hPa 0,0 l/m 1,6 km/h (1 Bft) SO 134 13,2 C 14,2 C 3,2 km/h (1 Bft)
26.09.2023 22:19 14,2 C 94 % 1024,3 hPa 0,0 l/m 1,6 km/h (1 Bft) SO 139 13,2 C 14,2 C 3,2 km/h (1 Bft)
26.09.2023 22:18 14,3 C 94 % 1024,3 hPa 0,0 l/m 1,6 km/h (1 Bft) SO 141 13,3 C 14,3 C 3,2 km/h (1 Bft)
26.09.2023 22:17 14,2 C 94 % 1024,3 hPa 0,0 l/m 1,6 km/h (1 Bft) SO 139 13,2 C 14,2 C 3,2 km/h (1 Bft)
26.09.2023 22:16 14,3 C 94 % 1024,3 hPa 0,0 l/m 1,6 km/h (1 Bft) SO 140 13,3 C 14,3 C 1,6 km/h (1 Bft)
26.09.2023 22:15 14,3 C 94 % 1024,3 hPa 0,0 l/m 0,0 km/h (0 Bft) SO 140 13,3 C 14,3 C 1,6 km/h (1 Bft)
26.09.2023 22:14 14,3 C 94 % 1024,2 hPa 0,0 l/m 0,0 km/h (0 Bft) SO 140 13,3 C 14,3 C 1,6 km/h (1 Bft)
26.09.2023 22:13 14,3 C 94 % 1024,3 hPa 0,0 l/m 0,0 km/h (0 Bft) SO 140 13,3 C 14,3 C 1,6 km/h (1 Bft)
26.09.2023 22:12 14,4 C 94 % 1024,3 hPa 0,0 l/m 0,0 km/h (0 Bft) SO 140 13,4 C 14,4 C 1,6 km/h (1 Bft)
26.09.2023 22:11 14,4 C 94 % 1024,2 hPa 0,0 l/m 0,0 km/h (0 Bft) SO 140 13,4 C 14,4 C 1,6 km/h (1 Bft)
26.09.2023 22:10 14,4 C 94 % 1024,3 hPa 0,0 l/m 0,0 km/h (0 Bft) SO 139 13,4 C 14,4 C 1,6 km/h (1 Bft)
26.09.2023 22:09 14,4 C 94 % 1024,3 hPa 0,0 l/m 0,0 km/h (0 Bft) SO 140 13,4 C 14,4 C 1,6 km/h (1 Bft)
26.09.2023 22:08 14,5 C 94 % 1024,3 hPa 0,0 l/m 0,0 km/h (0 Bft) SO 140 13,5 C 14,5 C 1,6 km/h (1 Bft)
26.09.2023 22:07 14,5 C 94 % 1024,3 hPa 0,0 l/m 0,0 km/h (0 Bft) SO 140 13,5 C 14,5 C 1,6 km/h (1 Bft)
26.09.2023 22:06 14,5 C 94 % 1024,3 hPa 0,0 l/m 0,0 km/h (0 Bft) SO 140 13,5 C 14,5 C 1,6 km/h (1 Bft)
26.09.2023 22:05 14,5 C 94 % 1024,3 hPa 0,0 l/m 0,0 km/h (0 Bft) SO 140 13,5 C 14,5 C 1,6 km/h (1 Bft)
26.09.2023 22:04 14,5 C 94 % 1024,3 hPa 0,0 l/m 0,0 km/h (0 Bft) SO 140 13,5 C 14,5 C 1,6 km/h (1 Bft)
26.09.2023 22:03 14,6 C 94 % 1024,3 hPa 0,0 l/m 0,0 km/h (0 Bft) SO 139 13,6 C 14,6 C 1,6 km/h (1 Bft)
26.09.2023 22:02 14,5 C 94 % 1024,3 hPa 0,0 l/m 0,0 km/h (0 Bft) SO 140 13,5 C 14,5 C 1,6 km/h (1 Bft)
26.09.2023 22:01 14,5 C 94 % 1024,3 hPa 0,0 l/m 0,0 km/h (0 Bft) SO 140 13,5 C 14,5 C 1,6 km/h (1 Bft)
26.09.2023 22:00 14,5 C 94 % 1024,3 hPa 0,0 l/m 0,0 km/h (0 Bft) SO 140 13,5 C 14,5 C 1,6 km/h (1 Bft)
26.09.2023 21:59 14,5 C 94 % 1024,3 hPa 0,0 l/m 0,0 km/h (0 Bft) SO 139 13,5 C 14,5 C 1,6 km/h (1 Bft)
26.09.2023 21:58 14,5 C 93 % 1024,2 hPa 0,0 l/m 0,0 km/h (0 Bft) SO 139 13,4 C 14,5 C 1,6 km/h (1 Bft)
26.09.2023 21:57 14,5 C 94 % 1024,2 hPa 0,0 l/m 0,0 km/h (0 Bft) SO 139 13,5 C 14,5 C 1,6 km/h (1 Bft)
26.09.2023 21:56 14,6 C 94 % 1024,3 hPa 0,0 l/m 0,0 km/h (0 Bft) SO 139 13,6 C 14,6 C 1,6 km/h (1 Bft)
26.09.2023 21:55 14,6 C 94 % 1024,2 hPa 0,0 l/m 0,0 km/h (0 Bft) SO 139 13,6 C 14,6 C 1,6 km/h (1 Bft)
26.09.2023 21:54 14,6 C 94 % 1024,3 hPa 0,0 l/m 0,0 km/h (0 Bft) SO 139 13,6 C 14,6 C 1,6 km/h (1 Bft)
26.09.2023 21:53 14,6 C 93 % 1024,3 hPa 0,0 l/m 0,0 km/h (0 Bft) SO 139 13,5 C 14,6 C 1,6 km/h (1 Bft)
26.09.2023 21:52 14,6 C 93 % 1024,3 hPa 0,0 l/m 0,0 km/h (0 Bft) SO 139 13,5 C 14,6 C 1,6 km/h (1 Bft)
26.09.2023 21:51 14,6 C 93 % 1024,2 hPa 0,0 l/m 0,0 km/h (0 Bft) SO 139 13,5 C 14,6 C 1,6 km/h (1 Bft)
26.09.2023 21:50 14,6 C 93 % 1024,3 hPa 0,0 l/m 0,0 km/h (0 Bft) SO 139 13,5 C 14,6 C 1,6 km/h (1 Bft)
26.09.2023 21:49 14,6 C 93 % 1024,2 hPa 0,0 l/m 0,0 km/h (0 Bft) SO 139 13,5 C 14,6 C 1,6 km/h (1 Bft)
26.09.2023 21:48 14,6 C 93 % 1024,3 hPa 0,0 l/m 0,0 km/h (0 Bft) SO 140 13,5 C 14,6 C 1,6 km/h (1 Bft)
26.09.2023 21:47 14,6 C 93 % 1024,2 hPa 0,0 l/m 0,0 km/h (0 Bft) SO 140 13,5 C 14,6 C 1,6 km/h (1 Bft)
26.09.2023 21:46 14,6 C 93 % 1024,2 hPa 0,0 l/m 0,0 km/h (0 Bft) SO 140 13,5 C 14,6 C 3,2 km/h (1 Bft)
26.09.2023 21:45 14,7 C 93 % 1024,3 hPa 0,0 l/m 0,0 km/h (0 Bft) SO 140 13,6 C 14,7 C 3,2 km/h (1 Bft)
26.09.2023 21:44 14,7 C 93 % 1024,3 hPa 0,0 l/m 0,0 km/h (0 Bft) SO 140 13,6 C 14,7 C 3,2 km/h (1 Bft)
26.09.2023 21:43 14,8 C 93 % 1024,3 hPa 0,0 l/m 0,0 km/h (0 Bft) SO 140 13,7 C 14,8 C 3,2 km/h (1 Bft)
26.09.2023 21:42 14,8 C 93 % 1024,3 hPa 0,0 l/m 0,0 km/h (0 Bft) SO 140 13,7 C 14,8 C 3,2 km/h (1 Bft)
26.09.2023 21:41 14,8 C 93 % 1024,3 hPa 0,0 l/m 0,0 km/h (0 Bft) SO 140 13,7 C 14,8 C 3,2 km/h (1 Bft)
26.09.2023 21:40 14,9 C 93 % 1024,3 hPa 0,0 l/m 0,0 km/h (0 Bft) SO 140 13,8 C 14,9 C 3,2 km/h (1 Bft)
26.09.2023 21:39 14,9 C 93 % 1024,3 hPa 0,0 l/m 0,0 km/h (0 Bft) SO 140 13,8 C 14,9 C 3,2 km/h (1 Bft)
26.09.2023 21:38 15,0 C 94 % 1024,2 hPa 0,0 l/m 1,6 km/h (1 Bft) SO 139 14,0 C 15,0 C 3,2 km/h (1 Bft)
26.09.2023 21:37 15,0 C 94 % 1024,3 hPa 0,0 l/m 3,2 km/h (1 Bft) S-SO 153 14,0 C 15,0 C 3,2 km/h (1 Bft)
26.09.2023 21:36 15,0 C 94 % 1024,2 hPa 0,0 l/m 1,6 km/h (1 Bft) SO 141 14,0 C 15,0 C 3,2 km/h (1 Bft)
26.09.2023 21:35 15,0 C 93 % 1024,3 hPa 0,0 l/m 0,0 km/h (0 Bft) SO 141 13,9 C 15,0 C 3,2 km/h (1 Bft)
26.09.2023 21:34 15,0 C 93 % 1024,3 hPa 0,0 l/m 0,0 km/h (0 Bft) SO 141 13,9 C 15,0 C 3,2 km/h (1 Bft)
26.09.2023 21:33 15,0 C 93 % 1024,3 hPa 0,0 l/m 0,0 km/h (0 Bft) SO 141 13,9 C 15,0 C 3,2 km/h (1 Bft)
26.09.2023 21:32 15,0 C 93 % 1024,2 hPa 0,0 l/m 1,6 km/h (1 Bft) SO 141 13,9 C 15,0 C 3,2 km/h (1 Bft)
26.09.2023 21:31 15,1 C 93 % 1024,2 hPa 0,0 l/m 1,6 km/h (1 Bft) SO 142 14,0 C 15,1 C 1,6 km/h (1 Bft)
26.09.2023 21:30 15,1 C 93 % 1024,3 hPa 0,0 l/m 1,6 km/h (1 Bft) SO 143 14,0 C 15,1 C 1,6 km/h (1 Bft)
26.09.2023 21:29 15,1 C 93 % 1024,2 hPa 0,0 l/m 0,0 km/h (0 Bft) SO 134 14,0 C 15,1 C 1,6 km/h (1 Bft)
26.09.2023 21:28 15,1 C 93 % 1024,2 hPa 0,0 l/m 0,0 km/h (0 Bft) SO 134 14,0 C 15,1 C 1,6 km/h (1 Bft)
26.09.2023 21:27 15,2 C 93 % 1024,3 hPa 0,0 l/m 0,0 km/h (0 Bft) SO 134 14,1 C 15,2 C 1,6 km/h (1 Bft)
26.09.2023 21:26 15,2 C 93 % 1024,2 hPa 0,0 l/m 0,0 km/h (0 Bft) SO 134 14,1 C 15,2 C 1,6 km/h (1 Bft)
26.09.2023 21:25 15,1 C 93 % 1024,2 hPa 0,0 l/m 0,0 km/h (0 Bft) SO 134 14,0 C 15,1 C 1,6 km/h (1 Bft)
26.09.2023 21:24 15,1 C 93 % 1024,2 hPa 0,0 l/m 0,0 km/h (0 Bft) SO 134 14,0 C 15,1 C 1,6 km/h (1 Bft)
26.09.2023 21:23 15,1 C 93 % 1024,1 hPa 0,0 l/m 0,0 km/h (0 Bft) SO 134 14,0 C 15,1 C 1,6 km/h (1 Bft)
26.09.2023 21:22 15,1 C 92 % 1024,3 hPa 0,0 l/m 0,0 km/h (0 Bft) SO 134 13,8 C 15,1 C 1,6 km/h (1 Bft)
26.09.2023 21:21 15,1 C 92 % 1024,2 hPa 0,0 l/m 0,0 km/h (0 Bft) SO 134 13,8 C 15,1 C 1,6 km/h (1 Bft)
26.09.2023 21:20 15,2 C 92 % 1024,2 hPa 0,0 l/m 0,0 km/h (0 Bft) SO 134 13,9 C 15,2 C 1,6 km/h (1 Bft)
26.09.2023 21:19 15,2 C 92 % 1024,2 hPa 0,0 l/m 0,0 km/h (0 Bft) SO 134 13,9 C 15,2 C 1,6 km/h (1 Bft)
26.09.2023 21:18 15,3 C 92 % 1024,2 hPa 0,0 l/m 0,0 km/h (0 Bft) SO 134 14,0 C 15,3 C 1,6 km/h (1 Bft)
26.09.2023 21:17 15,3 C 92 % 1024,2 hPa 0,0 l/m 1,6 km/h (1 Bft) SO 134 14,0 C 15,3 C 1,6 km/h (1 Bft)
26.09.2023 21:16 15,3 C 92 % 1024,2 hPa 0,0 l/m 1,6 km/h (1 Bft) SO 134 14,0 C 15,3 C 1,6 km/h (1 Bft)
26.09.2023 21:15 15,4 C 92 % 1024,2 hPa 0,0 l/m 0,0 km/h (0 Bft) SO 134 14,1 C 15,4 C 1,6 km/h (1 Bft)
26.09.2023 21:14 15,4 C 92 % 1024,2 hPa 0,0 l/m 0,0 km/h (0 Bft) SO 134 14,1 C 15,4 C 1,6 km/h (1 Bft)
26.09.2023 21:13 15,4 C 92 % 1024,1 hPa 0,0 l/m 0,0 km/h (0 Bft) SO 134 14,1 C 15,4 C 1,6 km/h (1 Bft)
26.09.2023 21:12 15,4 C 92 % 1024,2 hPa 0,0 l/m 0,0 km/h (0 Bft) SO 134 14,1 C 15,4 C 1,6 km/h (1 Bft)
26.09.2023 21:11 15,5 C 92 % 1024,1 hPa 0,0 l/m 0,0 km/h (0 Bft) SO 134 14,2 C 15,5 C 3,2 km/h (1 Bft)
26.09.2023 21:10 15,5 C 92 % 1024,2 hPa 0,0 l/m 0,0 km/h (0 Bft) SO 134 14,2 C 15,5 C 3,2 km/h (1 Bft)
26.09.2023 21:09 15,5 C 92 % 1024,1 hPa 0,0 l/m 0,0 km/h (0 Bft) SO 134 14,2 C 15,5 C 3,2 km/h (1 Bft)
26.09.2023 21:08 15,5 C 92 % 1024,1 hPa 0,0 l/m 0,0 km/h (0 Bft) SO 134 14,2 C 15,5 C 3,2 km/h (1 Bft)
26.09.2023 21:07 15,5 C 92 % 1024,2 hPa 0,0 l/m 0,0 km/h (0 Bft) SO 134 14,2 C 15,5 C 3,2 km/h (1 Bft)
26.09.2023 21:06 15,6 C 92 % 1024,1 hPa 0,0 l/m 0,0 km/h (0 Bft) SO 134 14,3 C 15,6 C 3,2 km/h (1 Bft)
26.09.2023 21:05 15,6 C 92 % 1024,1 hPa 0,0 l/m 0,0 km/h (0 Bft) SO 134 14,3 C 15,6 C 3,2 km/h (1 Bft)
26.09.2023 21:04 15,6 C 92 % 1024,1 hPa 0,0 l/m 0,0 km/h (0 Bft) SO 134 14,3 C 15,6 C 3,2 km/h (1 Bft)
26.09.2023 21:03 15,6 C 92 % 1024,1 hPa 0,0 l/m 1,6 km/h (1 Bft) SO 136 14,3 C 15,6 C 1,6 km/h (1 Bft)
26.09.2023 21:02 15,7 C 93 % 1024,1 hPa 0,0 l/m 0,0 km/h (0 Bft) SO 127 14,6 C 15,7 C 3,2 km/h (1 Bft)
26.09.2023 21:01 15,6 C 92 % 1024,1 hPa 0,0 l/m 1,6 km/h (1 Bft) SO 127 14,3 C 15,6 C 3,2 km/h (1 Bft)
26.09.2023 21:00 15,7 C 92 % 1024,0 hPa 0,0 l/m 1,6 km/h (1 Bft) SO 127 14,4 C 15,7 C 3,2 km/h (1 Bft)
26.09.2023 20:59 15,6 C 92 % 1024,1 hPa 0,0 l/m 0,0 km/h (0 Bft) SO 127 14,3 C 15,6 C 3,2 km/h (1 Bft)
26.09.2023 20:58 15,7 C 92 % 1024,0 hPa 0,0 l/m 0,0 km/h (0 Bft) SO 127 14,4 C 15,7 C 3,2 km/h (1 Bft)
26.09.2023 20:57 15,6 C 92 % 1024,0 hPa 0,0 l/m 1,6 km/h (1 Bft) SO 140 14,3 C 15,6 C 3,2 km/h (1 Bft)
26.09.2023 20:56 15,7 C 92 % 1023,9 hPa 0,0 l/m 1,6 km/h (1 Bft) SO 144 14,4 C 15,7 C 3,2 km/h (1 Bft)
26.09.2023 20:55 15,7 C 92 % 1024,0 hPa 0,0 l/m 1,6 km/h (1 Bft) SO 144 14,4 C 15,7 C 3,2 km/h (1 Bft)
26.09.2023 20:54 15,8 C 91 % 1023,9 hPa 0,0 l/m 1,6 km/h (1 Bft) SO 146 14,3 C 15,8 C 3,2 km/h (1 Bft)
26.09.2023 20:53 15,8 C 92 % 1023,9 hPa 0,0 l/m 1,6 km/h (1 Bft) S-SO 148 14,5 C 15,8 C 1,6 km/h (1 Bft)
26.09.2023 20:52 15,8 C 92 % 1023,9 hPa 0,0 l/m 0,0 km/h (0 Bft) S-SO 155 14,5 C 15,8 C 1,6 km/h (1 Bft)
26.09.2023 20:51 15,9 C 92 % 1024,0 hPa 0,0 l/m 0,0 km/h (0 Bft) S-SO 155 14,6 C 15,9 C 1,6 km/h (1 Bft)
26.09.2023 20:50 15,9 C 92 % 1023,9 hPa 0,0 l/m 0,0 km/h (0 Bft) S-SO 155 14,6 C 15,9 C 1,6 km/h (1 Bft)
26.09.2023 20:49 15,9 C 92 % 1023,9 hPa 0,0 l/m 0,0 km/h (0 Bft) S-SO 155 14,6 C 15,9 C 1,6 km/h (1 Bft)
26.09.2023 20:48 16,0 C 92 % 1023,9 hPa 0,0 l/m 0,0 km/h (0 Bft) S-SO 155 14,7 C 16,0 C 1,6 km/h (1 Bft)
26.09.2023 20:47 16,0 C 92 % 1023,9 hPa 0,0 l/m 0,0 km/h (0 Bft) S-SO 155 14,7 C 16,0 C 1,6 km/h (1 Bft)
26.09.2023 20:46 16,0 C 92 % 1023,9 hPa 0,0 l/m 0,0 km/h (0 Bft) S-SO 155 14,7 C 16,0 C 1,6 km/h (1 Bft)
26.09.2023 20:45 16,0 C 91 % 1023,9 hPa 0,0 l/m 1,6 km/h (1 Bft) S-SO 155 14,5 C 16,0 C 1,6 km/h (1 Bft)
26.09.2023 20:44 16,1 C 92 % 1023,9 hPa 0,0 l/m 1,6 km/h (1 Bft) SO 146 14,8 C 16,1 C 1,6 km/h (1 Bft)
26.09.2023 20:43 16,1 C 92 % 1023,9 hPa 0,0 l/m 1,6 km/h (1 Bft) SO 141 14,8 C 16,1 C 1,6 km/h (1 Bft)
26.09.2023 20:42 16,1 C 92 % 1023,9 hPa 0,0 l/m 0,0 km/h (0 Bft) SO 140 14,8 C 16,1 C 1,6 km/h (1 Bft)
26.09.2023 20:41 16,1 C 92 % 1023,9 hPa 0,0 l/m 0,0 km/h (0 Bft) SO 140 14,8 C 16,1 C 1,6 km/h (1 Bft)
26.09.2023 20:40 16,1 C 92 % 1023,9 hPa 0,0 l/m 0,0 km/h (0 Bft) SO 140 14,8 C 16,1 C 1,6 km/h (1 Bft)
26.09.2023 20:39 16,1 C 92 % 1023,8 hPa 0,0 l/m 0,0 km/h (0 Bft) SO 140 14,8 C 16,1 C 1,6 km/h (1 Bft)
26.09.2023 20:38 16,2 C 92 % 1023,8 hPa 0,0 l/m 0,0 km/h (0 Bft) SO 140 14,9 C 16,2 C 1,6 km/h (1 Bft)
26.09.2023 20:37 16,2 C 92 % 1023,8 hPa 0,0 l/m 0,0 km/h (0 Bft) SO 140 14,9 C 16,2 C 1,6 km/h (1 Bft)
26.09.2023 20:36 16,2 C 91 % 1023,8 hPa 0,0 l/m 0,0 km/h (0 Bft) SO 141 14,7 C 16,2 C 1,6 km/h (1 Bft)
26.09.2023 20:35 16,3 C 91 % 1023,8 hPa 0,0 l/m 0,0 km/h (0 Bft) SO 141 14,8 C 16,3 C 1,6 km/h (1 Bft)
26.09.2023 20:34 16,3 C 91 % 1023,8 hPa 0,0 l/m 0,0 km/h (0 Bft) SO 141 14,8 C 16,3 C 1,6 km/h (1 Bft)
26.09.2023 20:33 16,3 C 91 % 1023,8 hPa 0,0 l/m 0,0 km/h (0 Bft) SO 141 14,8 C 16,3 C 1,6 km/h (1 Bft)
26.09.2023 20:32 16,4 C 91 % 1023,8 hPa 0,0 l/m 0,0 km/h (0 Bft) SO 142 14,9 C 16,4 C 1,6 km/h (1 Bft)
26.09.2023 20:31 16,4 C 91 % 1023,8 hPa 0,0 l/m 1,6 km/h (1 Bft) SO 142 14,9 C 16,4 C 1,6 km/h (1 Bft)
26.09.2023 20:30 16,4 C 91 % 1023,8 hPa 0,0 l/m 1,6 km/h (1 Bft) SO 141 14,9 C 16,4 C 1,6 km/h (1 Bft)
26.09.2023 20:29 16,4 C 91 % 1023,8 hPa 0,0 l/m 1,6 km/h (1 Bft) SO 141 14,9 C 16,4 C 1,6 km/h (1 Bft)
26.09.2023 20:28 16,5 C 91 % 1023,8 hPa 0,0 l/m 0,0 km/h (0 Bft) S-SO 155 15,0 C 16,5 C 1,6 km/h (1 Bft)
26.09.2023 20:27 16,5 C 91 % 1023,8 hPa 0,0 l/m 0,0 km/h (0 Bft) S-SO 155 15,0 C 16,5 C 1,6 km/h (1 Bft)
26.09.2023 20:26 16,5 C 91 % 1023,8 hPa 0,0 l/m 0,0 km/h (0 Bft) S-SO 155 15,0 C 16,5 C 1,6 km/h (1 Bft)
26.09.2023 20:25 16,5 C 91 % 1023,7 hPa 0,0 l/m 0,0 km/h (0 Bft) S-SO 155 15,0 C 16,5 C 1,6 km/h (1 Bft)
26.09.2023 20:24 16,5 C 91 % 1023,8 hPa 0,0 l/m 0,0 km/h (0 Bft) S-SO 155 15,0 C 16,5 C 1,6 km/h (1 Bft)
26.09.2023 20:20 16,7 C 91 % 1023,7 hPa 0,0 l/m 0,0 km/h (0 Bft) S-SO 155 15,2 C 16,7 C 3,2 km/h (1 Bft)
26.09.2023 20:19 16,8 C 91 % 1023,6 hPa 0,0 l/m 0,0 km/h (0 Bft) S-SO 155 15,3 C 16,8 C 3,2 km/h (1 Bft)
26.09.2023 20:18 16,8 C 92 % 1023,5 hPa 0,0 l/m 1,6 km/h (1 Bft) S-SO 155 15,5 C 16,8 C 3,2 km/h (1 Bft)
26.09.2023 20:17 16,8 C 91 % 1023,5 hPa 0,0 l/m 0,0 km/h (0 Bft) S-SO 155 15,3 C 16,8 C 3,2 km/h (1 Bft)
26.09.2023 20:16 16,8 C 91 % 1023,5 hPa 0,0 l/m 0,0 km/h (0 Bft) S-SO 155 15,3 C 16,8 C 3,2 km/h (1 Bft)
26.09.2023 20:15 16,8 C 91 % 1023,5 hPa 0,0 l/m 0,0 km/h (0 Bft) S-SO 155 15,3 C 16,8 C 3,2 km/h (1 Bft)
26.09.2023 20:14 16,8 C 91 % 1023,5 hPa 0,0 l/m 0,0 km/h (0 Bft) S-SO 155 15,3 C 16,8 C 3,2 km/h (1 Bft)
26.09.2023 20:13 16,8 C 90 % 1023,5 hPa 0,0 l/m 1,6 km/h (1 Bft) S-SO 155 15,1 C 16,8 C 3,2 km/h (1 Bft)
26.09.2023 20:12 16,9 C 90 % 1023,5 hPa 0,0 l/m 3,2 km/h (1 Bft) S-SO 159 15,2 C 16,9 C 3,2 km/h (1 Bft)
26.09.2023 20:11 16,9 C 90 % 1023,5 hPa 0,0 l/m 1,6 km/h (1 Bft) S-SO 158 15,2 C 16,9 C 3,2 km/h (1 Bft)
26.09.2023 20:10 16,9 C 90 % 1023,4 hPa 0,0 l/m 0,0 km/h (0 Bft) SO 124 15,2 C 16,9 C 1,6 km/h (1 Bft)
26.09.2023 20:09 17,0 C 90 % 1023,4 hPa 0,0 l/m 0,0 km/h (0 Bft) SO 124 15,3 C 17,0 C 1,6 km/h (1 Bft)
26.09.2023 20:08 17,0 C 90 % 1023,5 hPa 0,0 l/m 0,0 km/h (0 Bft) SO 124 15,3 C 17,0 C 1,6 km/h (1 Bft)
26.09.2023 20:07 17,1 C 90 % 1023,4 hPa 0,0 l/m 0,0 km/h (0 Bft) SO 124 15,4 C 17,1 C 1,6 km/h (1 Bft)
26.09.2023 20:06 17,1 C 90 % 1023,5 hPa 0,0 l/m 0,0 km/h (0 Bft) SO 124 15,4 C 17,1 C 1,6 km/h (1 Bft)
26.09.2023 20:05 17,1 C 90 % 1023,5 hPa 0,0 l/m 0,0 km/h (0 Bft) SO 124 15,4 C 17,1 C 1,6 km/h (1 Bft)
26.09.2023 20:04 17,1 C 90 % 1023,4 hPa 0,0 l/m 0,0 km/h (0 Bft) SO 124 15,4 C 17,1 C 1,6 km/h (1 Bft)
26.09.2023 20:03 17,2 C 90 % 1023,4 hPa 0,0 l/m 0,0 km/h (0 Bft) SO 124 15,5 C 17,2 C 1,6 km/h (1 Bft)
26.09.2023 20:02 17,3 C 90 % 1023,4 hPa 0,0 l/m 0,0 km/h (0 Bft) SO 124 15,6 C 17,3 C 1,6 km/h (1 Bft)
26.09.2023 20:01 17,3 C 90 % 1023,4 hPa 0,0 l/m 0,0 km/h (0 Bft) SO 124 15,6 C 17,3 C 1,6 km/h (1 Bft)
26.09.2023 20:00 17,3 C 90 % 1023,5 hPa 0,0 l/m 0,0 km/h (0 Bft) SO 124 15,6 C 17,3 C 1,6 km/h (1 Bft)
26.09.2023 19:59 17,3 C 90 % 1023,5 hPa 0,0 l/m 0,0 km/h (0 Bft) SO 124 15,6 C 17,3 C 1,6 km/h (1 Bft)
26.09.2023 19:58 17,4 C 89 % 1023,4 hPa 0,0 l/m 1,6 km/h (1 Bft) SO 124 15,6 C 17,4 C 1,6 km/h (1 Bft)
26.09.2023 19:57 17,4 C 89 % 1023,4 hPa 0,0 l/m 0,0 km/h (0 Bft) SO 124 15,6 C 17,4 C 3,2 km/h (1 Bft)
26.09.2023 19:56 17,4 C 89 % 1023,4 hPa 0,0 l/m 0,0 km/h (0 Bft) SO 124 15,6 C 17,4 C 3,2 km/h (1 Bft)
_ Min-Zeit 06:53 17:18 17:55 - 19:56 - - 06:45 06:53 19:58
Minimum _ 10,9 C 70 % 1021,1 hPa - 0,0 km/h (0 Bft) - - 10,4 C 10,9 C 1,6 km/h (1 Bft)
_ Max-Zeit 17:36 03:58 09:20 04:18 12:23 - - 17:36 17:36 14:10
Maximum _ 23,9 C 97 % 1026,0 hPa 0,2 l/m 19,3 km/h
NW (3 Bft)
- - 19,0 C 23,9 C 25,7 km/h
NW (4 Bft)
Durchschnitt _ 15,9 C 89 % 1024,4 hPa #0,2 l/m 3,0 km/h (1 Bft) W-NW - 14,0 C 15,5 C 5,9 km/h (2 Bft)